<?xml version="1.0" encoding="UTF-8" standalone="no" ?>
<gpx xmlns="http://www.topografix.com/GPX/1/1" xmlns:xsi="http://www.w3.org/2001/XMLSchema-instance" xsi:schemaLocation="http://www.topografix.com/GPX/1/1 http://www.topografix.com/GPX/1/1/gpx.xsd" version="1.1" creator="VisuGPX - https://www.visugpx.com">
  <metadata>
    <name>sous_la_pointe_des_cerces</name>
    <desc><![CDATA[plan lachat, lac des cerces, col des rochilles, lac du grand Ban]]></desc>
  </metadata>
  <trk>
    <name><![CDATA[suuntoapp-Hiking-2024-08-16T05-11-23Z_1]]></name>
    <extensions>
      <line xmlns="http://www.topografix.com/GPX/gpx_style/0/2">
        <color>0000FF</color>
        <width>4</width>
      </line>
    </extensions>
    <trkseg>
      <trkpt lat="45.08995" lon="6.43586">
        <ele>1978</ele>
        <time>2024-08-16T05:26:38.000Z</time>
      </trkpt>
      <trkpt lat="45.09002" lon="6.436">
        <ele>1978</ele>
        <time>2024-08-16T05:26:48.536Z</time>
      </trkpt>
      <trkpt lat="45.09001" lon="6.43614">
        <ele>1977</ele>
        <time>2024-08-16T05:26:56.098Z</time>
      </trkpt>
      <trkpt lat="45.09002" lon="6.43618">
        <ele>1976</ele>
        <time>2024-08-16T05:26:58.379Z</time>
      </trkpt>
      <trkpt lat="45.08999" lon="6.43617">
        <ele>1977</ele>
        <time>2024-08-16T05:27:07.351Z</time>
      </trkpt>
      <trkpt lat="45.09003" lon="6.43624">
        <ele>1977</ele>
        <time>2024-08-16T05:27:12.882Z</time>
      </trkpt>
      <trkpt lat="45.08996" lon="6.43634">
        <ele>1969</ele>
        <time>2024-08-16T05:27:20.450Z</time>
      </trkpt>
      <trkpt lat="45.08989" lon="6.43644">
        <ele>1981</ele>
        <time>2024-08-16T05:28:05.856Z</time>
      </trkpt>
      <trkpt lat="45.08985" lon="6.43656">
        <ele>1981</ele>
        <time>2024-08-16T05:28:14.006Z</time>
      </trkpt>
      <trkpt lat="45.08979" lon="6.43666">
        <ele>1979</ele>
        <time>2024-08-16T05:28:21.059Z</time>
      </trkpt>
      <trkpt lat="45.08973" lon="6.43676">
        <ele>1981</ele>
        <time>2024-08-16T05:28:38.309Z</time>
      </trkpt>
      <trkpt lat="45.08966" lon="6.43684">
        <ele>1989</ele>
        <time>2024-08-16T05:29:19.387Z</time>
      </trkpt>
      <trkpt lat="45.08959" lon="6.43694">
        <ele>1994</ele>
        <time>2024-08-16T05:30:04.794Z</time>
      </trkpt>
      <trkpt lat="45.08953" lon="6.43704">
        <ele>1993</ele>
        <time>2024-08-16T05:30:11.846Z</time>
      </trkpt>
      <trkpt lat="45.08946" lon="6.43714">
        <ele>1997</ele>
        <time>2024-08-16T05:30:51.319Z</time>
      </trkpt>
      <trkpt lat="45.0894" lon="6.43724">
        <ele>1997</ele>
        <time>2024-08-16T05:30:59.379Z</time>
      </trkpt>
      <trkpt lat="45.08934" lon="6.43734">
        <ele>1997</ele>
        <time>2024-08-16T05:31:07.439Z</time>
      </trkpt>
      <trkpt lat="45.08925" lon="6.43741">
        <ele>1998</ele>
        <time>2024-08-16T05:31:19.725Z</time>
      </trkpt>
      <trkpt lat="45.08919" lon="6.4375">
        <ele>2000</ele>
        <time>2024-08-16T05:31:36.864Z</time>
      </trkpt>
      <trkpt lat="45.0891" lon="6.43757">
        <ele>2003</ele>
        <time>2024-08-16T05:32:02.987Z</time>
      </trkpt>
      <trkpt lat="45.08904" lon="6.43768">
        <ele>2004</ele>
        <time>2024-08-16T05:32:14.916Z</time>
      </trkpt>
      <trkpt lat="45.08898" lon="6.4378">
        <ele>2008</ele>
        <time>2024-08-16T05:32:53.574Z</time>
      </trkpt>
      <trkpt lat="45.08893" lon="6.43791">
        <ele>2008</ele>
        <time>2024-08-16T05:33:01.609Z</time>
      </trkpt>
      <trkpt lat="45.08887" lon="6.43803">
        <ele>2008</ele>
        <time>2024-08-16T05:33:10.640Z</time>
      </trkpt>
      <trkpt lat="45.0888" lon="6.43809">
        <ele>2013</ele>
        <time>2024-08-16T05:33:48.008Z</time>
      </trkpt>
      <trkpt lat="45.08875" lon="6.4382">
        <ele>2011</ele>
        <time>2024-08-16T05:33:55.039Z</time>
      </trkpt>
      <trkpt lat="45.0887" lon="6.43834">
        <ele>2013</ele>
        <time>2024-08-16T05:34:13.004Z</time>
      </trkpt>
      <trkpt lat="45.08865" lon="6.43844">
        <ele>2013</ele>
        <time>2024-08-16T05:34:20.530Z</time>
      </trkpt>
      <trkpt lat="45.08857" lon="6.43853">
        <ele>2016</ele>
        <time>2024-08-16T05:34:46.682Z</time>
      </trkpt>
      <trkpt lat="45.0885" lon="6.43861">
        <ele>2017</ele>
        <time>2024-08-16T05:34:57.978Z</time>
      </trkpt>
      <trkpt lat="45.08845" lon="6.43872">
        <ele>2018</ele>
        <time>2024-08-16T05:35:09.459Z</time>
      </trkpt>
      <trkpt lat="45.0884" lon="6.43883">
        <ele>2018</ele>
        <time>2024-08-16T05:35:17.494Z</time>
      </trkpt>
      <trkpt lat="45.08834" lon="6.43893">
        <ele>2018</ele>
        <time>2024-08-16T05:35:25.554Z</time>
      </trkpt>
      <trkpt lat="45.08826" lon="6.43899">
        <ele>2018</ele>
        <time>2024-08-16T05:35:33.429Z</time>
      </trkpt>
      <trkpt lat="45.08822" lon="6.43911">
        <ele>2018</ele>
        <time>2024-08-16T05:35:41.580Z</time>
      </trkpt>
      <trkpt lat="45.08815" lon="6.4392">
        <ele>2021</ele>
        <time>2024-08-16T05:36:08.295Z</time>
      </trkpt>
      <trkpt lat="45.0881" lon="6.4393">
        <ele>2023</ele>
        <time>2024-08-16T05:36:25.421Z</time>
      </trkpt>
      <trkpt lat="45.08803" lon="6.43939">
        <ele>2027</ele>
        <time>2024-08-16T05:37:05.808Z</time>
      </trkpt>
      <trkpt lat="45.088" lon="6.43952">
        <ele>2029</ele>
        <time>2024-08-16T05:37:23.174Z</time>
      </trkpt>
      <trkpt lat="45.08796" lon="6.43964">
        <ele>2029</ele>
        <time>2024-08-16T05:37:31.325Z</time>
      </trkpt>
      <trkpt lat="45.0879" lon="6.43977">
        <ele>2030</ele>
        <time>2024-08-16T05:37:44.167Z</time>
      </trkpt>
      <trkpt lat="45.08787" lon="6.43988">
        <ele>2033</ele>
        <time>2024-08-16T05:38:12.256Z</time>
      </trkpt>
      <trkpt lat="45.08783" lon="6.44001">
        <ele>2033</ele>
        <time>2024-08-16T05:38:20.966Z</time>
      </trkpt>
      <trkpt lat="45.08778" lon="6.44012">
        <ele>2033</ele>
        <time>2024-08-16T05:38:29.001Z</time>
      </trkpt>
      <trkpt lat="45.08774" lon="6.44025">
        <ele>2035</ele>
        <time>2024-08-16T05:38:46.495Z</time>
      </trkpt>
      <trkpt lat="45.0877" lon="6.44037">
        <ele>2036</ele>
        <time>2024-08-16T05:38:58.078Z</time>
      </trkpt>
      <trkpt lat="45.08765" lon="6.44049">
        <ele>2036</ele>
        <time>2024-08-16T05:39:06.636Z</time>
      </trkpt>
      <trkpt lat="45.08762" lon="6.44061">
        <ele>2037</ele>
        <time>2024-08-16T05:39:17.926Z</time>
      </trkpt>
      <trkpt lat="45.08758" lon="6.44073">
        <ele>2037</ele>
        <time>2024-08-16T05:39:26.077Z</time>
      </trkpt>
      <trkpt lat="45.08752" lon="6.44085">
        <ele>2039</ele>
        <time>2024-08-16T05:39:43.720Z</time>
      </trkpt>
      <trkpt lat="45.08747" lon="6.44097">
        <ele>2041</ele>
        <time>2024-08-16T05:40:01.148Z</time>
      </trkpt>
      <trkpt lat="45.08742" lon="6.44107">
        <ele>2041</ele>
        <time>2024-08-16T05:40:08.675Z</time>
      </trkpt>
      <trkpt lat="45.08736" lon="6.44118">
        <ele>2041</ele>
        <time>2024-08-16T05:40:17.212Z</time>
      </trkpt>
      <trkpt lat="45.08729" lon="6.44129">
        <ele>2042</ele>
        <time>2024-08-16T05:40:29.647Z</time>
      </trkpt>
      <trkpt lat="45.08721" lon="6.44136">
        <ele>2042</ele>
        <time>2024-08-16T05:40:37.827Z</time>
      </trkpt>
      <trkpt lat="45.08713" lon="6.44142">
        <ele>2042</ele>
        <time>2024-08-16T05:40:45.702Z</time>
      </trkpt>
      <trkpt lat="45.08709" lon="6.44155">
        <ele>2042</ele>
        <time>2024-08-16T05:40:54.412Z</time>
      </trkpt>
      <trkpt lat="45.08704" lon="6.44166">
        <ele>2042</ele>
        <time>2024-08-16T05:41:02.447Z</time>
      </trkpt>
      <trkpt lat="45.08699" lon="6.44177">
        <ele>2043</ele>
        <time>2024-08-16T05:41:13.929Z</time>
      </trkpt>
      <trkpt lat="45.08693" lon="6.44189">
        <ele>2044</ele>
        <time>2024-08-16T05:41:26.305Z</time>
      </trkpt>
      <trkpt lat="45.08689" lon="6.44203">
        <ele>2043</ele>
        <time>2024-08-16T05:41:34.422Z</time>
      </trkpt>
      <trkpt lat="45.08687" lon="6.44218">
        <ele>2044</ele>
        <time>2024-08-16T05:41:47.114Z</time>
      </trkpt>
      <trkpt lat="45.08684" lon="6.4423">
        <ele>2044</ele>
        <time>2024-08-16T05:41:54.932Z</time>
      </trkpt>
      <trkpt lat="45.08683" lon="6.44244">
        <ele>2044</ele>
        <time>2024-08-16T05:42:03.575Z</time>
      </trkpt>
      <trkpt lat="45.08679" lon="6.44258">
        <ele>2045</ele>
        <time>2024-08-16T05:42:16.176Z</time>
      </trkpt>
      <trkpt lat="45.08676" lon="6.4427">
        <ele>2045</ele>
        <time>2024-08-16T05:42:23.994Z</time>
      </trkpt>
      <trkpt lat="45.08674" lon="6.44283">
        <ele>2047</ele>
        <time>2024-08-16T05:42:41.280Z</time>
      </trkpt>
      <trkpt lat="45.08673" lon="6.44295">
        <ele>2047</ele>
        <time>2024-08-16T05:42:48.701Z</time>
      </trkpt>
      <trkpt lat="45.08669" lon="6.44307">
        <ele>2047</ele>
        <time>2024-08-16T05:42:56.852Z</time>
      </trkpt>
      <trkpt lat="45.08667" lon="6.4432">
        <ele>2047</ele>
        <time>2024-08-16T05:43:05.024Z</time>
      </trkpt>
      <trkpt lat="45.08664" lon="6.44333">
        <ele>2048</ele>
        <time>2024-08-16T05:43:16.830Z</time>
      </trkpt>
      <trkpt lat="45.08661" lon="6.44347">
        <ele>2049</ele>
        <time>2024-08-16T05:43:29.165Z</time>
      </trkpt>
      <trkpt lat="45.08657" lon="6.44358">
        <ele>2049</ele>
        <time>2024-08-16T05:43:36.765Z</time>
      </trkpt>
      <trkpt lat="45.08655" lon="6.44371">
        <ele>2051</ele>
        <time>2024-08-16T05:43:54.050Z</time>
      </trkpt>
      <trkpt lat="45.08651" lon="6.44383">
        <ele>2052</ele>
        <time>2024-08-16T05:44:05.634Z</time>
      </trkpt>
      <trkpt lat="45.08649" lon="6.44395">
        <ele>2052</ele>
        <time>2024-08-16T05:44:13.207Z</time>
      </trkpt>
      <trkpt lat="45.08649" lon="6.44409">
        <ele>2052</ele>
        <time>2024-08-16T05:44:21.805Z</time>
      </trkpt>
      <trkpt lat="45.08648" lon="6.44423">
        <ele>2050</ele>
        <time>2024-08-16T05:44:29.368Z</time>
      </trkpt>
      <trkpt lat="45.08651" lon="6.44436">
        <ele>2050</ele>
        <time>2024-08-16T05:44:37.768Z</time>
      </trkpt>
      <trkpt lat="45.08652" lon="6.4445">
        <ele>2049</ele>
        <time>2024-08-16T05:44:45.331Z</time>
      </trkpt>
      <trkpt lat="45.08653" lon="6.44462">
        <ele>2049</ele>
        <time>2024-08-16T05:44:52.752Z</time>
      </trkpt>
      <trkpt lat="45.08651" lon="6.44475">
        <ele>2049</ele>
        <time>2024-08-16T05:45:00.924Z</time>
      </trkpt>
      <trkpt lat="45.08646" lon="6.44487">
        <ele>2050</ele>
        <time>2024-08-16T05:45:12.872Z</time>
      </trkpt>
      <trkpt lat="45.0864" lon="6.44498">
        <ele>2050</ele>
        <time>2024-08-16T05:45:21.409Z</time>
      </trkpt>
      <trkpt lat="45.08633" lon="6.44509">
        <ele>2052</ele>
        <time>2024-08-16T05:45:39.084Z</time>
      </trkpt>
      <trkpt lat="45.08626" lon="6.44517">
        <ele>2054</ele>
        <time>2024-08-16T05:45:56.270Z</time>
      </trkpt>
      <trkpt lat="45.08618" lon="6.44525">
        <ele>2055</ele>
        <time>2024-08-16T05:46:08.182Z</time>
      </trkpt>
      <trkpt lat="45.08611" lon="6.44535">
        <ele>2058</ele>
        <time>2024-08-16T05:46:34.508Z</time>
      </trkpt>
      <trkpt lat="45.08604" lon="6.44545">
        <ele>2058</ele>
        <time>2024-08-16T05:46:43.157Z</time>
      </trkpt>
      <trkpt lat="45.08599" lon="6.44557">
        <ele>2062</ele>
        <time>2024-08-16T05:47:22.826Z</time>
      </trkpt>
      <trkpt lat="45.08593" lon="6.44568">
        <ele>2063</ele>
        <time>2024-08-16T05:47:34.755Z</time>
      </trkpt>
      <trkpt lat="45.08587" lon="6.44579">
        <ele>2063</ele>
        <time>2024-08-16T05:47:43.293Z</time>
      </trkpt>
      <trkpt lat="45.08582" lon="6.4459">
        <ele>2066</ele>
        <time>2024-08-16T05:48:10.219Z</time>
      </trkpt>
      <trkpt lat="45.08576" lon="6.446">
        <ele>2066</ele>
        <time>2024-08-16T05:48:18.280Z</time>
      </trkpt>
      <trkpt lat="45.08571" lon="6.44612">
        <ele>2066</ele>
        <time>2024-08-16T05:48:26.838Z</time>
      </trkpt>
      <trkpt lat="45.08567" lon="6.44623">
        <ele>2067</ele>
        <time>2024-08-16T05:48:37.938Z</time>
      </trkpt>
      <trkpt lat="45.08562" lon="6.44636">
        <ele>2069</ele>
        <time>2024-08-16T05:48:55.611Z</time>
      </trkpt>
      <trkpt lat="45.08558" lon="6.44647">
        <ele>2070</ele>
        <time>2024-08-16T05:49:06.711Z</time>
      </trkpt>
      <trkpt lat="45.08553" lon="6.44658">
        <ele>2070</ele>
        <time>2024-08-16T05:49:14.746Z</time>
      </trkpt>
      <trkpt lat="45.08548" lon="6.4467">
        <ele>2072</ele>
        <time>2024-08-16T05:49:32.175Z</time>
      </trkpt>
      <trkpt lat="45.08544" lon="6.44682">
        <ele>2074</ele>
        <time>2024-08-16T05:49:49.454Z</time>
      </trkpt>
      <trkpt lat="45.08539" lon="6.44694">
        <ele>2076</ele>
        <time>2024-08-16T05:50:06.883Z</time>
      </trkpt>
      <trkpt lat="45.08537" lon="6.44708">
        <ele>2076</ele>
        <time>2024-08-16T05:50:15.656Z</time>
      </trkpt>
      <trkpt lat="45.08535" lon="6.44722">
        <ele>2075</ele>
        <time>2024-08-16T05:50:23.332Z</time>
      </trkpt>
      <trkpt lat="45.08535" lon="6.44734">
        <ele>2075</ele>
        <time>2024-08-16T05:50:30.703Z</time>
      </trkpt>
      <trkpt lat="45.08531" lon="6.44748">
        <ele>2075</ele>
        <time>2024-08-16T05:50:39.979Z</time>
      </trkpt>
      <trkpt lat="45.08532" lon="6.44761">
        <ele>2074</ele>
        <time>2024-08-16T05:50:47.008Z</time>
      </trkpt>
      <trkpt lat="45.08533" lon="6.44776">
        <ele>2074</ele>
        <time>2024-08-16T05:50:56.262Z</time>
      </trkpt>
      <trkpt lat="45.08531" lon="6.44789">
        <ele>2074</ele>
        <time>2024-08-16T05:51:04.434Z</time>
      </trkpt>
      <trkpt lat="45.0853" lon="6.44802">
        <ele>2074</ele>
        <time>2024-08-16T05:51:12.466Z</time>
      </trkpt>
      <trkpt lat="45.08526" lon="6.44816">
        <ele>2076</ele>
        <time>2024-08-16T05:51:30.234Z</time>
      </trkpt>
      <trkpt lat="45.08526" lon="6.44829">
        <ele>2076</ele>
        <time>2024-08-16T05:51:38.218Z</time>
      </trkpt>
      <trkpt lat="45.08528" lon="6.44843">
        <ele>2077</ele>
        <time>2024-08-16T05:51:50.360Z</time>
      </trkpt>
      <trkpt lat="45.08529" lon="6.44858">
        <ele>2078</ele>
        <time>2024-08-16T05:52:02.941Z</time>
      </trkpt>
      <trkpt lat="45.08526" lon="6.4487">
        <ele>2078</ele>
        <time>2024-08-16T05:52:10.760Z</time>
      </trkpt>
      <trkpt lat="45.08526" lon="6.44884">
        <ele>2077</ele>
        <time>2024-08-16T05:52:18.284Z</time>
      </trkpt>
      <trkpt lat="45.08527" lon="6.44898">
        <ele>2080</ele>
        <time>2024-08-16T05:52:44.614Z</time>
      </trkpt>
      <trkpt lat="45.08526" lon="6.44912">
        <ele>2080</ele>
        <time>2024-08-16T05:52:53.257Z</time>
      </trkpt>
      <trkpt lat="45.08527" lon="6.44925">
        <ele>2080</ele>
        <time>2024-08-16T05:53:01.289Z</time>
      </trkpt>
      <trkpt lat="45.08524" lon="6.44937">
        <ele>2083</ele>
        <time>2024-08-16T05:53:28.487Z</time>
      </trkpt>
      <trkpt lat="45.08523" lon="6.44951">
        <ele>2083</ele>
        <time>2024-08-16T05:53:37.130Z</time>
      </trkpt>
      <trkpt lat="45.08522" lon="6.44965">
        <ele>2083</ele>
        <time>2024-08-16T05:53:45.773Z</time>
      </trkpt>
      <trkpt lat="45.08523" lon="6.44978">
        <ele>2083</ele>
        <time>2024-08-16T05:53:53.805Z</time>
      </trkpt>
      <trkpt lat="45.08523" lon="6.44992">
        <ele>2084</ele>
        <time>2024-08-16T05:54:05.789Z</time>
      </trkpt>
      <trkpt lat="45.08519" lon="6.45004">
        <ele>2084</ele>
        <time>2024-08-16T05:54:13.940Z</time>
      </trkpt>
      <trkpt lat="45.08517" lon="6.45018">
        <ele>2085</ele>
        <time>2024-08-16T05:54:26.082Z</time>
      </trkpt>
      <trkpt lat="45.08515" lon="6.45032">
        <ele>2085</ele>
        <time>2024-08-16T05:54:34.855Z</time>
      </trkpt>
      <trkpt lat="45.08508" lon="6.45041">
        <ele>2089</ele>
        <time>2024-08-16T05:55:15.241Z</time>
      </trkpt>
      <trkpt lat="45.08504" lon="6.45053">
        <ele>2089</ele>
        <time>2024-08-16T05:55:23.392Z</time>
      </trkpt>
      <trkpt lat="45.08499" lon="6.45066">
        <ele>2097</ele>
        <time>2024-08-16T05:56:11.128Z</time>
      </trkpt>
      <trkpt lat="45.08493" lon="6.45075">
        <ele>2100</ele>
        <time>2024-08-16T05:56:38.631Z</time>
      </trkpt>
      <trkpt lat="45.08487" lon="6.45086">
        <ele>2100</ele>
        <time>2024-08-16T05:56:47.169Z</time>
      </trkpt>
      <trkpt lat="45.0848" lon="6.45095">
        <ele>2103</ele>
        <time>2024-08-16T05:57:13.885Z</time>
      </trkpt>
      <trkpt lat="45.08474" lon="6.45105">
        <ele>2110</ele>
        <time>2024-08-16T05:57:56.202Z</time>
      </trkpt>
      <trkpt lat="45.08468" lon="6.45116">
        <ele>2110</ele>
        <time>2024-08-16T05:58:04.740Z</time>
      </trkpt>
      <trkpt lat="45.08462" lon="6.45127">
        <ele>2111</ele>
        <time>2024-08-16T05:58:16.669Z</time>
      </trkpt>
      <trkpt lat="45.08455" lon="6.45137">
        <ele>2113</ele>
        <time>2024-08-16T05:58:34.136Z</time>
      </trkpt>
      <trkpt lat="45.08447" lon="6.45144">
        <ele>2112</ele>
        <time>2024-08-16T05:58:41.294Z</time>
      </trkpt>
      <trkpt lat="45.08438" lon="6.45153">
        <ele>2112</ele>
        <time>2024-08-16T05:58:50.878Z</time>
      </trkpt>
      <trkpt lat="45.08432" lon="6.45163">
        <ele>2112</ele>
        <time>2024-08-16T05:58:58.939Z</time>
      </trkpt>
      <trkpt lat="45.08428" lon="6.45175">
        <ele>2112</ele>
        <time>2024-08-16T05:59:07.090Z</time>
      </trkpt>
      <trkpt lat="45.08426" lon="6.45188">
        <ele>2113</ele>
        <time>2024-08-16T05:59:18.692Z</time>
      </trkpt>
      <trkpt lat="45.08422" lon="6.45203">
        <ele>2113</ele>
        <time>2024-08-16T05:59:28.541Z</time>
      </trkpt>
      <trkpt lat="45.08415" lon="6.45212">
        <ele>2113</ele>
        <time>2024-08-16T05:59:36.765Z</time>
      </trkpt>
      <trkpt lat="45.08406" lon="6.4522">
        <ele>2113</ele>
        <time>2024-08-16T05:59:46.009Z</time>
      </trkpt>
      <trkpt lat="45.08396" lon="6.45225">
        <ele>2114</ele>
        <time>2024-08-16T05:59:58.563Z</time>
      </trkpt>
      <trkpt lat="45.08388" lon="6.45233">
        <ele>2115</ele>
        <time>2024-08-16T06:00:10.475Z</time>
      </trkpt>
      <trkpt lat="45.08384" lon="6.45245">
        <ele>2115</ele>
        <time>2024-08-16T06:00:18.626Z</time>
      </trkpt>
      <trkpt lat="45.08378" lon="6.45255">
        <ele>2116</ele>
        <time>2024-08-16T06:00:30.130Z</time>
      </trkpt>
      <trkpt lat="45.08375" lon="6.45267">
        <ele>2114</ele>
        <time>2024-08-16T06:00:36.971Z</time>
      </trkpt>
      <trkpt lat="45.08369" lon="6.45279">
        <ele>2112</ele>
        <time>2024-08-16T06:00:44.874Z</time>
      </trkpt>
      <trkpt lat="45.08363" lon="6.45289">
        <ele>2112</ele>
        <time>2024-08-16T06:00:52.935Z</time>
      </trkpt>
      <trkpt lat="45.08358" lon="6.45301">
        <ele>2114</ele>
        <time>2024-08-16T06:01:10.364Z</time>
      </trkpt>
      <trkpt lat="45.0835" lon="6.45308">
        <ele>2120</ele>
        <time>2024-08-16T06:01:53.311Z</time>
      </trkpt>
      <trkpt lat="45.08341" lon="6.4531">
        <ele>2124</ele>
        <time>2024-08-16T06:02:34.289Z</time>
      </trkpt>
      <trkpt lat="45.08334" lon="6.45317">
        <ele>2127</ele>
        <time>2024-08-16T06:03:02.021Z</time>
      </trkpt>
      <trkpt lat="45.08325" lon="6.45322">
        <ele>2127</ele>
        <time>2024-08-16T06:03:10.431Z</time>
      </trkpt>
      <trkpt lat="45.08316" lon="6.45329">
        <ele>2128</ele>
        <time>2024-08-16T06:03:22.718Z</time>
      </trkpt>
      <trkpt lat="45.0831" lon="6.45339">
        <ele>2129</ele>
        <time>2024-08-16T06:03:34.221Z</time>
      </trkpt>
      <trkpt lat="45.08303" lon="6.45349">
        <ele>2128</ele>
        <time>2024-08-16T06:03:41.789Z</time>
      </trkpt>
      <trkpt lat="45.08299" lon="6.45362">
        <ele>2129</ele>
        <time>2024-08-16T06:03:53.874Z</time>
      </trkpt>
      <trkpt lat="45.08294" lon="6.45375">
        <ele>2130</ele>
        <time>2024-08-16T06:04:06.307Z</time>
      </trkpt>
      <trkpt lat="45.08292" lon="6.45387">
        <ele>2133</ele>
        <time>2024-08-16T06:04:33.854Z</time>
      </trkpt>
      <trkpt lat="45.08288" lon="6.454">
        <ele>2136</ele>
        <time>2024-08-16T06:05:00.132Z</time>
      </trkpt>
      <trkpt lat="45.08283" lon="6.45412">
        <ele>2139</ele>
        <time>2024-08-16T06:05:26.531Z</time>
      </trkpt>
      <trkpt lat="45.08279" lon="6.45424">
        <ele>2140</ele>
        <time>2024-08-16T06:05:38.115Z</time>
      </trkpt>
      <trkpt lat="45.08276" lon="6.45437">
        <ele>2141</ele>
        <time>2024-08-16T06:05:49.921Z</time>
      </trkpt>
      <trkpt lat="45.0827" lon="6.45447">
        <ele>2141</ele>
        <time>2024-08-16T06:05:57.982Z</time>
      </trkpt>
      <trkpt lat="45.08262" lon="6.45455">
        <ele>2144</ele>
        <time>2024-08-16T06:06:24.415Z</time>
      </trkpt>
      <trkpt lat="45.08258" lon="6.45467">
        <ele>2148</ele>
        <time>2024-08-16T06:07:04.952Z</time>
      </trkpt>
      <trkpt lat="45.08254" lon="6.45479">
        <ele>2150</ele>
        <time>2024-08-16T06:07:22.231Z</time>
      </trkpt>
      <trkpt lat="45.08249" lon="6.4549">
        <ele>2151</ele>
        <time>2024-08-16T06:07:33.713Z</time>
      </trkpt>
      <trkpt lat="45.08243" lon="6.455">
        <ele>2152</ele>
        <time>2024-08-16T06:07:45.216Z</time>
      </trkpt>
      <trkpt lat="45.08239" lon="6.45513">
        <ele>2153</ele>
        <time>2024-08-16T06:07:57.301Z</time>
      </trkpt>
      <trkpt lat="45.08231" lon="6.4552">
        <ele>2157</ele>
        <time>2024-08-16T06:08:37.778Z</time>
      </trkpt>
      <trkpt lat="45.08224" lon="6.45527">
        <ele>2159</ele>
        <time>2024-08-16T06:08:54.894Z</time>
      </trkpt>
      <trkpt lat="45.08218" lon="6.45539">
        <ele>2163</ele>
        <time>2024-08-16T06:09:33.550Z</time>
      </trkpt>
      <trkpt lat="45.08218" lon="6.45552">
        <ele>2165</ele>
        <time>2024-08-16T06:09:50.779Z</time>
      </trkpt>
      <trkpt lat="45.08214" lon="6.45564">
        <ele>2169</ele>
        <time>2024-08-16T06:10:31.316Z</time>
      </trkpt>
      <trkpt lat="45.08223" lon="6.4557">
        <ele>2168</ele>
        <time>2024-08-16T06:10:38.888Z</time>
      </trkpt>
      <trkpt lat="45.0823" lon="6.45562">
        <ele>2170</ele>
        <time>2024-08-16T06:10:56.074Z</time>
      </trkpt>
      <trkpt lat="45.0824" lon="6.45563">
        <ele>2172</ele>
        <time>2024-08-16T06:11:13.572Z</time>
      </trkpt>
      <trkpt lat="45.08236" lon="6.45575">
        <ele>2176</ele>
        <time>2024-08-16T06:11:54.110Z</time>
      </trkpt>
      <trkpt lat="45.08233" lon="6.45589">
        <ele>2181</ele>
        <time>2024-08-16T06:12:41.290Z</time>
      </trkpt>
      <trkpt lat="45.08231" lon="6.45601">
        <ele>2182</ele>
        <time>2024-08-16T06:12:52.367Z</time>
      </trkpt>
      <trkpt lat="45.08227" lon="6.45615">
        <ele>2185</ele>
        <time>2024-08-16T06:13:18.299Z</time>
      </trkpt>
      <trkpt lat="45.08222" lon="6.45627">
        <ele>2187</ele>
        <time>2024-08-16T06:13:35.728Z</time>
      </trkpt>
      <trkpt lat="45.08217" lon="6.45638">
        <ele>2189</ele>
        <time>2024-08-16T06:13:52.971Z</time>
      </trkpt>
      <trkpt lat="45.08214" lon="6.45651">
        <ele>2194</ele>
        <time>2024-08-16T06:14:37.075Z</time>
      </trkpt>
      <trkpt lat="45.08208" lon="6.45661">
        <ele>2196</ele>
        <time>2024-08-16T06:14:54.326Z</time>
      </trkpt>
      <trkpt lat="45.08204" lon="6.45673">
        <ele>2197</ele>
        <time>2024-08-16T06:15:05.909Z</time>
      </trkpt>
      <trkpt lat="45.08198" lon="6.45683">
        <ele>2201</ele>
        <time>2024-08-16T06:15:46.629Z</time>
      </trkpt>
      <trkpt lat="45.08192" lon="6.45694">
        <ele>2205</ele>
        <time>2024-08-16T06:16:26.342Z</time>
      </trkpt>
      <trkpt lat="45.08185" lon="6.45704">
        <ele>2205</ele>
        <time>2024-08-16T06:16:34.992Z</time>
      </trkpt>
      <trkpt lat="45.08177" lon="6.45712">
        <ele>2209</ele>
        <time>2024-08-16T06:17:14.745Z</time>
      </trkpt>
      <trkpt lat="45.0817" lon="6.45723">
        <ele>2213</ele>
        <time>2024-08-16T06:17:53.270Z</time>
      </trkpt>
      <trkpt lat="45.08163" lon="6.4573">
        <ele>2217</ele>
        <time>2024-08-16T06:18:32.406Z</time>
      </trkpt>
      <trkpt lat="45.08154" lon="6.45739">
        <ele>2219</ele>
        <time>2024-08-16T06:18:50.343Z</time>
      </trkpt>
      <trkpt lat="45.08145" lon="6.45746">
        <ele>2219</ele>
        <time>2024-08-16T06:18:59.275Z</time>
      </trkpt>
      <trkpt lat="45.08137" lon="6.45753">
        <ele>2223</ele>
        <time>2024-08-16T06:19:39.752Z</time>
      </trkpt>
      <trkpt lat="45.08129" lon="6.45758">
        <ele>2224</ele>
        <time>2024-08-16T06:19:50.858Z</time>
      </trkpt>
      <trkpt lat="45.08122" lon="6.45768">
        <ele>2224</ele>
        <time>2024-08-16T06:19:59.508Z</time>
      </trkpt>
      <trkpt lat="45.08113" lon="6.45775">
        <ele>2226</ele>
        <time>2024-08-16T06:20:17.103Z</time>
      </trkpt>
      <trkpt lat="45.08106" lon="6.45783">
        <ele>2229</ele>
        <time>2024-08-16T06:20:44.292Z</time>
      </trkpt>
      <trkpt lat="45.08098" lon="6.45789">
        <ele>2229</ele>
        <time>2024-08-16T06:20:52.167Z</time>
      </trkpt>
      <trkpt lat="45.0809" lon="6.45797">
        <ele>2230</ele>
        <time>2024-08-16T06:21:04.080Z</time>
      </trkpt>
      <trkpt lat="45.08084" lon="6.45806">
        <ele>2231</ele>
        <time>2024-08-16T06:21:15.183Z</time>
      </trkpt>
      <trkpt lat="45.0808" lon="6.45818">
        <ele>2233</ele>
        <time>2024-08-16T06:21:32.462Z</time>
      </trkpt>
      <trkpt lat="45.08074" lon="6.4583">
        <ele>2235</ele>
        <time>2024-08-16T06:21:50.105Z</time>
      </trkpt>
      <trkpt lat="45.0807" lon="6.45841">
        <ele>2237</ele>
        <time>2024-08-16T06:22:07.243Z</time>
      </trkpt>
      <trkpt lat="45.08064" lon="6.45853">
        <ele>2237</ele>
        <time>2024-08-16T06:22:16.275Z</time>
      </trkpt>
      <trkpt lat="45.0806" lon="6.45865">
        <ele>2238</ele>
        <time>2024-08-16T06:22:27.859Z</time>
      </trkpt>
      <trkpt lat="45.08052" lon="6.45875">
        <ele>2240</ele>
        <time>2024-08-16T06:22:45.630Z</time>
      </trkpt>
      <trkpt lat="45.08043" lon="6.45881">
        <ele>2240</ele>
        <time>2024-08-16T06:22:54.283Z</time>
      </trkpt>
      <trkpt lat="45.08035" lon="6.4589">
        <ele>2242</ele>
        <time>2024-08-16T06:23:11.858Z</time>
      </trkpt>
      <trkpt lat="45.08025" lon="6.45895">
        <ele>2242</ele>
        <time>2024-08-16T06:23:21.083Z</time>
      </trkpt>
      <trkpt lat="45.08017" lon="6.45903">
        <ele>2247</ele>
        <time>2024-08-16T06:24:05.811Z</time>
      </trkpt>
      <trkpt lat="45.08009" lon="6.45912">
        <ele>2247</ele>
        <time>2024-08-16T06:24:14.699Z</time>
      </trkpt>
      <trkpt lat="45.08002" lon="6.45919">
        <ele>2248</ele>
        <time>2024-08-16T06:24:25.673Z</time>
      </trkpt>
      <trkpt lat="45.07994" lon="6.45927">
        <ele>2249</ele>
        <time>2024-08-16T06:24:37.586Z</time>
      </trkpt>
      <trkpt lat="45.07985" lon="6.45936">
        <ele>2249</ele>
        <time>2024-08-16T06:24:47.171Z</time>
      </trkpt>
      <trkpt lat="45.07976" lon="6.45942">
        <ele>2250</ele>
        <time>2024-08-16T06:24:59.204Z</time>
      </trkpt>
      <trkpt lat="45.0797" lon="6.45953">
        <ele>2251</ele>
        <time>2024-08-16T06:25:11.134Z</time>
      </trkpt>
      <trkpt lat="45.07963" lon="6.45963">
        <ele>2251</ele>
        <time>2024-08-16T06:25:19.783Z</time>
      </trkpt>
      <trkpt lat="45.07954" lon="6.45969">
        <ele>2257</ele>
        <time>2024-08-16T06:26:05.214Z</time>
      </trkpt>
      <trkpt lat="45.07945" lon="6.45975">
        <ele>2256</ele>
        <time>2024-08-16T06:26:12.786Z</time>
      </trkpt>
      <trkpt lat="45.07936" lon="6.45983">
        <ele>2253</ele>
        <time>2024-08-16T06:26:20.874Z</time>
      </trkpt>
      <trkpt lat="45.07926" lon="6.45985">
        <ele>2254</ele>
        <time>2024-08-16T06:26:33.027Z</time>
      </trkpt>
      <trkpt lat="45.07917" lon="6.45987">
        <ele>2254</ele>
        <time>2024-08-16T06:26:40.953Z</time>
      </trkpt>
      <trkpt lat="45.07907" lon="6.45988">
        <ele>2252</ele>
        <time>2024-08-16T06:26:48.583Z</time>
      </trkpt>
      <trkpt lat="45.07899" lon="6.45997">
        <ele>2253</ele>
        <time>2024-08-16T06:27:00.829Z</time>
      </trkpt>
      <trkpt lat="45.0789" lon="6.46005">
        <ele>2253</ele>
        <time>2024-08-16T06:27:10.073Z</time>
      </trkpt>
      <trkpt lat="45.07882" lon="6.46012">
        <ele>2256</ele>
        <time>2024-08-16T06:27:36.835Z</time>
      </trkpt>
      <trkpt lat="45.07874" lon="6.46021">
        <ele>2258</ele>
        <time>2024-08-16T06:27:54.410Z</time>
      </trkpt>
      <trkpt lat="45.07867" lon="6.4603">
        <ele>2258</ele>
        <time>2024-08-16T06:28:02.634Z</time>
      </trkpt>
      <trkpt lat="45.07858" lon="6.46039">
        <ele>2259</ele>
        <time>2024-08-16T06:28:15.519Z</time>
      </trkpt>
      <trkpt lat="45.07849" lon="6.46046">
        <ele>2261</ele>
        <time>2024-08-16T06:28:33.114Z</time>
      </trkpt>
      <trkpt lat="45.0784" lon="6.46042">
        <ele>2258</ele>
        <time>2024-08-16T06:28:40.294Z</time>
      </trkpt>
      <trkpt lat="45.07833" lon="6.46051">
        <ele>2258</ele>
        <time>2024-08-16T06:28:48.519Z</time>
      </trkpt>
      <trkpt lat="45.07828" lon="6.46061">
        <ele>2261</ele>
        <time>2024-08-16T06:29:16.137Z</time>
      </trkpt>
      <trkpt lat="45.07819" lon="6.46066">
        <ele>2260</ele>
        <time>2024-08-16T06:29:23.496Z</time>
      </trkpt>
      <trkpt lat="45.07809" lon="6.46071">
        <ele>2260</ele>
        <time>2024-08-16T06:29:32.722Z</time>
      </trkpt>
      <trkpt lat="45.07801" lon="6.46078">
        <ele>2259</ele>
        <time>2024-08-16T06:29:39.880Z</time>
      </trkpt>
      <trkpt lat="45.07791" lon="6.4608">
        <ele>2260</ele>
        <time>2024-08-16T06:29:52.033Z</time>
      </trkpt>
      <trkpt lat="45.07782" lon="6.46085">
        <ele>2260</ele>
        <time>2024-08-16T06:30:00.443Z</time>
      </trkpt>
      <trkpt lat="45.07772" lon="6.46088">
        <ele>2261</ele>
        <time>2024-08-16T06:30:12.693Z</time>
      </trkpt>
      <trkpt lat="45.07762" lon="6.46094">
        <ele>2261</ele>
        <time>2024-08-16T06:30:22.141Z</time>
      </trkpt>
      <trkpt lat="45.07753" lon="6.461">
        <ele>2263</ele>
        <time>2024-08-16T06:30:39.610Z</time>
      </trkpt>
      <trkpt lat="45.07743" lon="6.461">
        <ele>2262</ele>
        <time>2024-08-16T06:30:47.222Z</time>
      </trkpt>
      <trkpt lat="45.07736" lon="6.46109">
        <ele>2262</ele>
        <time>2024-08-16T06:30:55.446Z</time>
      </trkpt>
      <trkpt lat="45.07727" lon="6.46116">
        <ele>2266</ele>
        <time>2024-08-16T06:31:34.311Z</time>
      </trkpt>
      <trkpt lat="45.07718" lon="6.46122">
        <ele>2268</ele>
        <time>2024-08-16T06:31:51.780Z</time>
      </trkpt>
      <trkpt lat="45.07712" lon="6.46111">
        <ele>2268</ele>
        <time>2024-08-16T06:32:00.318Z</time>
      </trkpt>
      <trkpt lat="45.07703" lon="6.46116">
        <ele>2270</ele>
        <time>2024-08-16T06:32:17.688Z</time>
      </trkpt>
      <trkpt lat="45.07699" lon="6.46129">
        <ele>2270</ele>
        <time>2024-08-16T06:32:26.400Z</time>
      </trkpt>
      <trkpt lat="45.07694" lon="6.46139">
        <ele>2271</ele>
        <time>2024-08-16T06:32:37.436Z</time>
      </trkpt>
      <trkpt lat="45.07688" lon="6.46149">
        <ele>2272</ele>
        <time>2024-08-16T06:32:48.940Z</time>
      </trkpt>
      <trkpt lat="45.07681" lon="6.46159">
        <ele>2272</ele>
        <time>2024-08-16T06:32:57.590Z</time>
      </trkpt>
      <trkpt lat="45.07672" lon="6.46163">
        <ele>2275</ele>
        <time>2024-08-16T06:33:24.325Z</time>
      </trkpt>
      <trkpt lat="45.07663" lon="6.46168">
        <ele>2277</ele>
        <time>2024-08-16T06:33:41.696Z</time>
      </trkpt>
      <trkpt lat="45.07656" lon="6.46178">
        <ele>2277</ele>
        <time>2024-08-16T06:33:50.345Z</time>
      </trkpt>
      <trkpt lat="45.07649" lon="6.46187">
        <ele>2280</ele>
        <time>2024-08-16T06:34:17.060Z</time>
      </trkpt>
      <trkpt lat="45.07641" lon="6.46194">
        <ele>2282</ele>
        <time>2024-08-16T06:34:34.349Z</time>
      </trkpt>
      <trkpt lat="45.07632" lon="6.462">
        <ele>2283</ele>
        <time>2024-08-16T06:34:46.383Z</time>
      </trkpt>
      <trkpt lat="45.07623" lon="6.46206">
        <ele>2283</ele>
        <time>2024-08-16T06:34:55.036Z</time>
      </trkpt>
      <trkpt lat="45.07615" lon="6.46213">
        <ele>2284</ele>
        <time>2024-08-16T06:35:06.646Z</time>
      </trkpt>
      <trkpt lat="45.07606" lon="6.46221">
        <ele>2286</ele>
        <time>2024-08-16T06:35:24.397Z</time>
      </trkpt>
      <trkpt lat="45.07598" lon="6.46227">
        <ele>2288</ele>
        <time>2024-08-16T06:35:41.595Z</time>
      </trkpt>
      <trkpt lat="45.07591" lon="6.46235">
        <ele>2288</ele>
        <time>2024-08-16T06:35:49.420Z</time>
      </trkpt>
      <trkpt lat="45.07584" lon="6.46245">
        <ele>2291</ele>
        <time>2024-08-16T06:36:15.745Z</time>
      </trkpt>
      <trkpt lat="45.07577" lon="6.46256">
        <ele>2293</ele>
        <time>2024-08-16T06:36:33.420Z</time>
      </trkpt>
      <trkpt lat="45.07568" lon="6.46258">
        <ele>2294</ele>
        <time>2024-08-16T06:36:44.804Z</time>
      </trkpt>
      <trkpt lat="45.0756" lon="6.46266">
        <ele>2294</ele>
        <time>2024-08-16T06:36:53.324Z</time>
      </trkpt>
      <trkpt lat="45.07554" lon="6.46276">
        <ele>2293</ele>
        <time>2024-08-16T06:37:00.378Z</time>
      </trkpt>
      <trkpt lat="45.07545" lon="6.46281">
        <ele>2295</ele>
        <time>2024-08-16T06:37:17.748Z</time>
      </trkpt>
      <trkpt lat="45.07538" lon="6.46294">
        <ele>2294</ele>
        <time>2024-08-16T06:37:26.536Z</time>
      </trkpt>
      <trkpt lat="45.07533" lon="6.46305">
        <ele>2294</ele>
        <time>2024-08-16T06:37:34.572Z</time>
      </trkpt>
      <trkpt lat="45.07529" lon="6.46316">
        <ele>2295</ele>
        <time>2024-08-16T06:37:45.673Z</time>
      </trkpt>
      <trkpt lat="45.07522" lon="6.46327">
        <ele>2295</ele>
        <time>2024-08-16T06:37:54.769Z</time>
      </trkpt>
      <trkpt lat="45.07517" lon="6.46338">
        <ele>2298</ele>
        <time>2024-08-16T06:38:21.694Z</time>
      </trkpt>
      <trkpt lat="45.07515" lon="6.46351">
        <ele>2299</ele>
        <time>2024-08-16T06:38:33.298Z</time>
      </trkpt>
      <trkpt lat="45.0751" lon="6.46363">
        <ele>2301</ele>
        <time>2024-08-16T06:38:50.727Z</time>
      </trkpt>
      <trkpt lat="45.07504" lon="6.46373">
        <ele>2301</ele>
        <time>2024-08-16T06:38:58.788Z</time>
      </trkpt>
      <trkpt lat="45.07498" lon="6.46383">
        <ele>2303</ele>
        <time>2024-08-16T06:39:16.039Z</time>
      </trkpt>
      <trkpt lat="45.07492" lon="6.46393">
        <ele>2305</ele>
        <time>2024-08-16T06:39:33.289Z</time>
      </trkpt>
      <trkpt lat="45.07486" lon="6.46404">
        <ele>2306</ele>
        <time>2024-08-16T06:39:45.220Z</time>
      </trkpt>
      <trkpt lat="45.07479" lon="6.46413">
        <ele>2309</ele>
        <time>2024-08-16T06:40:11.934Z</time>
      </trkpt>
      <trkpt lat="45.07473" lon="6.46423">
        <ele>2310</ele>
        <time>2024-08-16T06:40:23.439Z</time>
      </trkpt>
      <trkpt lat="45.07467" lon="6.46432">
        <ele>2312</ele>
        <time>2024-08-16T06:40:40.577Z</time>
      </trkpt>
      <trkpt lat="45.07461" lon="6.46443">
        <ele>2315</ele>
        <time>2024-08-16T06:41:06.994Z</time>
      </trkpt>
      <trkpt lat="45.07453" lon="6.46451">
        <ele>2317</ele>
        <time>2024-08-16T06:41:24.407Z</time>
      </trkpt>
      <trkpt lat="45.07446" lon="6.4646">
        <ele>2318</ele>
        <time>2024-08-16T06:41:36.056Z</time>
      </trkpt>
      <trkpt lat="45.07438" lon="6.46469">
        <ele>2319</ele>
        <time>2024-08-16T06:41:48.303Z</time>
      </trkpt>
      <trkpt lat="45.0743" lon="6.46476">
        <ele>2319</ele>
        <time>2024-08-16T06:41:56.484Z</time>
      </trkpt>
      <trkpt lat="45.07422" lon="6.46482">
        <ele>2321</ele>
        <time>2024-08-16T06:42:13.682Z</time>
      </trkpt>
      <trkpt lat="45.07414" lon="6.46488">
        <ele>2325</ele>
        <time>2024-08-16T06:42:54.748Z</time>
      </trkpt>
      <trkpt lat="45.07409" lon="6.46499">
        <ele>2328</ele>
        <time>2024-08-16T06:43:21.673Z</time>
      </trkpt>
      <trkpt lat="45.07406" lon="6.46512">
        <ele>2334</ele>
        <time>2024-08-16T06:44:05.784Z</time>
      </trkpt>
      <trkpt lat="45.074" lon="6.46524">
        <ele>2336</ele>
        <time>2024-08-16T06:44:23.427Z</time>
      </trkpt>
      <trkpt lat="45.07394" lon="6.46535">
        <ele>2339</ele>
        <time>2024-08-16T06:44:49.843Z</time>
      </trkpt>
      <trkpt lat="45.07387" lon="6.46543">
        <ele>2342</ele>
        <time>2024-08-16T06:45:17.033Z</time>
      </trkpt>
      <trkpt lat="45.07382" lon="6.46554">
        <ele>2344</ele>
        <time>2024-08-16T06:45:34.276Z</time>
      </trkpt>
      <trkpt lat="45.07378" lon="6.46566">
        <ele>2345</ele>
        <time>2024-08-16T06:45:45.860Z</time>
      </trkpt>
      <trkpt lat="45.0738" lon="6.4658">
        <ele>2349</ele>
        <time>2024-08-16T06:46:25.060Z</time>
      </trkpt>
      <trkpt lat="45.07389" lon="6.46585">
        <ele>2352</ele>
        <time>2024-08-16T06:46:51.591Z</time>
      </trkpt>
      <trkpt lat="45.07398" lon="6.46587">
        <ele>2356</ele>
        <time>2024-08-16T06:47:32.569Z</time>
      </trkpt>
      <trkpt lat="45.07407" lon="6.46592">
        <ele>2361</ele>
        <time>2024-08-16T06:48:16.723Z</time>
      </trkpt>
      <trkpt lat="45.07411" lon="6.46604">
        <ele>2363</ele>
        <time>2024-08-16T06:48:34.002Z</time>
      </trkpt>
      <trkpt lat="45.07417" lon="6.46616">
        <ele>2364</ele>
        <time>2024-08-16T06:48:46.380Z</time>
      </trkpt>
      <trkpt lat="45.0742" lon="6.46629">
        <ele>2364</ele>
        <time>2024-08-16T06:48:54.782Z</time>
      </trkpt>
      <trkpt lat="45.07426" lon="6.46639">
        <ele>2368</ele>
        <time>2024-08-16T06:49:35.500Z</time>
      </trkpt>
      <trkpt lat="45.07421" lon="6.46651">
        <ele>2370</ele>
        <time>2024-08-16T06:49:52.929Z</time>
      </trkpt>
      <trkpt lat="45.07418" lon="6.46663">
        <ele>2370</ele>
        <time>2024-08-16T06:50:00.750Z</time>
      </trkpt>
      <trkpt lat="45.07413" lon="6.46675">
        <ele>2371</ele>
        <time>2024-08-16T06:50:12.699Z</time>
      </trkpt>
      <trkpt lat="45.07408" lon="6.46686">
        <ele>2372</ele>
        <time>2024-08-16T06:50:24.181Z</time>
      </trkpt>
      <trkpt lat="45.07407" lon="6.467">
        <ele>2372</ele>
        <time>2024-08-16T06:50:32.825Z</time>
      </trkpt>
      <trkpt lat="45.07403" lon="6.46712">
        <ele>2373</ele>
        <time>2024-08-16T06:50:44.410Z</time>
      </trkpt>
      <trkpt lat="45.074" lon="6.46725">
        <ele>2373</ele>
        <time>2024-08-16T06:50:52.812Z</time>
      </trkpt>
      <trkpt lat="45.07397" lon="6.46738">
        <ele>2374</ele>
        <time>2024-08-16T06:51:04.619Z</time>
      </trkpt>
      <trkpt lat="45.07395" lon="6.46751">
        <ele>2374</ele>
        <time>2024-08-16T06:51:12.793Z</time>
      </trkpt>
      <trkpt lat="45.07393" lon="6.46766">
        <ele>2375</ele>
        <time>2024-08-16T06:51:25.487Z</time>
      </trkpt>
      <trkpt lat="45.07388" lon="6.46776">
        <ele>2375</ele>
        <time>2024-08-16T06:51:33.014Z</time>
      </trkpt>
      <trkpt lat="45.07381" lon="6.46784">
        <ele>2377</ele>
        <time>2024-08-16T06:51:50.200Z</time>
      </trkpt>
      <trkpt lat="45.07373" lon="6.46792">
        <ele>2377</ele>
        <time>2024-08-16T06:51:58.720Z</time>
      </trkpt>
      <trkpt lat="45.07365" lon="6.46798">
        <ele>2379</ele>
        <time>2024-08-16T06:52:15.918Z</time>
      </trkpt>
      <trkpt lat="45.07355" lon="6.46802">
        <ele>2381</ele>
        <time>2024-08-16T06:52:33.565Z</time>
      </trkpt>
      <trkpt lat="45.07345" lon="6.46803">
        <ele>2384</ele>
        <time>2024-08-16T06:52:59.835Z</time>
      </trkpt>
      <trkpt lat="45.07337" lon="6.46809">
        <ele>2385</ele>
        <time>2024-08-16T06:53:11.175Z</time>
      </trkpt>
      <trkpt lat="45.07329" lon="6.46818">
        <ele>2387</ele>
        <time>2024-08-16T06:53:28.749Z</time>
      </trkpt>
      <trkpt lat="45.07329" lon="6.46832">
        <ele>2391</ele>
        <time>2024-08-16T06:54:08.326Z</time>
      </trkpt>
      <trkpt lat="45.07325" lon="6.46844">
        <ele>2393</ele>
        <time>2024-08-16T06:54:25.605Z</time>
      </trkpt>
      <trkpt lat="45.0732" lon="6.46855">
        <ele>2398</ele>
        <time>2024-08-16T06:55:07.798Z</time>
      </trkpt>
      <trkpt lat="45.07322" lon="6.46869">
        <ele>2405</ele>
        <time>2024-08-16T06:55:53.867Z</time>
      </trkpt>
      <trkpt lat="45.07322" lon="6.46882">
        <ele>2406</ele>
        <time>2024-08-16T06:56:05.305Z</time>
      </trkpt>
      <trkpt lat="45.0732" lon="6.46894">
        <ele>2409</ele>
        <time>2024-08-16T06:56:32.850Z</time>
      </trkpt>
      <trkpt lat="45.07323" lon="6.46907">
        <ele>2412</ele>
        <time>2024-08-16T06:56:59.389Z</time>
      </trkpt>
      <trkpt lat="45.07332" lon="6.46909">
        <ele>2424</ele>
        <time>2024-08-16T06:57:40.996Z</time>
      </trkpt>
      <trkpt lat="45.07331" lon="6.46922">
        <ele>2423</ele>
        <time>2024-08-16T06:57:48.025Z</time>
      </trkpt>
      <trkpt lat="45.07329" lon="6.46936">
        <ele>2423</ele>
        <time>2024-08-16T06:57:56.800Z</time>
      </trkpt>
      <trkpt lat="45.07328" lon="6.46949">
        <ele>2420</ele>
        <time>2024-08-16T06:58:03.830Z</time>
      </trkpt>
      <trkpt lat="45.07323" lon="6.46962">
        <ele>2419</ele>
        <time>2024-08-16T06:58:11.787Z</time>
      </trkpt>
      <trkpt lat="45.07317" lon="6.46973">
        <ele>2418</ele>
        <time>2024-08-16T06:58:19.259Z</time>
      </trkpt>
      <trkpt lat="45.07309" lon="6.46979">
        <ele>2420</ele>
        <time>2024-08-16T06:58:36.457Z</time>
      </trkpt>
      <trkpt lat="45.07303" lon="6.46992">
        <ele>2420</ele>
        <time>2024-08-16T06:58:45.998Z</time>
      </trkpt>
      <trkpt lat="45.073" lon="6.47004">
        <ele>2419</ele>
        <time>2024-08-16T06:58:52.841Z</time>
      </trkpt>
      <trkpt lat="45.07298" lon="6.47017">
        <ele>2416</ele>
        <time>2024-08-16T06:58:59.993Z</time>
      </trkpt>
      <trkpt lat="45.07296" lon="6.4703">
        <ele>2416</ele>
        <time>2024-08-16T06:59:08.167Z</time>
      </trkpt>
      <trkpt lat="45.07295" lon="6.47043">
        <ele>2416</ele>
        <time>2024-08-16T06:59:16.201Z</time>
      </trkpt>
      <trkpt lat="45.07294" lon="6.47056">
        <ele>2416</ele>
        <time>2024-08-16T06:59:24.235Z</time>
      </trkpt>
      <trkpt lat="45.07298" lon="6.4707">
        <ele>2415</ele>
        <time>2024-08-16T06:59:32.353Z</time>
      </trkpt>
      <trkpt lat="45.07302" lon="6.47083">
        <ele>2415</ele>
        <time>2024-08-16T06:59:41.065Z</time>
      </trkpt>
      <trkpt lat="45.07303" lon="6.47097">
        <ele>2417</ele>
        <time>2024-08-16T06:59:58.530Z</time>
      </trkpt>
      <trkpt lat="45.073" lon="6.4711">
        <ele>2418</ele>
        <time>2024-08-16T07:00:10.337Z</time>
      </trkpt>
      <trkpt lat="45.07297" lon="6.47122">
        <ele>2418</ele>
        <time>2024-08-16T07:00:18.158Z</time>
      </trkpt>
      <trkpt lat="45.07296" lon="6.47135">
        <ele>2418</ele>
        <time>2024-08-16T07:00:26.191Z</time>
      </trkpt>
      <trkpt lat="45.07303" lon="6.47145">
        <ele>2421</ele>
        <time>2024-08-16T07:00:52.516Z</time>
      </trkpt>
      <trkpt lat="45.07301" lon="6.47158">
        <ele>2423</ele>
        <time>2024-08-16T07:01:09.802Z</time>
      </trkpt>
      <trkpt lat="45.07297" lon="6.4717">
        <ele>2423</ele>
        <time>2024-08-16T07:01:17.954Z</time>
      </trkpt>
      <trkpt lat="45.07296" lon="6.47185">
        <ele>2422</ele>
        <time>2024-08-16T07:01:26.054Z</time>
      </trkpt>
      <trkpt lat="45.07297" lon="6.47198">
        <ele>2423</ele>
        <time>2024-08-16T07:01:37.533Z</time>
      </trkpt>
      <trkpt lat="45.07301" lon="6.47211">
        <ele>2422</ele>
        <time>2024-08-16T07:01:45.156Z</time>
      </trkpt>
      <trkpt lat="45.07299" lon="6.47224">
        <ele>2422</ele>
        <time>2024-08-16T07:01:53.330Z</time>
      </trkpt>
      <trkpt lat="45.073" lon="6.47238">
        <ele>2421</ele>
        <time>2024-08-16T07:02:00.894Z</time>
      </trkpt>
      <trkpt lat="45.07298" lon="6.47251">
        <ele>2421</ele>
        <time>2024-08-16T07:02:09.068Z</time>
      </trkpt>
      <trkpt lat="45.073" lon="6.47265">
        <ele>2422</ele>
        <time>2024-08-16T07:02:21.211Z</time>
      </trkpt>
      <trkpt lat="45.07298" lon="6.47278">
        <ele>2423</ele>
        <time>2024-08-16T07:02:32.815Z</time>
      </trkpt>
      <trkpt lat="45.07295" lon="6.4729">
        <ele>2423</ele>
        <time>2024-08-16T07:02:40.636Z</time>
      </trkpt>
      <trkpt lat="45.07292" lon="6.47304">
        <ele>2423</ele>
        <time>2024-08-16T07:02:49.624Z</time>
      </trkpt>
      <trkpt lat="45.07291" lon="6.47318">
        <ele>2423</ele>
        <time>2024-08-16T07:02:58.269Z</time>
      </trkpt>
      <trkpt lat="45.07289" lon="6.47331">
        <ele>2423</ele>
        <time>2024-08-16T07:03:06.442Z</time>
      </trkpt>
      <trkpt lat="45.07288" lon="6.47346">
        <ele>2421</ele>
        <time>2024-08-16T07:03:14.542Z</time>
      </trkpt>
      <trkpt lat="45.0729" lon="6.47361">
        <ele>2421</ele>
        <time>2024-08-16T07:03:23.920Z</time>
      </trkpt>
      <trkpt lat="45.07288" lon="6.47374">
        <ele>2420</ele>
        <time>2024-08-16T07:03:31.072Z</time>
      </trkpt>
      <trkpt lat="45.0728" lon="6.4738">
        <ele>2419</ele>
        <time>2024-08-16T07:03:37.963Z</time>
      </trkpt>
      <trkpt lat="45.07277" lon="6.47394">
        <ele>2419</ele>
        <time>2024-08-16T07:03:46.951Z</time>
      </trkpt>
      <trkpt lat="45.07282" lon="6.47406">
        <ele>2419</ele>
        <time>2024-08-16T07:03:55.511Z</time>
      </trkpt>
      <trkpt lat="45.07286" lon="6.47417">
        <ele>2420</ele>
        <time>2024-08-16T07:04:06.612Z</time>
      </trkpt>
      <trkpt lat="45.07289" lon="6.47431">
        <ele>2420</ele>
        <time>2024-08-16T07:04:15.600Z</time>
      </trkpt>
      <trkpt lat="45.07288" lon="6.47445">
        <ele>2421</ele>
        <time>2024-08-16T07:04:27.625Z</time>
      </trkpt>
      <trkpt lat="45.07286" lon="6.4746">
        <ele>2420</ele>
        <time>2024-08-16T07:04:35.831Z</time>
      </trkpt>
      <trkpt lat="45.07287" lon="6.47473">
        <ele>2419</ele>
        <time>2024-08-16T07:04:42.861Z</time>
      </trkpt>
      <trkpt lat="45.0729" lon="6.47485">
        <ele>2420</ele>
        <time>2024-08-16T07:04:54.153Z</time>
      </trkpt>
      <trkpt lat="45.07291" lon="6.47498">
        <ele>2420</ele>
        <time>2024-08-16T07:05:02.187Z</time>
      </trkpt>
      <trkpt lat="45.07289" lon="6.47511">
        <ele>2421</ele>
        <time>2024-08-16T07:05:13.790Z</time>
      </trkpt>
      <trkpt lat="45.07285" lon="6.47523">
        <ele>2423</ele>
        <time>2024-08-16T07:05:31.070Z</time>
      </trkpt>
      <trkpt lat="45.07278" lon="6.47535">
        <ele>2423</ele>
        <time>2024-08-16T07:05:40.632Z</time>
      </trkpt>
      <trkpt lat="45.0727" lon="6.47541">
        <ele>2428</ele>
        <time>2024-08-16T07:06:21.977Z</time>
      </trkpt>
      <trkpt lat="45.07261" lon="6.47547">
        <ele>2426</ele>
        <time>2024-08-16T07:06:29.549Z</time>
      </trkpt>
      <trkpt lat="45.07252" lon="6.47551">
        <ele>2426</ele>
        <time>2024-08-16T07:06:37.755Z</time>
      </trkpt>
      <trkpt lat="45.07243" lon="6.47545">
        <ele>2426</ele>
        <time>2024-08-16T07:06:46.409Z</time>
      </trkpt>
      <trkpt lat="45.07234" lon="6.47544">
        <ele>2426</ele>
        <time>2024-08-16T07:06:54.262Z</time>
      </trkpt>
      <trkpt lat="45.07224" lon="6.47546">
        <ele>2426</ele>
        <time>2024-08-16T07:07:03.048Z</time>
      </trkpt>
      <trkpt lat="45.07215" lon="6.47553">
        <ele>2425</ele>
        <time>2024-08-16T07:07:10.864Z</time>
      </trkpt>
      <trkpt lat="45.07204" lon="6.47555">
        <ele>2425</ele>
        <time>2024-08-16T07:07:20.512Z</time>
      </trkpt>
      <trkpt lat="45.07194" lon="6.47555">
        <ele>2425</ele>
        <time>2024-08-16T07:07:29.211Z</time>
      </trkpt>
      <trkpt lat="45.07182" lon="6.47551">
        <ele>2426</ele>
        <time>2024-08-16T07:07:43.159Z</time>
      </trkpt>
      <trkpt lat="45.07175" lon="6.47562">
        <ele>2426</ele>
        <time>2024-08-16T07:07:52.256Z</time>
      </trkpt>
      <trkpt lat="45.07168" lon="6.4757">
        <ele>2421</ele>
        <time>2024-08-16T07:07:59.103Z</time>
      </trkpt>
      <trkpt lat="45.07159" lon="6.47577">
        <ele>2420</ele>
        <time>2024-08-16T07:08:06.919Z</time>
      </trkpt>
      <trkpt lat="45.0715" lon="6.47584">
        <ele>2420</ele>
        <time>2024-08-16T07:08:15.852Z</time>
      </trkpt>
      <trkpt lat="45.07144" lon="6.47596">
        <ele>2419</ele>
        <time>2024-08-16T07:08:23.756Z</time>
      </trkpt>
      <trkpt lat="45.07137" lon="6.47606">
        <ele>2418</ele>
        <time>2024-08-16T07:08:31.325Z</time>
      </trkpt>
      <trkpt lat="45.07128" lon="6.47613">
        <ele>2418</ele>
        <time>2024-08-16T07:08:40.257Z</time>
      </trkpt>
      <trkpt lat="45.07123" lon="6.47625">
        <ele>2418</ele>
        <time>2024-08-16T07:08:48.817Z</time>
      </trkpt>
      <trkpt lat="45.07118" lon="6.47635">
        <ele>2417</ele>
        <time>2024-08-16T07:08:55.404Z</time>
      </trkpt>
      <trkpt lat="45.07108" lon="6.47639">
        <ele>2418</ele>
        <time>2024-08-16T07:09:07.788Z</time>
      </trkpt>
      <trkpt lat="45.07102" lon="6.4765">
        <ele>2419</ele>
        <time>2024-08-16T07:09:19.718Z</time>
      </trkpt>
      <trkpt lat="45.07094" lon="6.47659">
        <ele>2418</ele>
        <time>2024-08-16T07:09:27.496Z</time>
      </trkpt>
      <trkpt lat="45.07105" lon="6.47663">
        <ele>2434</ele>
        <time>2024-08-16T07:10:19.364Z</time>
      </trkpt>
      <trkpt lat="45.07114" lon="6.47667">
        <ele>2434</ele>
        <time>2024-08-16T07:10:27.570Z</time>
      </trkpt>
      <trkpt lat="45.0712" lon="6.47657">
        <ele>2436</ele>
        <time>2024-08-16T07:10:44.821Z</time>
      </trkpt>
      <trkpt lat="45.07118" lon="6.47643">
        <ele>2435</ele>
        <time>2024-08-16T07:10:52.499Z</time>
      </trkpt>
      <trkpt lat="45.07117" lon="6.47628">
        <ele>2434</ele>
        <time>2024-08-16T07:11:00.599Z</time>
      </trkpt>
      <trkpt lat="45.07114" lon="6.47615">
        <ele>2437</ele>
        <time>2024-08-16T07:11:27.138Z</time>
      </trkpt>
      <trkpt lat="45.07119" lon="6.47625">
        <ele>2436</ele>
        <time>2024-08-16T07:11:33.724Z</time>
      </trkpt>
      <trkpt lat="45.07128" lon="6.47617">
        <ele>2430</ele>
        <time>2024-08-16T07:11:41.813Z</time>
      </trkpt>
      <trkpt lat="45.07134" lon="6.47608">
        <ele>2431</ele>
        <time>2024-08-16T07:11:52.916Z</time>
      </trkpt>
      <trkpt lat="45.07142" lon="6.476">
        <ele>2431</ele>
        <time>2024-08-16T07:12:01.436Z</time>
      </trkpt>
      <trkpt lat="45.07148" lon="6.47592">
        <ele>2431</ele>
        <time>2024-08-16T07:12:08.605Z</time>
      </trkpt>
      <trkpt lat="45.07145" lon="6.47578">
        <ele>2432</ele>
        <time>2024-08-16T07:12:20.943Z</time>
      </trkpt>
      <trkpt lat="45.07144" lon="6.47591">
        <ele>2428</ele>
        <time>2024-08-16T07:12:27.972Z</time>
      </trkpt>
      <trkpt lat="45.07152" lon="6.47585">
        <ele>2429</ele>
        <time>2024-08-16T07:12:39.313Z</time>
      </trkpt>
      <trkpt lat="45.07159" lon="6.47576">
        <ele>2430</ele>
        <time>2024-08-16T07:12:50.962Z</time>
      </trkpt>
      <trkpt lat="45.07168" lon="6.47569">
        <ele>2430</ele>
        <time>2024-08-16T07:12:59.895Z</time>
      </trkpt>
      <trkpt lat="45.07174" lon="6.47558">
        <ele>2429</ele>
        <time>2024-08-16T07:13:07.367Z</time>
      </trkpt>
      <trkpt lat="45.07183" lon="6.47551">
        <ele>2428</ele>
        <time>2024-08-16T07:13:15.183Z</time>
      </trkpt>
      <trkpt lat="45.07191" lon="6.47543">
        <ele>2429</ele>
        <time>2024-08-16T07:13:27.096Z</time>
      </trkpt>
      <trkpt lat="45.072" lon="6.47536">
        <ele>2429</ele>
        <time>2024-08-16T07:13:36.029Z</time>
      </trkpt>
      <trkpt lat="45.07207" lon="6.47526">
        <ele>2429</ele>
        <time>2024-08-16T07:13:44.679Z</time>
      </trkpt>
      <trkpt lat="45.07213" lon="6.47517">
        <ele>2430</ele>
        <time>2024-08-16T07:13:55.782Z</time>
      </trkpt>
      <trkpt lat="45.07222" lon="6.47508">
        <ele>2430</ele>
        <time>2024-08-16T07:14:05.367Z</time>
      </trkpt>
      <trkpt lat="45.0723" lon="6.47502">
        <ele>2431</ele>
        <time>2024-08-16T07:14:16.707Z</time>
      </trkpt>
      <trkpt lat="45.07236" lon="6.47491">
        <ele>2433</ele>
        <time>2024-08-16T07:14:34.128Z</time>
      </trkpt>
      <trkpt lat="45.07245" lon="6.47497">
        <ele>2432</ele>
        <time>2024-08-16T07:14:41.700Z</time>
      </trkpt>
      <trkpt lat="45.07254" lon="6.47499">
        <ele>2432</ele>
        <time>2024-08-16T07:14:49.625Z</time>
      </trkpt>
      <trkpt lat="45.07263" lon="6.475">
        <ele>2430</ele>
        <time>2024-08-16T07:14:56.497Z</time>
      </trkpt>
      <trkpt lat="45.0727" lon="6.47508">
        <ele>2428</ele>
        <time>2024-08-16T07:15:03.344Z</time>
      </trkpt>
      <trkpt lat="45.07278" lon="6.47519">
        <ele>2427</ele>
        <time>2024-08-16T07:15:11.832Z</time>
      </trkpt>
      <trkpt lat="45.07288" lon="6.47519">
        <ele>2427</ele>
        <time>2024-08-16T07:15:20.532Z</time>
      </trkpt>
      <trkpt lat="45.07296" lon="6.47511">
        <ele>2427</ele>
        <time>2024-08-16T07:15:29.052Z</time>
      </trkpt>
      <trkpt lat="45.07299" lon="6.47498">
        <ele>2428</ele>
        <time>2024-08-16T07:15:40.859Z</time>
      </trkpt>
      <trkpt lat="45.07302" lon="6.47486">
        <ele>2428</ele>
        <time>2024-08-16T07:15:48.680Z</time>
      </trkpt>
      <trkpt lat="45.07305" lon="6.47472">
        <ele>2428</ele>
        <time>2024-08-16T07:15:57.668Z</time>
      </trkpt>
      <trkpt lat="45.07309" lon="6.4746">
        <ele>2428</ele>
        <time>2024-08-16T07:16:05.820Z</time>
      </trkpt>
      <trkpt lat="45.07316" lon="6.47451">
        <ele>2428</ele>
        <time>2024-08-16T07:16:14.045Z</time>
      </trkpt>
      <trkpt lat="45.07326" lon="6.47452">
        <ele>2427</ele>
        <time>2024-08-16T07:16:21.676Z</time>
      </trkpt>
      <trkpt lat="45.07334" lon="6.47445">
        <ele>2427</ele>
        <time>2024-08-16T07:16:29.857Z</time>
      </trkpt>
      <trkpt lat="45.07342" lon="6.47438">
        <ele>2427</ele>
        <time>2024-08-16T07:16:38.038Z</time>
      </trkpt>
      <trkpt lat="45.07351" lon="6.47443">
        <ele>2430</ele>
        <time>2024-08-16T07:17:04.569Z</time>
      </trkpt>
      <trkpt lat="45.07361" lon="6.47441">
        <ele>2433</ele>
        <time>2024-08-16T07:17:30.791Z</time>
      </trkpt>
      <trkpt lat="45.07368" lon="6.47431">
        <ele>2434</ele>
        <time>2024-08-16T07:17:42.822Z</time>
      </trkpt>
      <trkpt lat="45.07376" lon="6.47427">
        <ele>2436</ele>
        <time>2024-08-16T07:17:59.928Z</time>
      </trkpt>
      <trkpt lat="45.07386" lon="6.47426">
        <ele>2437</ele>
        <time>2024-08-16T07:18:12.023Z</time>
      </trkpt>
      <trkpt lat="45.07393" lon="6.47414">
        <ele>2437</ele>
        <time>2024-08-16T07:18:21.585Z</time>
      </trkpt>
      <trkpt lat="45.074" lon="6.47405">
        <ele>2439</ele>
        <time>2024-08-16T07:18:38.888Z</time>
      </trkpt>
      <trkpt lat="45.07409" lon="6.47399">
        <ele>2441</ele>
        <time>2024-08-16T07:18:56.357Z</time>
      </trkpt>
      <trkpt lat="45.07418" lon="6.47395">
        <ele>2441</ele>
        <time>2024-08-16T07:19:04.563Z</time>
      </trkpt>
      <trkpt lat="45.07427" lon="6.47392">
        <ele>2444</ele>
        <time>2024-08-16T07:19:31.480Z</time>
      </trkpt>
      <trkpt lat="45.07435" lon="6.47385">
        <ele>2446</ele>
        <time>2024-08-16T07:19:48.768Z</time>
      </trkpt>
      <trkpt lat="45.07443" lon="6.47381">
        <ele>2449</ele>
        <time>2024-08-16T07:20:16.622Z</time>
      </trkpt>
      <trkpt lat="45.0745" lon="6.47372">
        <ele>2450</ele>
        <time>2024-08-16T07:20:28.271Z</time>
      </trkpt>
      <trkpt lat="45.07459" lon="6.47377">
        <ele>2452</ele>
        <time>2024-08-16T07:20:45.641Z</time>
      </trkpt>
      <trkpt lat="45.07467" lon="6.47384">
        <ele>2453</ele>
        <time>2024-08-16T07:20:57.251Z</time>
      </trkpt>
      <trkpt lat="45.07469" lon="6.47396">
        <ele>2455</ele>
        <time>2024-08-16T07:21:14.385Z</time>
      </trkpt>
      <trkpt lat="45.07472" lon="6.47408">
        <ele>2456</ele>
        <time>2024-08-16T07:21:25.677Z</time>
      </trkpt>
      <trkpt lat="45.0747" lon="6.47421">
        <ele>2456</ele>
        <time>2024-08-16T07:21:33.851Z</time>
      </trkpt>
      <trkpt lat="45.07472" lon="6.47434">
        <ele>2457</ele>
        <time>2024-08-16T07:21:45.454Z</time>
      </trkpt>
      <trkpt lat="45.07471" lon="6.47448">
        <ele>2458</ele>
        <time>2024-08-16T07:21:57.480Z</time>
      </trkpt>
      <trkpt lat="45.07472" lon="6.47461">
        <ele>2459</ele>
        <time>2024-08-16T07:22:08.959Z</time>
      </trkpt>
      <trkpt lat="45.07468" lon="6.47473">
        <ele>2461</ele>
        <time>2024-08-16T07:22:26.238Z</time>
      </trkpt>
      <trkpt lat="45.07469" lon="6.47486">
        <ele>2463</ele>
        <time>2024-08-16T07:22:43.481Z</time>
      </trkpt>
      <trkpt lat="45.07466" lon="6.47499">
        <ele>2463</ele>
        <time>2024-08-16T07:22:51.883Z</time>
      </trkpt>
      <trkpt lat="45.07461" lon="6.47511">
        <ele>2464</ele>
        <time>2024-08-16T07:23:03.831Z</time>
      </trkpt>
      <trkpt lat="45.07454" lon="6.47521">
        <ele>2474</ele>
        <time>2024-08-16T07:23:49.244Z</time>
      </trkpt>
      <trkpt lat="45.07458" lon="6.47533">
        <ele>2477</ele>
        <time>2024-08-16T07:24:16.037Z</time>
      </trkpt>
      <trkpt lat="45.07465" lon="6.4754">
        <ele>2482</ele>
        <time>2024-08-16T07:24:55.175Z</time>
      </trkpt>
      <trkpt lat="45.07475" lon="6.47544">
        <ele>2483</ele>
        <time>2024-08-16T07:25:07.559Z</time>
      </trkpt>
      <trkpt lat="45.07478" lon="6.47556">
        <ele>2485</ele>
        <time>2024-08-16T07:25:24.744Z</time>
      </trkpt>
      <trkpt lat="45.07485" lon="6.47564">
        <ele>2486</ele>
        <time>2024-08-16T07:25:36.040Z</time>
      </trkpt>
      <trkpt lat="45.07483" lon="6.47578">
        <ele>2488</ele>
        <time>2024-08-16T07:25:53.562Z</time>
      </trkpt>
      <trkpt lat="45.07477" lon="6.47588">
        <ele>2488</ele>
        <time>2024-08-16T07:26:01.624Z</time>
      </trkpt>
      <trkpt lat="45.07476" lon="6.47602">
        <ele>2489</ele>
        <time>2024-08-16T07:26:13.649Z</time>
      </trkpt>
      <trkpt lat="45.07474" lon="6.47614">
        <ele>2489</ele>
        <time>2024-08-16T07:26:21.224Z</time>
      </trkpt>
      <trkpt lat="45.07476" lon="6.47627">
        <ele>2491</ele>
        <time>2024-08-16T07:26:38.510Z</time>
      </trkpt>
      <trkpt lat="45.07473" lon="6.47639">
        <ele>2495</ele>
        <time>2024-08-16T07:27:19.566Z</time>
      </trkpt>
      <trkpt lat="45.07481" lon="6.47646">
        <ele>2498</ele>
        <time>2024-08-16T07:27:46.328Z</time>
      </trkpt>
      <trkpt lat="45.07484" lon="6.47659">
        <ele>2501</ele>
        <time>2024-08-16T07:28:12.867Z</time>
      </trkpt>
      <trkpt lat="45.07492" lon="6.47668">
        <ele>2502</ele>
        <time>2024-08-16T07:28:25.113Z</time>
      </trkpt>
      <trkpt lat="45.075" lon="6.47676">
        <ele>2503</ele>
        <time>2024-08-16T07:28:37.027Z</time>
      </trkpt>
      <trkpt lat="45.07508" lon="6.47682">
        <ele>2503</ele>
        <time>2024-08-16T07:28:44.902Z</time>
      </trkpt>
      <trkpt lat="45.07514" lon="6.47692">
        <ele>2503</ele>
        <time>2024-08-16T07:28:52.963Z</time>
      </trkpt>
      <trkpt lat="45.07521" lon="6.47699">
        <ele>2503</ele>
        <time>2024-08-16T07:29:00.418Z</time>
      </trkpt>
      <trkpt lat="45.07529" lon="6.47708">
        <ele>2504</ele>
        <time>2024-08-16T07:29:12.664Z</time>
      </trkpt>
      <trkpt lat="45.07524" lon="6.47719">
        <ele>2508</ele>
        <time>2024-08-16T07:29:53.431Z</time>
      </trkpt>
      <trkpt lat="45.0752" lon="6.47732">
        <ele>2509</ele>
        <time>2024-08-16T07:30:05.517Z</time>
      </trkpt>
      <trkpt lat="45.07528" lon="6.47739">
        <ele>2510</ele>
        <time>2024-08-16T07:30:17.127Z</time>
      </trkpt>
      <trkpt lat="45.07537" lon="6.47743">
        <ele>2512</ele>
        <time>2024-08-16T07:30:34.424Z</time>
      </trkpt>
      <trkpt lat="45.07547" lon="6.47745">
        <ele>2512</ele>
        <time>2024-08-16T07:30:43.210Z</time>
      </trkpt>
      <trkpt lat="45.07556" lon="6.47743">
        <ele>2513</ele>
        <time>2024-08-16T07:30:54.594Z</time>
      </trkpt>
      <trkpt lat="45.07565" lon="6.47741">
        <ele>2514</ele>
        <time>2024-08-16T07:31:05.978Z</time>
      </trkpt>
      <trkpt lat="45.07574" lon="6.47738">
        <ele>2516</ele>
        <time>2024-08-16T07:31:23.223Z</time>
      </trkpt>
      <trkpt lat="45.07583" lon="6.4774">
        <ele>2517</ele>
        <time>2024-08-16T07:31:34.607Z</time>
      </trkpt>
      <trkpt lat="45.07592" lon="6.47745">
        <ele>2521</ele>
        <time>2024-08-16T07:32:14.597Z</time>
      </trkpt>
      <trkpt lat="45.07601" lon="6.47746">
        <ele>2523</ele>
        <time>2024-08-16T07:32:31.790Z</time>
      </trkpt>
      <trkpt lat="45.0761" lon="6.47751">
        <ele>2524</ele>
        <time>2024-08-16T07:32:43.605Z</time>
      </trkpt>
      <trkpt lat="45.07619" lon="6.47756">
        <ele>2530</ele>
        <time>2024-08-16T07:33:27.759Z</time>
      </trkpt>
      <trkpt lat="45.07628" lon="6.47754">
        <ele>2534</ele>
        <time>2024-08-16T07:34:08.736Z</time>
      </trkpt>
      <trkpt lat="45.07636" lon="6.47761">
        <ele>2537</ele>
        <time>2024-08-16T07:34:35.498Z</time>
      </trkpt>
      <trkpt lat="45.07646" lon="6.47764">
        <ele>2538</ele>
        <time>2024-08-16T07:34:47.748Z</time>
      </trkpt>
      <trkpt lat="45.07656" lon="6.47764">
        <ele>2542</ele>
        <time>2024-08-16T07:35:27.111Z</time>
      </trkpt>
      <trkpt lat="45.07666" lon="6.47763">
        <ele>2544</ele>
        <time>2024-08-16T07:35:44.609Z</time>
      </trkpt>
      <trkpt lat="45.07675" lon="6.4776">
        <ele>2548</ele>
        <time>2024-08-16T07:36:25.363Z</time>
      </trkpt>
      <trkpt lat="45.07684" lon="6.47755">
        <ele>2549</ele>
        <time>2024-08-16T07:36:37.178Z</time>
      </trkpt>
      <trkpt lat="45.07693" lon="6.4775">
        <ele>2550</ele>
        <time>2024-08-16T07:36:48.992Z</time>
      </trkpt>
      <trkpt lat="45.07701" lon="6.47743">
        <ele>2552</ele>
        <time>2024-08-16T07:37:06.281Z</time>
      </trkpt>
      <trkpt lat="45.0771" lon="6.47736">
        <ele>2553</ele>
        <time>2024-08-16T07:37:18.567Z</time>
      </trkpt>
      <trkpt lat="45.07718" lon="6.47729">
        <ele>2557</ele>
        <time>2024-08-16T07:37:59.044Z</time>
      </trkpt>
      <trkpt lat="45.07727" lon="6.47724">
        <ele>2561</ele>
        <time>2024-08-16T07:38:39.034Z</time>
      </trkpt>
      <trkpt lat="45.07736" lon="6.4772">
        <ele>2561</ele>
        <time>2024-08-16T07:38:47.240Z</time>
      </trkpt>
      <trkpt lat="45.07745" lon="6.47717">
        <ele>2562</ele>
        <time>2024-08-16T07:38:58.728Z</time>
      </trkpt>
      <trkpt lat="45.07754" lon="6.47714">
        <ele>2566</ele>
        <time>2024-08-16T07:39:39.482Z</time>
      </trkpt>
      <trkpt lat="45.07763" lon="6.47709">
        <ele>2568</ele>
        <time>2024-08-16T07:39:56.852Z</time>
      </trkpt>
      <trkpt lat="45.07772" lon="6.47708">
        <ele>2569</ele>
        <time>2024-08-16T07:40:08.173Z</time>
      </trkpt>
      <trkpt lat="45.07781" lon="6.47708">
        <ele>2570</ele>
        <time>2024-08-16T07:40:19.473Z</time>
      </trkpt>
      <trkpt lat="45.0779" lon="6.47705">
        <ele>2572</ele>
        <time>2024-08-16T07:40:36.718Z</time>
      </trkpt>
      <trkpt lat="45.07799" lon="6.47705">
        <ele>2572</ele>
        <time>2024-08-16T07:40:44.548Z</time>
      </trkpt>
      <trkpt lat="45.07809" lon="6.47703">
        <ele>2572</ele>
        <time>2024-08-16T07:40:53.333Z</time>
      </trkpt>
      <trkpt lat="45.07819" lon="6.47699">
        <ele>2573</ele>
        <time>2024-08-16T07:41:05.717Z</time>
      </trkpt>
      <trkpt lat="45.07831" lon="6.47698">
        <ele>2573</ele>
        <time>2024-08-16T07:41:16.174Z</time>
      </trkpt>
      <trkpt lat="45.07841" lon="6.477">
        <ele>2573</ele>
        <time>2024-08-16T07:41:24.960Z</time>
      </trkpt>
      <trkpt lat="45.0785" lon="6.47698">
        <ele>2574</ele>
        <time>2024-08-16T07:41:36.344Z</time>
      </trkpt>
      <trkpt lat="45.07859" lon="6.4769">
        <ele>2573</ele>
        <time>2024-08-16T07:41:44.432Z</time>
      </trkpt>
      <trkpt lat="45.07864" lon="6.47679">
        <ele>2573</ele>
        <time>2024-08-16T07:41:52.468Z</time>
      </trkpt>
      <trkpt lat="45.07873" lon="6.47685">
        <ele>2574</ele>
        <time>2024-08-16T07:42:04.502Z</time>
      </trkpt>
      <trkpt lat="45.07882" lon="6.4769">
        <ele>2573</ele>
        <time>2024-08-16T07:42:11.861Z</time>
      </trkpt>
      <trkpt lat="45.07892" lon="6.47694">
        <ele>2573</ele>
        <time>2024-08-16T07:42:20.901Z</time>
      </trkpt>
      <trkpt lat="45.07901" lon="6.47691">
        <ele>2573</ele>
        <time>2024-08-16T07:42:28.944Z</time>
      </trkpt>
      <trkpt lat="45.0791" lon="6.4769">
        <ele>2573</ele>
        <time>2024-08-16T07:42:36.797Z</time>
      </trkpt>
      <trkpt lat="45.0792" lon="6.47688">
        <ele>2574</ele>
        <time>2024-08-16T07:42:48.950Z</time>
      </trkpt>
      <trkpt lat="45.07929" lon="6.47688">
        <ele>2575</ele>
        <time>2024-08-16T07:43:00.250Z</time>
      </trkpt>
      <trkpt lat="45.07938" lon="6.47688">
        <ele>2576</ele>
        <time>2024-08-16T07:43:11.550Z</time>
      </trkpt>
      <trkpt lat="45.07946" lon="6.47682">
        <ele>2578</ele>
        <time>2024-08-16T07:43:28.749Z</time>
      </trkpt>
      <trkpt lat="45.07955" lon="6.47678">
        <ele>2579</ele>
        <time>2024-08-16T07:43:40.381Z</time>
      </trkpt>
      <trkpt lat="45.07964" lon="6.47675">
        <ele>2578</ele>
        <time>2024-08-16T07:43:47.419Z</time>
      </trkpt>
      <trkpt lat="45.07974" lon="6.47674">
        <ele>2580</ele>
        <time>2024-08-16T07:44:04.917Z</time>
      </trkpt>
      <trkpt lat="45.07984" lon="6.4767">
        <ele>2580</ele>
        <time>2024-08-16T07:44:13.957Z</time>
      </trkpt>
      <trkpt lat="45.07994" lon="6.47668">
        <ele>2582</ele>
        <time>2024-08-16T07:44:31.483Z</time>
      </trkpt>
      <trkpt lat="45.08003" lon="6.47667">
        <ele>2581</ele>
        <time>2024-08-16T07:44:38.355Z</time>
      </trkpt>
      <trkpt lat="45.08013" lon="6.47668">
        <ele>2585</ele>
        <time>2024-08-16T07:45:17.672Z</time>
      </trkpt>
      <trkpt lat="45.0802" lon="6.47678">
        <ele>2585</ele>
        <time>2024-08-16T07:45:26.321Z</time>
      </trkpt>
      <trkpt lat="45.08027" lon="6.47687">
        <ele>2584</ele>
        <time>2024-08-16T07:45:33.518Z</time>
      </trkpt>
      <trkpt lat="45.08012" lon="6.47705">
        <ele>2585</ele>
        <time>2024-08-16T07:45:53.622Z</time>
      </trkpt>
      <trkpt lat="45.08032" lon="6.47681">
        <ele>2585</ele>
        <time>2024-08-16T07:46:16.427Z</time>
      </trkpt>
      <trkpt lat="45.08025" lon="6.47693">
        <ele>2584</ele>
        <time>2024-08-16T07:46:24.793Z</time>
      </trkpt>
      <trkpt lat="45.08018" lon="6.47701">
        <ele>2585</ele>
        <time>2024-08-16T07:46:36.089Z</time>
      </trkpt>
      <trkpt lat="45.08011" lon="6.47712">
        <ele>2583</ele>
        <time>2024-08-16T07:46:44.048Z</time>
      </trkpt>
      <trkpt lat="45.08002" lon="6.47712">
        <ele>2588</ele>
        <time>2024-08-16T07:47:25.152Z</time>
      </trkpt>
      <trkpt lat="45.07995" lon="6.47722">
        <ele>2588</ele>
        <time>2024-08-16T07:47:33.801Z</time>
      </trkpt>
      <trkpt lat="45.07992" lon="6.47736">
        <ele>2589</ele>
        <time>2024-08-16T07:47:46.138Z</time>
      </trkpt>
      <trkpt lat="45.07996" lon="6.47748">
        <ele>2590</ele>
        <time>2024-08-16T07:47:57.721Z</time>
      </trkpt>
      <trkpt lat="45.08004" lon="6.47755">
        <ele>2592</ele>
        <time>2024-08-16T07:48:15.010Z</time>
      </trkpt>
      <trkpt lat="45.07995" lon="6.47758">
        <ele>2593</ele>
        <time>2024-08-16T07:48:26.498Z</time>
      </trkpt>
      <trkpt lat="45.07985" lon="6.47757">
        <ele>2596</ele>
        <time>2024-08-16T07:48:52.768Z</time>
      </trkpt>
      <trkpt lat="45.07977" lon="6.47765">
        <ele>2598</ele>
        <time>2024-08-16T07:49:10.181Z</time>
      </trkpt>
      <trkpt lat="45.07969" lon="6.47773">
        <ele>2598</ele>
        <time>2024-08-16T07:49:18.701Z</time>
      </trkpt>
      <trkpt lat="45.0796" lon="6.47776">
        <ele>2599</ele>
        <time>2024-08-16T07:49:30.189Z</time>
      </trkpt>
      <trkpt lat="45.07951" lon="6.47777">
        <ele>2600</ele>
        <time>2024-08-16T07:49:41.510Z</time>
      </trkpt>
      <trkpt lat="45.07941" lon="6.47779">
        <ele>2600</ele>
        <time>2024-08-16T07:49:50.296Z</time>
      </trkpt>
      <trkpt lat="45.07933" lon="6.47784">
        <ele>2600</ele>
        <time>2024-08-16T07:49:57.903Z</time>
      </trkpt>
      <trkpt lat="45.07923" lon="6.47788">
        <ele>2603</ele>
        <time>2024-08-16T07:50:23.960Z</time>
      </trkpt>
      <trkpt lat="45.07916" lon="6.47795">
        <ele>2604</ele>
        <time>2024-08-16T07:50:34.934Z</time>
      </trkpt>
      <trkpt lat="45.0791" lon="6.47805">
        <ele>2605</ele>
        <time>2024-08-16T07:50:46.438Z</time>
      </trkpt>
      <trkpt lat="45.07901" lon="6.4781">
        <ele>2607</ele>
        <time>2024-08-16T07:51:03.808Z</time>
      </trkpt>
      <trkpt lat="45.07893" lon="6.47815">
        <ele>2608</ele>
        <time>2024-08-16T07:51:14.914Z</time>
      </trkpt>
      <trkpt lat="45.07885" lon="6.47822">
        <ele>2609</ele>
        <time>2024-08-16T07:51:26.524Z</time>
      </trkpt>
      <trkpt lat="45.07877" lon="6.47827">
        <ele>2610</ele>
        <time>2024-08-16T07:51:37.630Z</time>
      </trkpt>
      <trkpt lat="45.0787" lon="6.47837">
        <ele>2620</ele>
        <time>2024-08-16T07:52:23.041Z</time>
      </trkpt>
      <trkpt lat="45.07861" lon="6.47842">
        <ele>2620</ele>
        <time>2024-08-16T07:52:31.451Z</time>
      </trkpt>
      <trkpt lat="45.07853" lon="6.47849">
        <ele>2621</ele>
        <time>2024-08-16T07:52:43.061Z</time>
      </trkpt>
      <trkpt lat="45.07845" lon="6.47854">
        <ele>2623</ele>
        <time>2024-08-16T07:53:00.201Z</time>
      </trkpt>
      <trkpt lat="45.07835" lon="6.47855">
        <ele>2623</ele>
        <time>2024-08-16T07:53:08.922Z</time>
      </trkpt>
      <trkpt lat="45.07826" lon="6.47852">
        <ele>2625</ele>
        <time>2024-08-16T07:53:26.167Z</time>
      </trkpt>
      <trkpt lat="45.07819" lon="6.47861">
        <ele>2629</ele>
        <time>2024-08-16T07:54:06.552Z</time>
      </trkpt>
      <trkpt lat="45.07814" lon="6.47871">
        <ele>2629</ele>
        <time>2024-08-16T07:54:14.079Z</time>
      </trkpt>
      <trkpt lat="45.07805" lon="6.47876">
        <ele>2629</ele>
        <time>2024-08-16T07:54:22.489Z</time>
      </trkpt>
      <trkpt lat="45.07796" lon="6.47871">
        <ele>2632</ele>
        <time>2024-08-16T07:54:49.020Z</time>
      </trkpt>
      <trkpt lat="45.07788" lon="6.47879">
        <ele>2633</ele>
        <time>2024-08-16T07:55:00.933Z</time>
      </trkpt>
      <trkpt lat="45.0778" lon="6.47887">
        <ele>2636</ele>
        <time>2024-08-16T07:55:27.366Z</time>
      </trkpt>
      <trkpt lat="45.07772" lon="6.47892">
        <ele>2636</ele>
        <time>2024-08-16T07:55:34.973Z</time>
      </trkpt>
      <trkpt lat="45.07766" lon="6.47903">
        <ele>2638</ele>
        <time>2024-08-16T07:55:52.394Z</time>
      </trkpt>
      <trkpt lat="45.0776" lon="6.47913">
        <ele>2638</ele>
        <time>2024-08-16T07:56:00.455Z</time>
      </trkpt>
      <trkpt lat="45.07752" lon="6.47918">
        <ele>2638</ele>
        <time>2024-08-16T07:56:08.062Z</time>
      </trkpt>
      <trkpt lat="45.07742" lon="6.47921">
        <ele>2638</ele>
        <time>2024-08-16T07:56:16.955Z</time>
      </trkpt>
      <trkpt lat="45.07733" lon="6.47924">
        <ele>2640</ele>
        <time>2024-08-16T07:56:34.200Z</time>
      </trkpt>
      <trkpt lat="45.07724" lon="6.47926">
        <ele>2643</ele>
        <time>2024-08-16T07:57:01.260Z</time>
      </trkpt>
      <trkpt lat="45.07715" lon="6.4793">
        <ele>2645</ele>
        <time>2024-08-16T07:57:18.557Z</time>
      </trkpt>
      <trkpt lat="45.07706" lon="6.47935">
        <ele>2648</ele>
        <time>2024-08-16T07:57:45.088Z</time>
      </trkpt>
      <trkpt lat="45.07698" lon="6.47943">
        <ele>2650</ele>
        <time>2024-08-16T07:58:02.501Z</time>
      </trkpt>
      <trkpt lat="45.07689" lon="6.47946">
        <ele>2650</ele>
        <time>2024-08-16T07:58:10.545Z</time>
      </trkpt>
      <trkpt lat="45.0768" lon="6.47949">
        <ele>2651</ele>
        <time>2024-08-16T07:58:22.033Z</time>
      </trkpt>
      <trkpt lat="45.07672" lon="6.47954">
        <ele>2653</ele>
        <time>2024-08-16T07:58:39.172Z</time>
      </trkpt>
      <trkpt lat="45.07663" lon="6.47957">
        <ele>2654</ele>
        <time>2024-08-16T07:58:50.661Z</time>
      </trkpt>
      <trkpt lat="45.07656" lon="6.47964">
        <ele>2658</ele>
        <time>2024-08-16T07:59:29.798Z</time>
      </trkpt>
      <trkpt lat="45.07652" lon="6.47977">
        <ele>2660</ele>
        <time>2024-08-16T07:59:47.292Z</time>
      </trkpt>
      <trkpt lat="45.07645" lon="6.47984">
        <ele>2662</ele>
        <time>2024-08-16T08:00:04.408Z</time>
      </trkpt>
      <trkpt lat="45.07637" lon="6.47993">
        <ele>2664</ele>
        <time>2024-08-16T08:00:21.982Z</time>
      </trkpt>
      <trkpt lat="45.07629" lon="6.47999">
        <ele>2668</ele>
        <time>2024-08-16T08:01:03.048Z</time>
      </trkpt>
      <trkpt lat="45.07621" lon="6.48007">
        <ele>2670</ele>
        <time>2024-08-16T08:01:20.462Z</time>
      </trkpt>
      <trkpt lat="45.07614" lon="6.48015">
        <ele>2670</ele>
        <time>2024-08-16T08:01:28.287Z</time>
      </trkpt>
      <trkpt lat="45.07607" lon="6.48025">
        <ele>2672</ele>
        <time>2024-08-16T08:01:45.754Z</time>
      </trkpt>
      <trkpt lat="45.07598" lon="6.48025">
        <ele>2672</ele>
        <time>2024-08-16T08:01:53.584Z</time>
      </trkpt>
      <trkpt lat="45.07595" lon="6.48038">
        <ele>2679</ele>
        <time>2024-08-16T08:02:37.693Z</time>
      </trkpt>
      <trkpt lat="45.07602" lon="6.48046">
        <ele>2680</ele>
        <time>2024-08-16T08:02:48.989Z</time>
      </trkpt>
      <trkpt lat="45.07594" lon="6.4804">
        <ele>2688</ele>
        <time>2024-08-16T08:03:30.334Z</time>
      </trkpt>
      <trkpt lat="45.07593" lon="6.48027">
        <ele>2687</ele>
        <time>2024-08-16T08:03:37.363Z</time>
      </trkpt>
      <trkpt lat="45.07584" lon="6.4803">
        <ele>2682</ele>
        <time>2024-08-16T08:03:44.401Z</time>
      </trkpt>
      <trkpt lat="45.07582" lon="6.48043">
        <ele>2678</ele>
        <time>2024-08-16T08:03:51.553Z</time>
      </trkpt>
      <trkpt lat="45.07576" lon="6.48053">
        <ele>2680</ele>
        <time>2024-08-16T08:04:08.803Z</time>
      </trkpt>
      <trkpt lat="45.07579" lon="6.4804">
        <ele>2673</ele>
        <time>2024-08-16T08:04:16.155Z</time>
      </trkpt>
      <trkpt lat="45.07587" lon="6.48035">
        <ele>2677</ele>
        <time>2024-08-16T08:04:56.092Z</time>
      </trkpt>
      <trkpt lat="45.07581" lon="6.48044">
        <ele>2678</ele>
        <time>2024-08-16T08:05:07.195Z</time>
      </trkpt>
      <trkpt lat="45.07581" lon="6.48059">
        <ele>2676</ele>
        <time>2024-08-16T08:05:15.258Z</time>
      </trkpt>
      <trkpt lat="45.07579" lon="6.48072">
        <ele>2676</ele>
        <time>2024-08-16T08:05:23.432Z</time>
      </trkpt>
      <trkpt lat="45.07574" lon="6.48085">
        <ele>2677</ele>
        <time>2024-08-16T08:05:35.865Z</time>
      </trkpt>
      <trkpt lat="45.07574" lon="6.48099">
        <ele>2678</ele>
        <time>2024-08-16T08:05:47.851Z</time>
      </trkpt>
      <trkpt lat="45.07578" lon="6.4811">
        <ele>2681</ele>
        <time>2024-08-16T08:06:15.357Z</time>
      </trkpt>
      <trkpt lat="45.0758" lon="6.48123">
        <ele>2686</ele>
        <time>2024-08-16T08:06:58.267Z</time>
      </trkpt>
      <trkpt lat="45.07582" lon="6.48136">
        <ele>2687</ele>
        <time>2024-08-16T08:07:09.871Z</time>
      </trkpt>
      <trkpt lat="45.07577" lon="6.48148">
        <ele>2685</ele>
        <time>2024-08-16T08:07:17.360Z</time>
      </trkpt>
      <trkpt lat="45.07568" lon="6.48148">
        <ele>2686</ele>
        <time>2024-08-16T08:07:28.660Z</time>
      </trkpt>
      <trkpt lat="45.07559" lon="6.48145">
        <ele>2696</ele>
        <time>2024-08-16T08:08:10.888Z</time>
      </trkpt>
      <trkpt lat="45.07549" lon="6.48141">
        <ele>2696</ele>
        <time>2024-08-16T08:08:19.927Z</time>
      </trkpt>
      <trkpt lat="45.07541" lon="6.48147">
        <ele>2710</ele>
        <time>2024-08-16T08:09:01.273Z</time>
      </trkpt>
      <trkpt lat="45.07533" lon="6.48152">
        <ele>2703</ele>
        <time>2024-08-16T08:09:07.929Z</time>
      </trkpt>
      <trkpt lat="45.07525" lon="6.48159">
        <ele>2699</ele>
        <time>2024-08-16T08:09:15.087Z</time>
      </trkpt>
      <trkpt lat="45.07518" lon="6.48168">
        <ele>2697</ele>
        <time>2024-08-16T08:09:22.284Z</time>
      </trkpt>
      <trkpt lat="45.07513" lon="6.48179">
        <ele>2697</ele>
        <time>2024-08-16T08:09:30.320Z</time>
      </trkpt>
      <trkpt lat="45.07504" lon="6.48183">
        <ele>2698</ele>
        <time>2024-08-16T08:09:41.953Z</time>
      </trkpt>
      <trkpt lat="45.07496" lon="6.4819">
        <ele>2699</ele>
        <time>2024-08-16T08:09:53.563Z</time>
      </trkpt>
      <trkpt lat="45.07496" lon="6.48203">
        <ele>2699</ele>
        <time>2024-08-16T08:10:01.549Z</time>
      </trkpt>
      <trkpt lat="45.07495" lon="6.48216">
        <ele>2699</ele>
        <time>2024-08-16T08:10:09.583Z</time>
      </trkpt>
      <trkpt lat="45.07495" lon="6.48229">
        <ele>2700</ele>
        <time>2024-08-16T08:10:21.020Z</time>
      </trkpt>
      <trkpt lat="45.07492" lon="6.48242">
        <ele>2700</ele>
        <time>2024-08-16T08:10:29.422Z</time>
      </trkpt>
      <trkpt lat="45.07484" lon="6.48251">
        <ele>2700</ele>
        <time>2024-08-16T08:10:38.311Z</time>
      </trkpt>
      <trkpt lat="45.07477" lon="6.48263">
        <ele>2700</ele>
        <time>2024-08-16T08:10:47.872Z</time>
      </trkpt>
      <trkpt lat="45.07476" lon="6.48276">
        <ele>2700</ele>
        <time>2024-08-16T08:10:55.906Z</time>
      </trkpt>
      <trkpt lat="45.07477" lon="6.48289">
        <ele>2699</ele>
        <time>2024-08-16T08:11:02.935Z</time>
      </trkpt>
      <trkpt lat="45.07478" lon="6.48303">
        <ele>2698</ele>
        <time>2024-08-16T08:11:10.499Z</time>
      </trkpt>
      <trkpt lat="45.07471" lon="6.48313">
        <ele>2698</ele>
        <time>2024-08-16T08:11:19.149Z</time>
      </trkpt>
      <trkpt lat="45.07461" lon="6.4832">
        <ele>2701</ele>
        <time>2024-08-16T08:11:44.917Z</time>
      </trkpt>
      <trkpt lat="45.07452" lon="6.48326">
        <ele>2701</ele>
        <time>2024-08-16T08:11:53.570Z</time>
      </trkpt>
      <trkpt lat="45.07443" lon="6.4833">
        <ele>2701</ele>
        <time>2024-08-16T08:12:01.776Z</time>
      </trkpt>
      <trkpt lat="45.0745" lon="6.48321">
        <ele>2701</ele>
        <time>2024-08-16T08:12:10.001Z</time>
      </trkpt>
      <trkpt lat="45.07442" lon="6.4833">
        <ele>2702</ele>
        <time>2024-08-16T08:12:22.247Z</time>
      </trkpt>
      <trkpt lat="45.07432" lon="6.48327">
        <ele>2709</ele>
        <time>2024-08-16T08:13:08.932Z</time>
      </trkpt>
      <trkpt lat="45.07423" lon="6.48334">
        <ele>2709</ele>
        <time>2024-08-16T08:13:17.865Z</time>
      </trkpt>
      <trkpt lat="45.07414" lon="6.48341">
        <ele>2706</ele>
        <time>2024-08-16T08:13:25.681Z</time>
      </trkpt>
      <trkpt lat="45.07405" lon="6.48344">
        <ele>2704</ele>
        <time>2024-08-16T08:13:32.719Z</time>
      </trkpt>
      <trkpt lat="45.07394" lon="6.48346">
        <ele>2701</ele>
        <time>2024-08-16T08:13:41.161Z</time>
      </trkpt>
      <trkpt lat="45.07386" lon="6.48354">
        <ele>2702</ele>
        <time>2024-08-16T08:13:53.074Z</time>
      </trkpt>
      <trkpt lat="45.07376" lon="6.48361">
        <ele>2703</ele>
        <time>2024-08-16T08:14:06.069Z</time>
      </trkpt>
      <trkpt lat="45.07368" lon="6.48354">
        <ele>2702</ele>
        <time>2024-08-16T08:14:13.227Z</time>
      </trkpt>
      <trkpt lat="45.07373" lon="6.48342">
        <ele>2701</ele>
        <time>2024-08-16T08:14:20.717Z</time>
      </trkpt>
      <trkpt lat="45.07367" lon="6.48354">
        <ele>2699</ele>
        <time>2024-08-16T08:14:28.621Z</time>
      </trkpt>
      <trkpt lat="45.07359" lon="6.48365">
        <ele>2697</ele>
        <time>2024-08-16T08:14:37.109Z</time>
      </trkpt>
      <trkpt lat="45.07354" lon="6.48376">
        <ele>2696</ele>
        <time>2024-08-16T08:14:44.141Z</time>
      </trkpt>
      <trkpt lat="45.07349" lon="6.48388">
        <ele>2697</ele>
        <time>2024-08-16T08:14:56.089Z</time>
      </trkpt>
      <trkpt lat="45.07342" lon="6.48395">
        <ele>2695</ele>
        <time>2024-08-16T08:15:02.613Z</time>
      </trkpt>
      <trkpt lat="45.07332" lon="6.48399">
        <ele>2698</ele>
        <time>2024-08-16T08:15:28.670Z</time>
      </trkpt>
      <trkpt lat="45.07322" lon="6.48399">
        <ele>2698</ele>
        <time>2024-08-16T08:15:37.369Z</time>
      </trkpt>
      <trkpt lat="45.07313" lon="6.48404">
        <ele>2697</ele>
        <time>2024-08-16T08:15:44.728Z</time>
      </trkpt>
      <trkpt lat="45.07309" lon="6.48416">
        <ele>2698</ele>
        <time>2024-08-16T08:15:56.313Z</time>
      </trkpt>
      <trkpt lat="45.07305" lon="6.48428">
        <ele>2700</ele>
        <time>2024-08-16T08:16:13.592Z</time>
      </trkpt>
      <trkpt lat="45.07303" lon="6.48441">
        <ele>2699</ele>
        <time>2024-08-16T08:16:20.744Z</time>
      </trkpt>
      <trkpt lat="45.07302" lon="6.48454">
        <ele>2700</ele>
        <time>2024-08-16T08:16:32.224Z</time>
      </trkpt>
      <trkpt lat="45.07302" lon="6.48466">
        <ele>2699</ele>
        <time>2024-08-16T08:16:38.674Z</time>
      </trkpt>
      <trkpt lat="45.07305" lon="6.48479">
        <ele>2699</ele>
        <time>2024-08-16T08:16:47.076Z</time>
      </trkpt>
      <trkpt lat="45.07304" lon="6.48492">
        <ele>2700</ele>
        <time>2024-08-16T08:16:58.556Z</time>
      </trkpt>
      <trkpt lat="45.07302" lon="6.48505">
        <ele>2701</ele>
        <time>2024-08-16T08:17:10.160Z</time>
      </trkpt>
      <trkpt lat="45.07304" lon="6.48518">
        <ele>2705</ele>
        <time>2024-08-16T08:17:50.651Z</time>
      </trkpt>
      <trkpt lat="45.07296" lon="6.48523">
        <ele>2706</ele>
        <time>2024-08-16T08:18:01.757Z</time>
      </trkpt>
      <trkpt lat="45.07289" lon="6.48533">
        <ele>2705</ele>
        <time>2024-08-16T08:18:09.326Z</time>
      </trkpt>
      <trkpt lat="45.0728" lon="6.48531">
        <ele>2703</ele>
        <time>2024-08-16T08:18:16.260Z</time>
      </trkpt>
      <trkpt lat="45.07271" lon="6.48534">
        <ele>2704</ele>
        <time>2024-08-16T08:18:27.749Z</time>
      </trkpt>
      <trkpt lat="45.07262" lon="6.48538">
        <ele>2706</ele>
        <time>2024-08-16T08:18:45.046Z</time>
      </trkpt>
      <trkpt lat="45.07264" lon="6.48551">
        <ele>2708</ele>
        <time>2024-08-16T08:19:02.332Z</time>
      </trkpt>
      <trkpt lat="45.07255" lon="6.48552">
        <ele>2710</ele>
        <time>2024-08-16T08:19:19.525Z</time>
      </trkpt>
      <trkpt lat="45.07249" lon="6.48563">
        <ele>2718</ele>
        <time>2024-08-16T08:20:04.354Z</time>
      </trkpt>
      <trkpt lat="45.07245" lon="6.48574">
        <ele>2725</ele>
        <time>2024-08-16T08:20:44.260Z</time>
      </trkpt>
      <trkpt lat="45.07236" lon="6.48578">
        <ele>2729</ele>
        <time>2024-08-16T08:21:24.685Z</time>
      </trkpt>
      <trkpt lat="45.07226" lon="6.48581">
        <ele>2730</ele>
        <time>2024-08-16T08:21:36.934Z</time>
      </trkpt>
      <trkpt lat="45.07218" lon="6.48577">
        <ele>2730</ele>
        <time>2024-08-16T08:21:44.315Z</time>
      </trkpt>
      <trkpt lat="45.0721" lon="6.48568">
        <ele>2733</ele>
        <time>2024-08-16T08:22:10.466Z</time>
      </trkpt>
      <trkpt lat="45.07202" lon="6.48564">
        <ele>2735</ele>
        <time>2024-08-16T08:22:27.573Z</time>
      </trkpt>
      <trkpt lat="45.07193" lon="6.4856">
        <ele>2746</ele>
        <time>2024-08-16T08:23:10.655Z</time>
      </trkpt>
      <trkpt lat="45.07185" lon="6.48566">
        <ele>2752</ele>
        <time>2024-08-16T08:23:52.000Z</time>
      </trkpt>
      <trkpt lat="45.07176" lon="6.48568">
        <ele>2754</ele>
        <time>2024-08-16T08:24:09.212Z</time>
      </trkpt>
      <trkpt lat="45.07166" lon="6.48566">
        <ele>2759</ele>
        <time>2024-08-16T08:24:55.336Z</time>
      </trkpt>
      <trkpt lat="45.07155" lon="6.48567">
        <ele>2761</ele>
        <time>2024-08-16T08:25:13.275Z</time>
      </trkpt>
      <trkpt lat="45.07161" lon="6.48577">
        <ele>2767</ele>
        <time>2024-08-16T08:25:55.598Z</time>
      </trkpt>
      <trkpt lat="45.07155" lon="6.48565">
        <ele>2773</ele>
        <time>2024-08-16T08:26:43.022Z</time>
      </trkpt>
      <trkpt lat="45.07145" lon="6.48569">
        <ele>2763</ele>
        <time>2024-08-16T08:26:50.931Z</time>
      </trkpt>
      <trkpt lat="45.07136" lon="6.48566">
        <ele>2765</ele>
        <time>2024-08-16T08:27:08.176Z</time>
      </trkpt>
      <trkpt lat="45.07127" lon="6.48561">
        <ele>2770</ele>
        <time>2024-08-16T08:27:52.331Z</time>
      </trkpt>
      <trkpt lat="45.07119" lon="6.48568">
        <ele>2773</ele>
        <time>2024-08-16T08:28:19.093Z</time>
      </trkpt>
      <trkpt lat="45.0711" lon="6.48571">
        <ele>2776</ele>
        <time>2024-08-16T08:28:46.010Z</time>
      </trkpt>
      <trkpt lat="45.071" lon="6.48574">
        <ele>2779</ele>
        <time>2024-08-16T08:29:12.159Z</time>
      </trkpt>
      <trkpt lat="45.07091" lon="6.48573">
        <ele>2781</ele>
        <time>2024-08-16T08:29:29.351Z</time>
      </trkpt>
      <trkpt lat="45.07082" lon="6.48576">
        <ele>2780</ele>
        <time>2024-08-16T08:29:36.389Z</time>
      </trkpt>
      <trkpt lat="45.07072" lon="6.4858">
        <ele>2781</ele>
        <time>2024-08-16T08:29:48.773Z</time>
      </trkpt>
      <trkpt lat="45.07063" lon="6.48582">
        <ele>2784</ele>
        <time>2024-08-16T08:30:15.834Z</time>
      </trkpt>
      <trkpt lat="45.07054" lon="6.48585">
        <ele>2787</ele>
        <time>2024-08-16T08:30:42.751Z</time>
      </trkpt>
      <trkpt lat="45.07045" lon="6.48582">
        <ele>2789</ele>
        <time>2024-08-16T08:30:59.996Z</time>
      </trkpt>
      <trkpt lat="45.07036" lon="6.4858">
        <ele>2791</ele>
        <time>2024-08-16T08:31:17.207Z</time>
      </trkpt>
      <trkpt lat="45.07026" lon="6.48578">
        <ele>2794</ele>
        <time>2024-08-16T08:31:43.430Z</time>
      </trkpt>
      <trkpt lat="45.07017" lon="6.48573">
        <ele>2796</ele>
        <time>2024-08-16T08:32:00.800Z</time>
      </trkpt>
      <trkpt lat="45.07009" lon="6.48567">
        <ele>2798</ele>
        <time>2024-08-16T08:32:17.998Z</time>
      </trkpt>
      <trkpt lat="45.07002" lon="6.48559">
        <ele>2802</ele>
        <time>2024-08-16T08:32:59.150Z</time>
      </trkpt>
      <trkpt lat="45.06993" lon="6.48556">
        <ele>2804</ele>
        <time>2024-08-16T08:33:16.395Z</time>
      </trkpt>
      <trkpt lat="45.06985" lon="6.4855">
        <ele>2807</ele>
        <time>2024-08-16T08:33:43.519Z</time>
      </trkpt>
      <trkpt lat="45.06977" lon="6.48544">
        <ele>2812</ele>
        <time>2024-08-16T08:34:24.865Z</time>
      </trkpt>
      <trkpt lat="45.06968" lon="6.48539">
        <ele>2814</ele>
        <time>2024-08-16T08:34:42.236Z</time>
      </trkpt>
      <trkpt lat="45.06961" lon="6.48531">
        <ele>2815</ele>
        <time>2024-08-16T08:34:53.532Z</time>
      </trkpt>
      <trkpt lat="45.06956" lon="6.4852">
        <ele>2830</ele>
        <time>2024-08-16T08:35:35.726Z</time>
      </trkpt>
      <trkpt lat="45.06961" lon="6.48509">
        <ele>2840</ele>
        <time>2024-08-16T08:36:17.921Z</time>
      </trkpt>
      <trkpt lat="45.06965" lon="6.48521">
        <ele>2843</ele>
        <time>2024-08-16T08:36:44.713Z</time>
      </trkpt>
      <trkpt lat="45.06969" lon="6.48533">
        <ele>2839</ele>
        <time>2024-08-16T08:36:51.847Z</time>
      </trkpt>
      <trkpt lat="45.06976" lon="6.48541">
        <ele>2834</ele>
        <time>2024-08-16T08:36:58.694Z</time>
      </trkpt>
      <trkpt lat="45.06986" lon="6.48543">
        <ele>2832</ele>
        <time>2024-08-16T08:37:06.382Z</time>
      </trkpt>
      <trkpt lat="45.06994" lon="6.48548">
        <ele>2828</ele>
        <time>2024-08-16T08:37:13.038Z</time>
      </trkpt>
      <trkpt lat="45.07002" lon="6.48555">
        <ele>2823</ele>
        <time>2024-08-16T08:37:20.196Z</time>
      </trkpt>
      <trkpt lat="45.07011" lon="6.48559">
        <ele>2817</ele>
        <time>2024-08-16T08:37:27.377Z</time>
      </trkpt>
      <trkpt lat="45.07019" lon="6.48567">
        <ele>2815</ele>
        <time>2024-08-16T08:37:34.832Z</time>
      </trkpt>
      <trkpt lat="45.07027" lon="6.48573">
        <ele>2812</ele>
        <time>2024-08-16T08:37:41.723Z</time>
      </trkpt>
      <trkpt lat="45.07035" lon="6.4858">
        <ele>2803</ele>
        <time>2024-08-16T08:37:48.881Z</time>
      </trkpt>
      <trkpt lat="45.07045" lon="6.48579">
        <ele>2795</ele>
        <time>2024-08-16T08:37:56.512Z</time>
      </trkpt>
      <trkpt lat="45.07054" lon="6.48582">
        <ele>2790</ele>
        <time>2024-08-16T08:38:03.550Z</time>
      </trkpt>
      <trkpt lat="45.07064" lon="6.48583">
        <ele>2790</ele>
        <time>2024-08-16T08:38:12.271Z</time>
      </trkpt>
      <trkpt lat="45.07072" lon="6.48578">
        <ele>2792</ele>
        <time>2024-08-16T08:38:29.410Z</time>
      </trkpt>
      <trkpt lat="45.07082" lon="6.48577">
        <ele>2793</ele>
        <time>2024-08-16T08:38:41.505Z</time>
      </trkpt>
      <trkpt lat="45.07091" lon="6.4857">
        <ele>2793</ele>
        <time>2024-08-16T08:38:50.438Z</time>
      </trkpt>
      <trkpt lat="45.07102" lon="6.48573">
        <ele>2777</ele>
        <time>2024-08-16T08:38:58.965Z</time>
      </trkpt>
      <trkpt lat="45.07111" lon="6.48572">
        <ele>2778</ele>
        <time>2024-08-16T08:39:10.286Z</time>
      </trkpt>
      <trkpt lat="45.07105" lon="6.4856">
        <ele>2780</ele>
        <time>2024-08-16T08:39:27.929Z</time>
      </trkpt>
      <trkpt lat="45.07103" lon="6.48572">
        <ele>2781</ele>
        <time>2024-08-16T08:39:39.008Z</time>
      </trkpt>
      <trkpt lat="45.07107" lon="6.48584">
        <ele>2773</ele>
        <time>2024-08-16T08:39:46.141Z</time>
      </trkpt>
      <trkpt lat="45.07111" lon="6.48573">
        <ele>2770</ele>
        <time>2024-08-16T08:39:52.792Z</time>
      </trkpt>
      <trkpt lat="45.0712" lon="6.4857">
        <ele>2770</ele>
        <time>2024-08-16T08:40:00.835Z</time>
      </trkpt>
      <trkpt lat="45.07131" lon="6.48566">
        <ele>2772</ele>
        <time>2024-08-16T08:40:18.944Z</time>
      </trkpt>
      <trkpt lat="45.07139" lon="6.48558">
        <ele>2769</ele>
        <time>2024-08-16T08:40:26.399Z</time>
      </trkpt>
      <trkpt lat="45.07148" lon="6.48561">
        <ele>2769</ele>
        <time>2024-08-16T08:40:34.442Z</time>
      </trkpt>
      <trkpt lat="45.07158" lon="6.48564">
        <ele>2769</ele>
        <time>2024-08-16T08:40:43.335Z</time>
      </trkpt>
      <trkpt lat="45.07167" lon="6.48569">
        <ele>2769</ele>
        <time>2024-08-16T08:40:51.745Z</time>
      </trkpt>
      <trkpt lat="45.07177" lon="6.48573">
        <ele>2765</ele>
        <time>2024-08-16T08:40:59.655Z</time>
      </trkpt>
      <trkpt lat="45.07185" lon="6.4858">
        <ele>2765</ele>
        <time>2024-08-16T08:41:07.836Z</time>
      </trkpt>
      <trkpt lat="45.07187" lon="6.48567">
        <ele>2760</ele>
        <time>2024-08-16T08:41:14.988Z</time>
      </trkpt>
      <trkpt lat="45.07196" lon="6.4857">
        <ele>2758</ele>
        <time>2024-08-16T08:41:22.026Z</time>
      </trkpt>
      <trkpt lat="45.07205" lon="6.48567">
        <ele>2757</ele>
        <time>2024-08-16T08:41:29.064Z</time>
      </trkpt>
      <trkpt lat="45.07206" lon="6.48553">
        <ele>2755</ele>
        <time>2024-08-16T08:41:36.628Z</time>
      </trkpt>
      <trkpt lat="45.07215" lon="6.48553">
        <ele>2753</ele>
        <time>2024-08-16T08:41:43.479Z</time>
      </trkpt>
      <trkpt lat="45.07221" lon="6.48563">
        <ele>2751</ele>
        <time>2024-08-16T08:41:50.533Z</time>
      </trkpt>
      <trkpt lat="45.07223" lon="6.48576">
        <ele>2748</ele>
        <time>2024-08-16T08:41:57.685Z</time>
      </trkpt>
      <trkpt lat="45.0723" lon="6.48585">
        <ele>2743</ele>
        <time>2024-08-16T08:42:04.882Z</time>
      </trkpt>
      <trkpt lat="45.07235" lon="6.48596">
        <ele>2726</ele>
        <time>2024-08-16T08:42:11.914Z</time>
      </trkpt>
      <trkpt lat="45.07241" lon="6.48611">
        <ele>2722</ele>
        <time>2024-08-16T08:42:21.181Z</time>
      </trkpt>
      <trkpt lat="45.07236" lon="6.48596">
        <ele>2727</ele>
        <time>2024-08-16T08:43:11.851Z</time>
      </trkpt>
      <trkpt lat="45.07235" lon="6.48583">
        <ele>2733</ele>
        <time>2024-08-16T08:43:54.028Z</time>
      </trkpt>
      <trkpt lat="45.0724" lon="6.48571">
        <ele>2729</ele>
        <time>2024-08-16T08:44:01.518Z</time>
      </trkpt>
      <trkpt lat="45.0724" lon="6.48557">
        <ele>2731</ele>
        <time>2024-08-16T08:44:18.965Z</time>
      </trkpt>
      <trkpt lat="45.07249" lon="6.48557">
        <ele>2725</ele>
        <time>2024-08-16T08:44:25.815Z</time>
      </trkpt>
      <trkpt lat="45.07258" lon="6.48551">
        <ele>2724</ele>
        <time>2024-08-16T08:44:33.387Z</time>
      </trkpt>
      <trkpt lat="45.07267" lon="6.48558">
        <ele>2721</ele>
        <time>2024-08-16T08:44:41.204Z</time>
      </trkpt>
      <trkpt lat="45.07274" lon="6.48549">
        <ele>2712</ele>
        <time>2024-08-16T08:44:48.401Z</time>
      </trkpt>
      <trkpt lat="45.07282" lon="6.48543">
        <ele>2712</ele>
        <time>2024-08-16T08:44:56.276Z</time>
      </trkpt>
      <trkpt lat="45.07291" lon="6.48542">
        <ele>2710</ele>
        <time>2024-08-16T08:45:03.148Z</time>
      </trkpt>
      <trkpt lat="45.073" lon="6.48547">
        <ele>2707</ele>
        <time>2024-08-16T08:45:10.507Z</time>
      </trkpt>
      <trkpt lat="45.07306" lon="6.48538">
        <ele>2708</ele>
        <time>2024-08-16T08:45:21.610Z</time>
      </trkpt>
      <trkpt lat="45.07315" lon="6.48535">
        <ele>2709</ele>
        <time>2024-08-16T08:45:33.098Z</time>
      </trkpt>
      <trkpt lat="45.07317" lon="6.48522">
        <ele>2703</ele>
        <time>2024-08-16T08:45:40.250Z</time>
      </trkpt>
      <trkpt lat="45.07322" lon="6.4851">
        <ele>2703</ele>
        <time>2024-08-16T08:45:48.810Z</time>
      </trkpt>
      <trkpt lat="45.07342" lon="6.48513">
        <ele>2709</ele>
        <time>2024-08-16T08:46:41.309Z</time>
      </trkpt>
      <trkpt lat="45.07334" lon="6.48501">
        <ele>2691</ele>
        <time>2024-08-16T08:46:50.180Z</time>
      </trkpt>
      <trkpt lat="45.07333" lon="6.48486">
        <ele>2691</ele>
        <time>2024-08-16T08:46:59.436Z</time>
      </trkpt>
      <trkpt lat="45.07328" lon="6.48474">
        <ele>2691</ele>
        <time>2024-08-16T08:47:07.996Z</time>
      </trkpt>
      <trkpt lat="45.07322" lon="6.48464">
        <ele>2698</ele>
        <time>2024-08-16T08:47:50.318Z</time>
      </trkpt>
      <trkpt lat="45.07321" lon="6.48451">
        <ele>2700</ele>
        <time>2024-08-16T08:48:07.561Z</time>
      </trkpt>
      <trkpt lat="45.0732" lon="6.48438">
        <ele>2701</ele>
        <time>2024-08-16T08:48:19.040Z</time>
      </trkpt>
      <trkpt lat="45.0733" lon="6.48434">
        <ele>2701</ele>
        <time>2024-08-16T08:48:28.080Z</time>
      </trkpt>
      <trkpt lat="45.07319" lon="6.48436">
        <ele>2703</ele>
        <time>2024-08-16T08:48:46.052Z</time>
      </trkpt>
      <trkpt lat="45.07309" lon="6.48439">
        <ele>2703</ele>
        <time>2024-08-16T08:48:54.945Z</time>
      </trkpt>
      <trkpt lat="45.07318" lon="6.48442">
        <ele>2713</ele>
        <time>2024-08-16T08:49:37.172Z</time>
      </trkpt>
      <trkpt lat="45.07327" lon="6.48438">
        <ele>2705</ele>
        <time>2024-08-16T08:49:44.353Z</time>
      </trkpt>
      <trkpt lat="45.07323" lon="6.4845">
        <ele>2699</ele>
        <time>2024-08-16T08:49:51.486Z</time>
      </trkpt>
      <trkpt lat="45.07323" lon="6.48436">
        <ele>2695</ele>
        <time>2024-08-16T08:49:59.012Z</time>
      </trkpt>
      <trkpt lat="45.0733" lon="6.48427">
        <ele>2698</ele>
        <time>2024-08-16T08:50:25.726Z</time>
      </trkpt>
      <trkpt lat="45.07337" lon="6.48419">
        <ele>2697</ele>
        <time>2024-08-16T08:50:32.574Z</time>
      </trkpt>
      <trkpt lat="45.07346" lon="6.48413">
        <ele>2699</ele>
        <time>2024-08-16T08:50:50.042Z</time>
      </trkpt>
      <trkpt lat="45.07353" lon="6.48404">
        <ele>2699</ele>
        <time>2024-08-16T08:50:58.268Z</time>
      </trkpt>
      <trkpt lat="45.07357" lon="6.48392">
        <ele>2697</ele>
        <time>2024-08-16T08:51:05.401Z</time>
      </trkpt>
      <trkpt lat="45.07364" lon="6.48384">
        <ele>2696</ele>
        <time>2024-08-16T08:51:12.248Z</time>
      </trkpt>
      <trkpt lat="45.0737" lon="6.48373">
        <ele>2694</ele>
        <time>2024-08-16T08:51:19.719Z</time>
      </trkpt>
      <trkpt lat="45.07378" lon="6.48366">
        <ele>2693</ele>
        <time>2024-08-16T08:51:26.878Z</time>
      </trkpt>
      <trkpt lat="45.07387" lon="6.48359">
        <ele>2692</ele>
        <time>2024-08-16T08:51:34.694Z</time>
      </trkpt>
      <trkpt lat="45.07397" lon="6.48357">
        <ele>2693</ele>
        <time>2024-08-16T08:51:46.847Z</time>
      </trkpt>
      <trkpt lat="45.07404" lon="6.48348">
        <ele>2692</ele>
        <time>2024-08-16T08:51:54.044Z</time>
      </trkpt>
      <trkpt lat="45.07393" lon="6.48343">
        <ele>2690</ele>
        <time>2024-08-16T08:52:02.838Z</time>
      </trkpt>
      <trkpt lat="45.07403" lon="6.48344">
        <ele>2691</ele>
        <time>2024-08-16T08:52:14.932Z</time>
      </trkpt>
      <trkpt lat="45.07412" lon="6.48347">
        <ele>2692</ele>
        <time>2024-08-16T08:52:26.420Z</time>
      </trkpt>
      <trkpt lat="45.07421" lon="6.48342">
        <ele>2694</ele>
        <time>2024-08-16T08:52:43.791Z</time>
      </trkpt>
      <trkpt lat="45.0743" lon="6.48338">
        <ele>2692</ele>
        <time>2024-08-16T08:52:50.971Z</time>
      </trkpt>
      <trkpt lat="45.07439" lon="6.48333">
        <ele>2696</ele>
        <time>2024-08-16T08:53:30.961Z</time>
      </trkpt>
      <trkpt lat="45.07448" lon="6.48334">
        <ele>2699</ele>
        <time>2024-08-16T08:53:58.113Z</time>
      </trkpt>
      <trkpt lat="45.07458" lon="6.48332">
        <ele>2696</ele>
        <time>2024-08-16T08:54:05.801Z</time>
      </trkpt>
      <trkpt lat="45.07469" lon="6.48332">
        <ele>2695</ele>
        <time>2024-08-16T08:54:14.174Z</time>
      </trkpt>
      <trkpt lat="45.07459" lon="6.48331">
        <ele>2697</ele>
        <time>2024-08-16T08:54:31.672Z</time>
      </trkpt>
      <trkpt lat="45.07467" lon="6.48322">
        <ele>2696</ele>
        <time>2024-08-16T08:54:39.449Z</time>
      </trkpt>
      <trkpt lat="45.07476" lon="6.48317">
        <ele>2694</ele>
        <time>2024-08-16T08:54:46.808Z</time>
      </trkpt>
      <trkpt lat="45.07483" lon="6.48309">
        <ele>2691</ele>
        <time>2024-08-16T08:54:53.655Z</time>
      </trkpt>
      <trkpt lat="45.07488" lon="6.48298">
        <ele>2687</ele>
        <time>2024-08-16T08:55:00.687Z</time>
      </trkpt>
      <trkpt lat="45.07486" lon="6.48284">
        <ele>2686</ele>
        <time>2024-08-16T08:55:08.365Z</time>
      </trkpt>
      <trkpt lat="45.07489" lon="6.48268">
        <ele>2690</ele>
        <time>2024-08-16T08:55:44.987Z</time>
      </trkpt>
      <trkpt lat="45.07486" lon="6.48281">
        <ele>2702</ele>
        <time>2024-08-16T08:56:29.097Z</time>
      </trkpt>
      <trkpt lat="45.0748" lon="6.48291">
        <ele>2705</ele>
        <time>2024-08-16T08:56:55.993Z</time>
      </trkpt>
      <trkpt lat="45.07483" lon="6.48276">
        <ele>2707</ele>
        <time>2024-08-16T08:57:13.925Z</time>
      </trkpt>
      <trkpt lat="45.0749" lon="6.48267">
        <ele>2702</ele>
        <time>2024-08-16T08:57:21.122Z</time>
      </trkpt>
      <trkpt lat="45.07499" lon="6.48262">
        <ele>2700</ele>
        <time>2024-08-16T08:57:28.481Z</time>
      </trkpt>
      <trkpt lat="45.07491" lon="6.48255">
        <ele>2700</ele>
        <time>2024-08-16T08:57:36.662Z</time>
      </trkpt>
      <trkpt lat="45.07495" lon="6.48243">
        <ele>2696</ele>
        <time>2024-08-16T08:57:43.795Z</time>
      </trkpt>
      <trkpt lat="45.07498" lon="6.48231">
        <ele>2697</ele>
        <time>2024-08-16T08:57:55.087Z</time>
      </trkpt>
      <trkpt lat="45.07498" lon="6.48218">
        <ele>2700</ele>
        <time>2024-08-16T08:58:22.072Z</time>
      </trkpt>
      <trkpt lat="45.075" lon="6.48205">
        <ele>2701</ele>
        <time>2024-08-16T08:58:33.676Z</time>
      </trkpt>
      <trkpt lat="45.075" lon="6.48191">
        <ele>2702</ele>
        <time>2024-08-16T08:58:45.661Z</time>
      </trkpt>
      <trkpt lat="45.07507" lon="6.48183">
        <ele>2701</ele>
        <time>2024-08-16T08:58:52.508Z</time>
      </trkpt>
      <trkpt lat="45.07518" lon="6.48178">
        <ele>2700</ele>
        <time>2024-08-16T08:59:01.302Z</time>
      </trkpt>
      <trkpt lat="45.07524" lon="6.48168">
        <ele>2697</ele>
        <time>2024-08-16T08:59:08.356Z</time>
      </trkpt>
      <trkpt lat="45.07529" lon="6.48158">
        <ele>2696</ele>
        <time>2024-08-16T08:59:14.942Z</time>
      </trkpt>
      <trkpt lat="45.07538" lon="6.48152">
        <ele>2695</ele>
        <time>2024-08-16T08:59:22.514Z</time>
      </trkpt>
      <trkpt lat="45.07546" lon="6.48149">
        <ele>2697</ele>
        <time>2024-08-16T08:59:39.607Z</time>
      </trkpt>
      <trkpt lat="45.07556" lon="6.48147">
        <ele>2696</ele>
        <time>2024-08-16T08:59:47.295Z</time>
      </trkpt>
      <trkpt lat="45.07565" lon="6.48148">
        <ele>2694</ele>
        <time>2024-08-16T08:59:54.166Z</time>
      </trkpt>
      <trkpt lat="45.0757" lon="6.48137">
        <ele>2693</ele>
        <time>2024-08-16T09:00:01.198Z</time>
      </trkpt>
      <trkpt lat="45.07574" lon="6.48123">
        <ele>2693</ele>
        <time>2024-08-16T09:00:10.476Z</time>
      </trkpt>
      <trkpt lat="45.0758" lon="6.48112">
        <ele>2692</ele>
        <time>2024-08-16T09:00:17.947Z</time>
      </trkpt>
      <trkpt lat="45.07584" lon="6.481">
        <ele>2689</ele>
        <time>2024-08-16T09:00:25.080Z</time>
      </trkpt>
      <trkpt lat="45.07582" lon="6.48086">
        <ele>2688</ele>
        <time>2024-08-16T09:00:32.758Z</time>
      </trkpt>
      <trkpt lat="45.07581" lon="6.48073">
        <ele>2685</ele>
        <time>2024-08-16T09:00:39.787Z</time>
      </trkpt>
      <trkpt lat="45.0758" lon="6.48059">
        <ele>2678</ele>
        <time>2024-08-16T09:00:47.351Z</time>
      </trkpt>
      <trkpt lat="45.07583" lon="6.48047">
        <ele>2678</ele>
        <time>2024-08-16T09:00:55.171Z</time>
      </trkpt>
      <trkpt lat="45.07587" lon="6.48035">
        <ele>2678</ele>
        <time>2024-08-16T09:01:03.323Z</time>
      </trkpt>
      <trkpt lat="45.07596" lon="6.48031">
        <ele>2677</ele>
        <time>2024-08-16T09:01:10.503Z</time>
      </trkpt>
      <trkpt lat="45.07593" lon="6.48018">
        <ele>2676</ele>
        <time>2024-08-16T09:01:17.855Z</time>
      </trkpt>
      <trkpt lat="45.07602" lon="6.48022">
        <ele>2680</ele>
        <time>2024-08-16T09:01:58.279Z</time>
      </trkpt>
      <trkpt lat="45.07612" lon="6.4802">
        <ele>2680</ele>
        <time>2024-08-16T09:02:07.065Z</time>
      </trkpt>
      <trkpt lat="45.07621" lon="6.48012">
        <ele>2679</ele>
        <time>2024-08-16T09:02:15.153Z</time>
      </trkpt>
      <trkpt lat="45.0763" lon="6.48005">
        <ele>2678</ele>
        <time>2024-08-16T09:02:22.969Z</time>
      </trkpt>
      <trkpt lat="45.07638" lon="6.47998">
        <ele>2675</ele>
        <time>2024-08-16T09:02:30.128Z</time>
      </trkpt>
      <trkpt lat="45.07645" lon="6.47989">
        <ele>2672</ele>
        <time>2024-08-16T09:02:37.324Z</time>
      </trkpt>
      <trkpt lat="45.0765" lon="6.47979">
        <ele>2670</ele>
        <time>2024-08-16T09:02:43.911Z</time>
      </trkpt>
      <trkpt lat="45.07657" lon="6.4797">
        <ele>2668</ele>
        <time>2024-08-16T09:02:51.107Z</time>
      </trkpt>
      <trkpt lat="45.07662" lon="6.47957">
        <ele>2667</ele>
        <time>2024-08-16T09:02:59.064Z</time>
      </trkpt>
      <trkpt lat="45.0767" lon="6.4795">
        <ele>2660</ele>
        <time>2024-08-16T09:03:06.223Z</time>
      </trkpt>
      <trkpt lat="45.07678" lon="6.47956">
        <ele>2652</ele>
        <time>2024-08-16T09:03:13.113Z</time>
      </trkpt>
      <trkpt lat="45.07686" lon="6.47949">
        <ele>2654</ele>
        <time>2024-08-16T09:03:30.402Z</time>
      </trkpt>
      <trkpt lat="45.07694" lon="6.47945">
        <ele>2654</ele>
        <time>2024-08-16T09:03:37.782Z</time>
      </trkpt>
      <trkpt lat="45.07703" lon="6.47939">
        <ele>2653</ele>
        <time>2024-08-16T09:03:45.354Z</time>
      </trkpt>
      <trkpt lat="45.07711" lon="6.47934">
        <ele>2652</ele>
        <time>2024-08-16T09:03:52.011Z</time>
      </trkpt>
      <trkpt lat="45.07719" lon="6.47928">
        <ele>2652</ele>
        <time>2024-08-16T09:03:59.886Z</time>
      </trkpt>
      <trkpt lat="45.07728" lon="6.47923">
        <ele>2652</ele>
        <time>2024-08-16T09:04:08.296Z</time>
      </trkpt>
      <trkpt lat="45.07738" lon="6.47919">
        <ele>2649</ele>
        <time>2024-08-16T09:04:16.206Z</time>
      </trkpt>
      <trkpt lat="45.07747" lon="6.47919">
        <ele>2649</ele>
        <time>2024-08-16T09:04:24.035Z</time>
      </trkpt>
      <trkpt lat="45.07757" lon="6.47918">
        <ele>2647</ele>
        <time>2024-08-16T09:04:31.666Z</time>
      </trkpt>
      <trkpt lat="45.07765" lon="6.47912">
        <ele>2645</ele>
        <time>2024-08-16T09:04:38.557Z</time>
      </trkpt>
      <trkpt lat="45.07769" lon="6.47899">
        <ele>2644</ele>
        <time>2024-08-16T09:04:46.179Z</time>
      </trkpt>
      <trkpt lat="45.07778" lon="6.47896">
        <ele>2642</ele>
        <time>2024-08-16T09:04:53.217Z</time>
      </trkpt>
      <trkpt lat="45.07786" lon="6.47888">
        <ele>2642</ele>
        <time>2024-08-16T09:05:01.736Z</time>
      </trkpt>
      <trkpt lat="45.07793" lon="6.4788">
        <ele>2641</ele>
        <time>2024-08-16T09:05:08.583Z</time>
      </trkpt>
      <trkpt lat="45.07801" lon="6.47871">
        <ele>2639</ele>
        <time>2024-08-16T09:05:16.361Z</time>
      </trkpt>
      <trkpt lat="45.07809" lon="6.47863">
        <ele>2638</ele>
        <time>2024-08-16T09:05:23.815Z</time>
      </trkpt>
      <trkpt lat="45.07818" lon="6.47858">
        <ele>2635</ele>
        <time>2024-08-16T09:05:31.174Z</time>
      </trkpt>
      <trkpt lat="45.07826" lon="6.47851">
        <ele>2633</ele>
        <time>2024-08-16T09:05:38.332Z</time>
      </trkpt>
      <trkpt lat="45.07835" lon="6.47853">
        <ele>2633</ele>
        <time>2024-08-16T09:05:46.258Z</time>
      </trkpt>
      <trkpt lat="45.07844" lon="6.47857">
        <ele>2633</ele>
        <time>2024-08-16T09:05:54.464Z</time>
      </trkpt>
      <trkpt lat="45.07853" lon="6.47855">
        <ele>2632</ele>
        <time>2024-08-16T09:06:01.398Z</time>
      </trkpt>
      <trkpt lat="45.07862" lon="6.47847">
        <ele>2632</ele>
        <time>2024-08-16T09:06:10.642Z</time>
      </trkpt>
      <trkpt lat="45.07871" lon="6.47843">
        <ele>2628</ele>
        <time>2024-08-16T09:06:17.822Z</time>
      </trkpt>
      <trkpt lat="45.07878" lon="6.47833">
        <ele>2626</ele>
        <time>2024-08-16T09:06:25.391Z</time>
      </trkpt>
      <trkpt lat="45.07886" lon="6.47827">
        <ele>2624</ele>
        <time>2024-08-16T09:06:32.281Z</time>
      </trkpt>
      <trkpt lat="45.07893" lon="6.47819">
        <ele>2623</ele>
        <time>2024-08-16T09:06:39.128Z</time>
      </trkpt>
      <trkpt lat="45.07902" lon="6.47813">
        <ele>2620</ele>
        <time>2024-08-16T09:06:46.700Z</time>
      </trkpt>
      <trkpt lat="45.0791" lon="6.47808">
        <ele>2620</ele>
        <time>2024-08-16T09:06:54.307Z</time>
      </trkpt>
      <trkpt lat="45.07918" lon="6.47799">
        <ele>2617</ele>
        <time>2024-08-16T09:07:02.084Z</time>
      </trkpt>
      <trkpt lat="45.07926" lon="6.47793">
        <ele>2614</ele>
        <time>2024-08-16T09:07:08.975Z</time>
      </trkpt>
      <trkpt lat="45.07935" lon="6.47788">
        <ele>2613</ele>
        <time>2024-08-16T09:07:16.334Z</time>
      </trkpt>
      <trkpt lat="45.07944" lon="6.47782">
        <ele>2613</ele>
        <time>2024-08-16T09:07:24.987Z</time>
      </trkpt>
      <trkpt lat="45.07954" lon="6.47779">
        <ele>2610</ele>
        <time>2024-08-16T09:07:32.768Z</time>
      </trkpt>
      <trkpt lat="45.07955" lon="6.47766">
        <ele>2609</ele>
        <time>2024-08-16T09:07:39.797Z</time>
      </trkpt>
      <trkpt lat="45.07967" lon="6.47779">
        <ele>2608</ele>
        <time>2024-08-16T09:07:51.297Z</time>
      </trkpt>
      <trkpt lat="45.07975" lon="6.47772">
        <ele>2601</ele>
        <time>2024-08-16T09:07:58.455Z</time>
      </trkpt>
      <trkpt lat="45.07984" lon="6.47774">
        <ele>2598</ele>
        <time>2024-08-16T09:08:05.390Z</time>
      </trkpt>
      <trkpt lat="45.07993" lon="6.47779">
        <ele>2597</ele>
        <time>2024-08-16T09:08:12.749Z</time>
      </trkpt>
      <trkpt lat="45.08001" lon="6.47787">
        <ele>2598</ele>
        <time>2024-08-16T09:08:24.662Z</time>
      </trkpt>
      <trkpt lat="45.08004" lon="6.47775">
        <ele>2599</ele>
        <time>2024-08-16T09:08:35.953Z</time>
      </trkpt>
      <trkpt lat="45.08013" lon="6.47769">
        <ele>2600</ele>
        <time>2024-08-16T09:08:47.987Z</time>
      </trkpt>
      <trkpt lat="45.08022" lon="6.47763">
        <ele>2600</ele>
        <time>2024-08-16T09:08:56.640Z</time>
      </trkpt>
      <trkpt lat="45.08032" lon="6.47761">
        <ele>2600</ele>
        <time>2024-08-16T09:09:05.426Z</time>
      </trkpt>
      <trkpt lat="45.08041" lon="6.47762">
        <ele>2600</ele>
        <time>2024-08-16T09:09:13.279Z</time>
      </trkpt>
      <trkpt lat="45.0805" lon="6.47756">
        <ele>2600</ele>
        <time>2024-08-16T09:09:21.933Z</time>
      </trkpt>
      <trkpt lat="45.08059" lon="6.47753">
        <ele>2597</ele>
        <time>2024-08-16T09:09:28.971Z</time>
      </trkpt>
      <trkpt lat="45.08069" lon="6.47754">
        <ele>2592</ele>
        <time>2024-08-16T09:09:36.601Z</time>
      </trkpt>
      <trkpt lat="45.08075" lon="6.47765">
        <ele>2590</ele>
        <time>2024-08-16T09:09:44.072Z</time>
      </trkpt>
      <trkpt lat="45.08078" lon="6.47778">
        <ele>2589</ele>
        <time>2024-08-16T09:09:51.423Z</time>
      </trkpt>
      <trkpt lat="45.08082" lon="6.47791">
        <ele>2589</ele>
        <time>2024-08-16T09:10:00.134Z</time>
      </trkpt>
      <trkpt lat="45.0809" lon="6.47799">
        <ele>2591</ele>
        <time>2024-08-16T09:10:17.547Z</time>
      </trkpt>
      <trkpt lat="45.081" lon="6.47798">
        <ele>2592</ele>
        <time>2024-08-16T09:10:29.642Z</time>
      </trkpt>
      <trkpt lat="45.08105" lon="6.47811">
        <ele>2594</ele>
        <time>2024-08-16T09:10:47.315Z</time>
      </trkpt>
      <trkpt lat="45.08111" lon="6.47822">
        <ele>2595</ele>
        <time>2024-08-16T09:10:59.245Z</time>
      </trkpt>
      <trkpt lat="45.08121" lon="6.47823">
        <ele>2595</ele>
        <time>2024-08-16T09:11:07.966Z</time>
      </trkpt>
      <trkpt lat="45.0813" lon="6.47825">
        <ele>2594</ele>
        <time>2024-08-16T09:11:14.900Z</time>
      </trkpt>
      <trkpt lat="45.08139" lon="6.47826">
        <ele>2590</ele>
        <time>2024-08-16T09:11:21.772Z</time>
      </trkpt>
      <trkpt lat="45.08149" lon="6.47824">
        <ele>2589</ele>
        <time>2024-08-16T09:11:29.459Z</time>
      </trkpt>
      <trkpt lat="45.08158" lon="6.47829">
        <ele>2589</ele>
        <time>2024-08-16T09:11:37.869Z</time>
      </trkpt>
      <trkpt lat="45.08167" lon="6.47834">
        <ele>2588</ele>
        <time>2024-08-16T09:11:45.228Z</time>
      </trkpt>
      <trkpt lat="45.08177" lon="6.47835">
        <ele>2590</ele>
        <time>2024-08-16T09:12:02.727Z</time>
      </trkpt>
      <trkpt lat="45.08184" lon="6.47842">
        <ele>2593</ele>
        <time>2024-08-16T09:12:30.459Z</time>
      </trkpt>
      <trkpt lat="45.08193" lon="6.47845">
        <ele>2593</ele>
        <time>2024-08-16T09:12:38.502Z</time>
      </trkpt>
      <trkpt lat="45.08202" lon="6.47848">
        <ele>2601</ele>
        <time>2024-08-16T09:13:20.730Z</time>
      </trkpt>
      <trkpt lat="45.08211" lon="6.47846">
        <ele>2601</ele>
        <time>2024-08-16T09:13:28.655Z</time>
      </trkpt>
      <trkpt lat="45.0822" lon="6.47849">
        <ele>2604</ele>
        <time>2024-08-16T09:13:55.572Z</time>
      </trkpt>
      <trkpt lat="45.08221" lon="6.47862">
        <ele>2607</ele>
        <time>2024-08-16T09:14:22.501Z</time>
      </trkpt>
      <trkpt lat="45.08227" lon="6.47873">
        <ele>2609</ele>
        <time>2024-08-16T09:14:39.922Z</time>
      </trkpt>
      <trkpt lat="45.08229" lon="6.47886">
        <ele>2615</ele>
        <time>2024-08-16T09:15:22.828Z</time>
      </trkpt>
      <trkpt lat="45.0823" lon="6.47898">
        <ele>2621</ele>
        <time>2024-08-16T09:16:01.794Z</time>
      </trkpt>
      <trkpt lat="45.08233" lon="6.47886">
        <ele>2623</ele>
        <time>2024-08-16T09:16:18.979Z</time>
      </trkpt>
      <trkpt lat="45.08233" lon="6.47899">
        <ele>2622</ele>
        <time>2024-08-16T09:16:25.966Z</time>
      </trkpt>
      <trkpt lat="45.08231" lon="6.47891">
        <ele>2624</ele>
        <time>2024-08-16T09:16:44.097Z</time>
      </trkpt>
      <trkpt lat="45.08179" lon="6.47833">
        <ele>2601</ele>
        <time>2024-08-16T09:17:34.481Z</time>
      </trkpt>
      <trkpt lat="45.08174" lon="6.47831">
        <ele>2601</ele>
        <time>2024-08-16T09:17:39.000Z</time>
      </trkpt>
      <trkpt lat="45.08165" lon="6.47832">
        <ele>2596</ele>
        <time>2024-08-16T09:17:45.872Z</time>
      </trkpt>
      <trkpt lat="45.08157" lon="6.47828">
        <ele>2595</ele>
        <time>2024-08-16T09:17:52.330Z</time>
      </trkpt>
      <trkpt lat="45.08151" lon="6.47818">
        <ele>2596</ele>
        <time>2024-08-16T09:18:03.834Z</time>
      </trkpt>
      <trkpt lat="45.08144" lon="6.47807">
        <ele>2596</ele>
        <time>2024-08-16T09:18:12.930Z</time>
      </trkpt>
      <trkpt lat="45.08139" lon="6.47796">
        <ele>2592</ele>
        <time>2024-08-16T09:18:19.961Z</time>
      </trkpt>
      <trkpt lat="45.0814" lon="6.47783">
        <ele>2585</ele>
        <time>2024-08-16T09:18:26.989Z</time>
      </trkpt>
      <trkpt lat="45.08135" lon="6.47772">
        <ele>2576</ele>
        <time>2024-08-16T09:18:34.021Z</time>
      </trkpt>
      <trkpt lat="45.0813" lon="6.47761">
        <ele>2576</ele>
        <time>2024-08-16T09:18:42.057Z</time>
      </trkpt>
      <trkpt lat="45.0813" lon="6.47747">
        <ele>2570</ele>
        <time>2024-08-16T09:18:49.581Z</time>
      </trkpt>
      <trkpt lat="45.08129" lon="6.47733">
        <ele>2569</ele>
        <time>2024-08-16T09:18:57.144Z</time>
      </trkpt>
      <trkpt lat="45.08129" lon="6.4772">
        <ele>2569</ele>
        <time>2024-08-16T09:19:05.130Z</time>
      </trkpt>
      <trkpt lat="45.08124" lon="6.4771">
        <ele>2566</ele>
        <time>2024-08-16T09:19:11.716Z</time>
      </trkpt>
      <trkpt lat="45.08135" lon="6.47708">
        <ele>2565</ele>
        <time>2024-08-16T09:19:20.157Z</time>
      </trkpt>
      <trkpt lat="45.08142" lon="6.47698">
        <ele>2570</ele>
        <time>2024-08-16T09:20:05.567Z</time>
      </trkpt>
      <trkpt lat="45.08151" lon="6.477">
        <ele>2569</ele>
        <time>2024-08-16T09:20:12.502Z</time>
      </trkpt>
      <trkpt lat="45.08152" lon="6.47687">
        <ele>2565</ele>
        <time>2024-08-16T09:20:19.530Z</time>
      </trkpt>
      <trkpt lat="45.0816" lon="6.4768">
        <ele>2553</ele>
        <time>2024-08-16T09:20:26.688Z</time>
      </trkpt>
      <trkpt lat="45.08164" lon="6.47669">
        <ele>2552</ele>
        <time>2024-08-16T09:20:33.338Z</time>
      </trkpt>
      <trkpt lat="45.08168" lon="6.47656">
        <ele>2551</ele>
        <time>2024-08-16T09:20:40.960Z</time>
      </trkpt>
      <trkpt lat="45.08173" lon="6.47644">
        <ele>2551</ele>
        <time>2024-08-16T09:20:49.519Z</time>
      </trkpt>
      <trkpt lat="45.08177" lon="6.47633">
        <ele>2549</ele>
        <time>2024-08-16T09:20:56.169Z</time>
      </trkpt>
      <trkpt lat="45.08182" lon="6.47622">
        <ele>2548</ele>
        <time>2024-08-16T09:21:03.200Z</time>
      </trkpt>
      <trkpt lat="45.08186" lon="6.4761">
        <ele>2549</ele>
        <time>2024-08-16T09:21:14.784Z</time>
      </trkpt>
      <trkpt lat="45.08195" lon="6.4761">
        <ele>2549</ele>
        <time>2024-08-16T09:21:22.613Z</time>
      </trkpt>
      <trkpt lat="45.08205" lon="6.47607">
        <ele>2548</ele>
        <time>2024-08-16T09:21:30.394Z</time>
      </trkpt>
      <trkpt lat="45.08215" lon="6.47606">
        <ele>2548</ele>
        <time>2024-08-16T09:21:39.115Z</time>
      </trkpt>
      <trkpt lat="45.08225" lon="6.47605">
        <ele>2548</ele>
        <time>2024-08-16T09:21:47.836Z</time>
      </trkpt>
      <trkpt lat="45.08234" lon="6.47605">
        <ele>2547</ele>
        <time>2024-08-16T09:21:54.687Z</time>
      </trkpt>
      <trkpt lat="45.08244" lon="6.47606">
        <ele>2547</ele>
        <time>2024-08-16T09:22:03.408Z</time>
      </trkpt>
      <trkpt lat="45.08253" lon="6.47599">
        <ele>2535</ele>
        <time>2024-08-16T09:22:11.223Z</time>
      </trkpt>
      <trkpt lat="45.08259" lon="6.47588">
        <ele>2535</ele>
        <time>2024-08-16T09:22:19.761Z</time>
      </trkpt>
      <trkpt lat="45.08267" lon="6.47578">
        <ele>2535</ele>
        <time>2024-08-16T09:22:29.044Z</time>
      </trkpt>
      <trkpt lat="45.08274" lon="6.47569">
        <ele>2536</ele>
        <time>2024-08-16T09:22:40.693Z</time>
      </trkpt>
      <trkpt lat="45.08281" lon="6.4756">
        <ele>2536</ele>
        <time>2024-08-16T09:22:48.917Z</time>
      </trkpt>
      <trkpt lat="45.08288" lon="6.4755">
        <ele>2536</ele>
        <time>2024-08-16T09:22:57.567Z</time>
      </trkpt>
      <trkpt lat="45.08297" lon="6.4754">
        <ele>2536</ele>
        <time>2024-08-16T09:23:07.518Z</time>
      </trkpt>
      <trkpt lat="45.08305" lon="6.4753">
        <ele>2536</ele>
        <time>2024-08-16T09:23:16.800Z</time>
      </trkpt>
      <trkpt lat="45.08311" lon="6.47518">
        <ele>2535</ele>
        <time>2024-08-16T09:23:24.703Z</time>
      </trkpt>
      <trkpt lat="45.08317" lon="6.47507">
        <ele>2534</ele>
        <time>2024-08-16T09:23:32.174Z</time>
      </trkpt>
      <trkpt lat="45.08324" lon="6.47496">
        <ele>2534</ele>
        <time>2024-08-16T09:23:41.270Z</time>
      </trkpt>
      <trkpt lat="45.08332" lon="6.47491">
        <ele>2532</ele>
        <time>2024-08-16T09:23:47.926Z</time>
      </trkpt>
      <trkpt lat="45.08341" lon="6.47485">
        <ele>2532</ele>
        <time>2024-08-16T09:23:56.579Z</time>
      </trkpt>
      <trkpt lat="45.08347" lon="6.47476">
        <ele>2529</ele>
        <time>2024-08-16T09:24:03.232Z</time>
      </trkpt>
      <trkpt lat="45.08355" lon="6.47469">
        <ele>2529</ele>
        <time>2024-08-16T09:24:11.412Z</time>
      </trkpt>
      <trkpt lat="45.08364" lon="6.47464">
        <ele>2529</ele>
        <time>2024-08-16T09:24:19.822Z</time>
      </trkpt>
      <trkpt lat="45.08373" lon="6.47456">
        <ele>2531</ele>
        <time>2024-08-16T09:24:37.573Z</time>
      </trkpt>
      <trkpt lat="45.08379" lon="6.47446">
        <ele>2530</ele>
        <time>2024-08-16T09:24:44.626Z</time>
      </trkpt>
      <trkpt lat="45.08383" lon="6.47435">
        <ele>2528</ele>
        <time>2024-08-16T09:24:51.276Z</time>
      </trkpt>
      <trkpt lat="45.08386" lon="6.47423">
        <ele>2526</ele>
        <time>2024-08-16T09:24:58.118Z</time>
      </trkpt>
      <trkpt lat="45.08388" lon="6.4741">
        <ele>2525</ele>
        <time>2024-08-16T09:25:05.268Z</time>
      </trkpt>
      <trkpt lat="45.08394" lon="6.47398">
        <ele>2525</ele>
        <time>2024-08-16T09:25:14.300Z</time>
      </trkpt>
      <trkpt lat="45.084" lon="6.47385">
        <ele>2524</ele>
        <time>2024-08-16T09:25:22.647Z</time>
      </trkpt>
      <trkpt lat="45.08408" lon="6.47378">
        <ele>2525</ele>
        <time>2024-08-16T09:25:34.257Z</time>
      </trkpt>
      <trkpt lat="45.08415" lon="6.47368">
        <ele>2525</ele>
        <time>2024-08-16T09:25:42.906Z</time>
      </trkpt>
      <trkpt lat="45.08422" lon="6.4736">
        <ele>2526</ele>
        <time>2024-08-16T09:25:54.202Z</time>
      </trkpt>
      <trkpt lat="45.08424" lon="6.47347">
        <ele>2526</ele>
        <time>2024-08-16T09:26:02.374Z</time>
      </trkpt>
      <trkpt lat="45.0842" lon="6.47334">
        <ele>2525</ele>
        <time>2024-08-16T09:26:09.996Z</time>
      </trkpt>
      <trkpt lat="45.08418" lon="6.47321">
        <ele>2524</ele>
        <time>2024-08-16T09:26:17.147Z</time>
      </trkpt>
      <trkpt lat="45.08426" lon="6.47313">
        <ele>2522</ele>
        <time>2024-08-16T09:26:24.601Z</time>
      </trkpt>
      <trkpt lat="45.08431" lon="6.47302">
        <ele>2522</ele>
        <time>2024-08-16T09:26:32.637Z</time>
      </trkpt>
      <trkpt lat="45.08437" lon="6.47292">
        <ele>2522</ele>
        <time>2024-08-16T09:26:40.697Z</time>
      </trkpt>
      <trkpt lat="45.08445" lon="6.47283">
        <ele>2522</ele>
        <time>2024-08-16T09:26:49.585Z</time>
      </trkpt>
      <trkpt lat="45.08454" lon="6.47276">
        <ele>2520</ele>
        <time>2024-08-16T09:26:57.401Z</time>
      </trkpt>
      <trkpt lat="45.08465" lon="6.47276">
        <ele>2520</ele>
        <time>2024-08-16T09:27:06.970Z</time>
      </trkpt>
      <trkpt lat="45.08455" lon="6.47269">
        <ele>2520</ele>
        <time>2024-08-16T09:27:16.674Z</time>
      </trkpt>
      <trkpt lat="45.08452" lon="6.47234">
        <ele>2518</ele>
        <time>2024-08-16T09:27:35.622Z</time>
      </trkpt>
      <trkpt lat="45.0846" lon="6.47224">
        <ele>2528</ele>
        <time>2024-08-16T09:28:24.354Z</time>
      </trkpt>
      <trkpt lat="45.08463" lon="6.47211">
        <ele>2524</ele>
        <time>2024-08-16T09:28:31.705Z</time>
      </trkpt>
      <trkpt lat="45.08472" lon="6.47205">
        <ele>2525</ele>
        <time>2024-08-16T09:28:43.738Z</time>
      </trkpt>
      <trkpt lat="45.08477" lon="6.47193">
        <ele>2525</ele>
        <time>2024-08-16T09:28:52.297Z</time>
      </trkpt>
      <trkpt lat="45.08482" lon="6.4718">
        <ele>2518</ele>
        <time>2024-08-16T09:29:00.253Z</time>
      </trkpt>
      <trkpt lat="45.08484" lon="6.47167">
        <ele>2518</ele>
        <time>2024-08-16T09:29:08.425Z</time>
      </trkpt>
      <trkpt lat="45.08493" lon="6.4716">
        <ele>2519</ele>
        <time>2024-08-16T09:29:20.711Z</time>
      </trkpt>
      <trkpt lat="45.08497" lon="6.47147">
        <ele>2519</ele>
        <time>2024-08-16T09:29:29.421Z</time>
      </trkpt>
      <trkpt lat="45.08496" lon="6.47135">
        <ele>2517</ele>
        <time>2024-08-16T09:29:35.915Z</time>
      </trkpt>
      <trkpt lat="45.08501" lon="6.47124">
        <ele>2515</ele>
        <time>2024-08-16T09:29:42.946Z</time>
      </trkpt>
      <trkpt lat="45.08508" lon="6.47114">
        <ele>2513</ele>
        <time>2024-08-16T09:29:50.515Z</time>
      </trkpt>
      <trkpt lat="45.08517" lon="6.47108">
        <ele>2512</ele>
        <time>2024-08-16T09:29:58.086Z</time>
      </trkpt>
      <trkpt lat="45.08524" lon="6.47102">
        <ele>2510</ele>
        <time>2024-08-16T09:30:04.314Z</time>
      </trkpt>
      <trkpt lat="45.08528" lon="6.47089">
        <ele>2504</ele>
        <time>2024-08-16T09:30:11.936Z</time>
      </trkpt>
      <trkpt lat="45.08532" lon="6.47077">
        <ele>2504</ele>
        <time>2024-08-16T09:30:20.086Z</time>
      </trkpt>
      <trkpt lat="45.08541" lon="6.47071">
        <ele>2503</ele>
        <time>2024-08-16T09:30:27.658Z</time>
      </trkpt>
      <trkpt lat="45.08549" lon="6.47076">
        <ele>2504</ele>
        <time>2024-08-16T09:30:38.764Z</time>
      </trkpt>
      <trkpt lat="45.0854" lon="6.47074">
        <ele>2504</ele>
        <time>2024-08-16T09:30:46.689Z</time>
      </trkpt>
      <trkpt lat="45.08532" lon="6.47068">
        <ele>2501</ele>
        <time>2024-08-16T09:30:53.580Z</time>
      </trkpt>
      <trkpt lat="45.08525" lon="6.47058">
        <ele>2499</ele>
        <time>2024-08-16T09:31:01.148Z</time>
      </trkpt>
      <trkpt lat="45.0853" lon="6.47048">
        <ele>2501</ele>
        <time>2024-08-16T09:31:18.274Z</time>
      </trkpt>
      <trkpt lat="45.08536" lon="6.47037">
        <ele>2500</ele>
        <time>2024-08-16T09:31:25.744Z</time>
      </trkpt>
      <trkpt lat="45.0854" lon="6.47025">
        <ele>2500</ele>
        <time>2024-08-16T09:31:33.895Z</time>
      </trkpt>
      <trkpt lat="45.08545" lon="6.47014">
        <ele>2499</ele>
        <time>2024-08-16T09:31:40.926Z</time>
      </trkpt>
      <trkpt lat="45.08546" lon="6.47001">
        <ele>2499</ele>
        <time>2024-08-16T09:31:48.958Z</time>
      </trkpt>
      <trkpt lat="45.08551" lon="6.46989">
        <ele>2500</ele>
        <time>2024-08-16T09:32:00.906Z</time>
      </trkpt>
      <trkpt lat="45.08558" lon="6.46978">
        <ele>2499</ele>
        <time>2024-08-16T09:32:08.864Z</time>
      </trkpt>
      <trkpt lat="45.08566" lon="6.46973">
        <ele>2493</ele>
        <time>2024-08-16T09:32:15.520Z</time>
      </trkpt>
      <trkpt lat="45.08567" lon="6.4696">
        <ele>2492</ele>
        <time>2024-08-16T09:32:22.548Z</time>
      </trkpt>
      <trkpt lat="45.08574" lon="6.46951">
        <ele>2492</ele>
        <time>2024-08-16T09:32:30.773Z</time>
      </trkpt>
      <trkpt lat="45.08581" lon="6.46944">
        <ele>2485</ele>
        <time>2024-08-16T09:32:37.295Z</time>
      </trkpt>
      <trkpt lat="45.08587" lon="6.46934">
        <ele>2480</ele>
        <time>2024-08-16T09:32:44.348Z</time>
      </trkpt>
      <trkpt lat="45.08591" lon="6.46922">
        <ele>2480</ele>
        <time>2024-08-16T09:32:52.499Z</time>
      </trkpt>
      <trkpt lat="45.08593" lon="6.46909">
        <ele>2479</ele>
        <time>2024-08-16T09:32:59.649Z</time>
      </trkpt>
      <trkpt lat="45.08593" lon="6.46895">
        <ele>2478</ele>
        <time>2024-08-16T09:33:07.173Z</time>
      </trkpt>
      <trkpt lat="45.08592" lon="6.46882">
        <ele>2477</ele>
        <time>2024-08-16T09:33:14.201Z</time>
      </trkpt>
      <trkpt lat="45.0859" lon="6.46869">
        <ele>2474</ele>
        <time>2024-08-16T09:33:21.352Z</time>
      </trkpt>
      <trkpt lat="45.08593" lon="6.46857">
        <ele>2471</ele>
        <time>2024-08-16T09:33:28.194Z</time>
      </trkpt>
      <trkpt lat="45.08596" lon="6.46844">
        <ele>2468</ele>
        <time>2024-08-16T09:33:35.544Z</time>
      </trkpt>
      <trkpt lat="45.086" lon="6.46831">
        <ele>2464</ele>
        <time>2024-08-16T09:33:43.165Z</time>
      </trkpt>
      <trkpt lat="45.08603" lon="6.46819">
        <ele>2464</ele>
        <time>2024-08-16T09:33:50.984Z</time>
      </trkpt>
      <trkpt lat="45.08608" lon="6.46807">
        <ele>2462</ele>
        <time>2024-08-16T09:33:58.472Z</time>
      </trkpt>
      <trkpt lat="45.08611" lon="6.46794">
        <ele>2459</ele>
        <time>2024-08-16T09:34:05.823Z</time>
      </trkpt>
      <trkpt lat="45.08612" lon="6.46781">
        <ele>2456</ele>
        <time>2024-08-16T09:34:12.851Z</time>
      </trkpt>
      <trkpt lat="45.08616" lon="6.46768">
        <ele>2456</ele>
        <time>2024-08-16T09:34:21.561Z</time>
      </trkpt>
      <trkpt lat="45.08617" lon="6.46755">
        <ele>2454</ele>
        <time>2024-08-16T09:34:28.589Z</time>
      </trkpt>
      <trkpt lat="45.0862" lon="6.46741">
        <ele>2452</ele>
        <time>2024-08-16T09:34:36.452Z</time>
      </trkpt>
      <trkpt lat="45.08623" lon="6.46729">
        <ele>2450</ele>
        <time>2024-08-16T09:34:43.293Z</time>
      </trkpt>
      <trkpt lat="45.08627" lon="6.46715">
        <ele>2446</ele>
        <time>2024-08-16T09:34:51.410Z</time>
      </trkpt>
      <trkpt lat="45.0863" lon="6.46703">
        <ele>2446</ele>
        <time>2024-08-16T09:34:59.229Z</time>
      </trkpt>
      <trkpt lat="45.08631" lon="6.4669">
        <ele>2443</ele>
        <time>2024-08-16T09:35:06.257Z</time>
      </trkpt>
      <trkpt lat="45.08635" lon="6.46678">
        <ele>2443</ele>
        <time>2024-08-16T09:35:14.407Z</time>
      </trkpt>
      <trkpt lat="45.08642" lon="6.46669">
        <ele>2440</ele>
        <time>2024-08-16T09:35:21.604Z</time>
      </trkpt>
      <trkpt lat="45.08647" lon="6.46657">
        <ele>2437</ele>
        <time>2024-08-16T09:35:29.092Z</time>
      </trkpt>
      <trkpt lat="45.08648" lon="6.46644">
        <ele>2437</ele>
        <time>2024-08-16T09:35:37.124Z</time>
      </trkpt>
      <trkpt lat="45.08647" lon="6.46631">
        <ele>2435</ele>
        <time>2024-08-16T09:35:44.152Z</time>
      </trkpt>
      <trkpt lat="45.08646" lon="6.46616">
        <ele>2435</ele>
        <time>2024-08-16T09:35:53.406Z</time>
      </trkpt>
      <trkpt lat="45.08645" lon="6.46601">
        <ele>2435</ele>
        <time>2024-08-16T09:36:02.660Z</time>
      </trkpt>
      <trkpt lat="45.08638" lon="6.46589">
        <ele>2434</ele>
        <time>2024-08-16T09:36:11.025Z</time>
      </trkpt>
      <trkpt lat="45.08646" lon="6.46597">
        <ele>2434</ele>
        <time>2024-08-16T09:36:19.545Z</time>
      </trkpt>
      <trkpt lat="45.08655" lon="6.46602">
        <ele>2440</ele>
        <time>2024-08-16T09:37:03.698Z</time>
      </trkpt>
      <trkpt lat="45.0867" lon="6.4661">
        <ele>2450</ele>
        <time>2024-08-16T09:38:16.901Z</time>
      </trkpt>
      <trkpt lat="45.08678" lon="6.46618">
        <ele>2446</ele>
        <time>2024-08-16T09:38:24.355Z</time>
      </trkpt>
      <trkpt lat="45.08669" lon="6.46614">
        <ele>2446</ele>
        <time>2024-08-16T09:38:32.561Z</time>
      </trkpt>
      <trkpt lat="45.08657" lon="6.46611">
        <ele>2445</ele>
        <time>2024-08-16T09:38:41.836Z</time>
      </trkpt>
      <trkpt lat="45.08647" lon="6.46612">
        <ele>2452</ele>
        <time>2024-08-16T09:39:27.621Z</time>
      </trkpt>
      <trkpt lat="45.08639" lon="6.46607">
        <ele>2450</ele>
        <time>2024-08-16T09:39:34.277Z</time>
      </trkpt>
      <trkpt lat="45.08647" lon="6.46595">
        <ele>2462</ele>
        <time>2024-08-16T09:40:27.496Z</time>
      </trkpt>
      <trkpt lat="45.08644" lon="6.46582">
        <ele>2451</ele>
        <time>2024-08-16T09:40:34.846Z</time>
      </trkpt>
      <trkpt lat="45.08646" lon="6.46568">
        <ele>2435</ele>
        <time>2024-08-16T09:40:42.523Z</time>
      </trkpt>
      <trkpt lat="45.08646" lon="6.46555">
        <ele>2435</ele>
        <time>2024-08-16T09:40:50.507Z</time>
      </trkpt>
      <trkpt lat="45.08644" lon="6.46542">
        <ele>2433</ele>
        <time>2024-08-16T09:40:57.658Z</time>
      </trkpt>
      <trkpt lat="45.08644" lon="6.46527">
        <ele>2431</ele>
        <time>2024-08-16T09:41:05.719Z</time>
      </trkpt>
      <trkpt lat="45.0864" lon="6.46513">
        <ele>2431</ele>
        <time>2024-08-16T09:41:14.996Z</time>
      </trkpt>
      <trkpt lat="45.08634" lon="6.46503">
        <ele>2428</ele>
        <time>2024-08-16T09:41:22.048Z</time>
      </trkpt>
      <trkpt lat="45.08642" lon="6.46498">
        <ele>2428</ele>
        <time>2024-08-16T09:41:29.655Z</time>
      </trkpt>
      <trkpt lat="45.0865" lon="6.46491">
        <ele>2427</ele>
        <time>2024-08-16T09:41:36.813Z</time>
      </trkpt>
      <trkpt lat="45.0866" lon="6.4649">
        <ele>2427</ele>
        <time>2024-08-16T09:41:45.534Z</time>
      </trkpt>
      <trkpt lat="45.08668" lon="6.46483">
        <ele>2427</ele>
        <time>2024-08-16T09:41:53.714Z</time>
      </trkpt>
      <trkpt lat="45.08677" lon="6.46481">
        <ele>2426</ele>
        <time>2024-08-16T09:42:00.649Z</time>
      </trkpt>
      <trkpt lat="45.08685" lon="6.46474">
        <ele>2426</ele>
        <time>2024-08-16T09:42:08.829Z</time>
      </trkpt>
      <trkpt lat="45.08692" lon="6.46465">
        <ele>2426</ele>
        <time>2024-08-16T09:42:17.054Z</time>
      </trkpt>
      <trkpt lat="45.087" lon="6.46456">
        <ele>2425</ele>
        <time>2024-08-16T09:42:24.830Z</time>
      </trkpt>
      <trkpt lat="45.08708" lon="6.46448">
        <ele>2425</ele>
        <time>2024-08-16T09:42:33.349Z</time>
      </trkpt>
      <trkpt lat="45.08715" lon="6.4644">
        <ele>2425</ele>
        <time>2024-08-16T09:42:41.174Z</time>
      </trkpt>
      <trkpt lat="45.08723" lon="6.4643">
        <ele>2425</ele>
        <time>2024-08-16T09:42:50.456Z</time>
      </trkpt>
      <trkpt lat="45.08728" lon="6.46417">
        <ele>2425</ele>
        <time>2024-08-16T09:42:59.549Z</time>
      </trkpt>
      <trkpt lat="45.08734" lon="6.46406">
        <ele>2426</ele>
        <time>2024-08-16T09:43:11.478Z</time>
      </trkpt>
      <trkpt lat="45.0874" lon="6.46393">
        <ele>2426</ele>
        <time>2024-08-16T09:43:21.017Z</time>
      </trkpt>
      <trkpt lat="45.08746" lon="6.46382">
        <ele>2426</ele>
        <time>2024-08-16T09:43:29.554Z</time>
      </trkpt>
      <trkpt lat="45.08746" lon="6.46369">
        <ele>2425</ele>
        <time>2024-08-16T09:43:36.541Z</time>
      </trkpt>
      <trkpt lat="45.08748" lon="6.46357">
        <ele>2424</ele>
        <time>2024-08-16T09:43:43.167Z</time>
      </trkpt>
      <trkpt lat="45.08748" lon="6.46342">
        <ele>2424</ele>
        <time>2024-08-16T09:43:52.380Z</time>
      </trkpt>
      <trkpt lat="45.08745" lon="6.4633">
        <ele>2423</ele>
        <time>2024-08-16T09:43:59.221Z</time>
      </trkpt>
      <trkpt lat="45.08748" lon="6.46318">
        <ele>2423</ele>
        <time>2024-08-16T09:44:07.040Z</time>
      </trkpt>
      <trkpt lat="45.08757" lon="6.46317">
        <ele>2422</ele>
        <time>2024-08-16T09:44:13.912Z</time>
      </trkpt>
      <trkpt lat="45.08766" lon="6.46311">
        <ele>2421</ele>
        <time>2024-08-16T09:44:21.483Z</time>
      </trkpt>
      <trkpt lat="45.08772" lon="6.46301">
        <ele>2418</ele>
        <time>2024-08-16T09:44:28.536Z</time>
      </trkpt>
      <trkpt lat="45.08773" lon="6.46287">
        <ele>2415</ele>
        <time>2024-08-16T09:44:36.098Z</time>
      </trkpt>
      <trkpt lat="45.0878" lon="6.46277">
        <ele>2415</ele>
        <time>2024-08-16T09:44:44.747Z</time>
      </trkpt>
      <trkpt lat="45.08785" lon="6.46266">
        <ele>2413</ele>
        <time>2024-08-16T09:44:51.778Z</time>
      </trkpt>
      <trkpt lat="45.08788" lon="6.46253">
        <ele>2411</ele>
        <time>2024-08-16T09:44:59.128Z</time>
      </trkpt>
      <trkpt lat="45.08794" lon="6.4624">
        <ele>2409</ele>
        <time>2024-08-16T09:45:07.475Z</time>
      </trkpt>
      <trkpt lat="45.08798" lon="6.46229">
        <ele>2409</ele>
        <time>2024-08-16T09:45:15.075Z</time>
      </trkpt>
      <trkpt lat="45.08805" lon="6.4622">
        <ele>2399</ele>
        <time>2024-08-16T09:45:22.271Z</time>
      </trkpt>
      <trkpt lat="45.08806" lon="6.46207">
        <ele>2399</ele>
        <time>2024-08-16T09:45:30.302Z</time>
      </trkpt>
      <trkpt lat="45.08806" lon="6.46194">
        <ele>2399</ele>
        <time>2024-08-16T09:45:38.287Z</time>
      </trkpt>
      <trkpt lat="45.08804" lon="6.46181">
        <ele>2397</ele>
        <time>2024-08-16T09:45:45.437Z</time>
      </trkpt>
      <trkpt lat="45.08806" lon="6.46167">
        <ele>2395</ele>
        <time>2024-08-16T09:45:53.113Z</time>
      </trkpt>
      <trkpt lat="45.08805" lon="6.46153">
        <ele>2393</ele>
        <time>2024-08-16T09:46:00.676Z</time>
      </trkpt>
      <trkpt lat="45.08802" lon="6.46139">
        <ele>2391</ele>
        <time>2024-08-16T09:46:08.538Z</time>
      </trkpt>
      <trkpt lat="45.088" lon="6.46126">
        <ele>2391</ele>
        <time>2024-08-16T09:46:16.710Z</time>
      </trkpt>
      <trkpt lat="45.08797" lon="6.46112">
        <ele>2389</ele>
        <time>2024-08-16T09:46:24.573Z</time>
      </trkpt>
      <trkpt lat="45.08791" lon="6.46102">
        <ele>2388</ele>
        <time>2024-08-16T09:46:31.625Z</time>
      </trkpt>
      <trkpt lat="45.08789" lon="6.46089">
        <ele>2387</ele>
        <time>2024-08-16T09:46:38.776Z</time>
      </trkpt>
      <trkpt lat="45.08784" lon="6.46078">
        <ele>2387</ele>
        <time>2024-08-16T09:46:46.811Z</time>
      </trkpt>
      <trkpt lat="45.08782" lon="6.46065">
        <ele>2386</ele>
        <time>2024-08-16T09:46:53.961Z</time>
      </trkpt>
      <trkpt lat="45.0878" lon="6.46053">
        <ele>2386</ele>
        <time>2024-08-16T09:47:01.534Z</time>
      </trkpt>
      <trkpt lat="45.08777" lon="6.46039">
        <ele>2386</ele>
        <time>2024-08-16T09:47:10.520Z</time>
      </trkpt>
      <trkpt lat="45.08772" lon="6.46026">
        <ele>2384</ele>
        <time>2024-08-16T09:47:18.476Z</time>
      </trkpt>
      <trkpt lat="45.08768" lon="6.46013">
        <ele>2382</ele>
        <time>2024-08-16T09:47:26.097Z</time>
      </trkpt>
      <trkpt lat="45.08762" lon="6.46002">
        <ele>2382</ele>
        <time>2024-08-16T09:47:34.635Z</time>
      </trkpt>
      <trkpt lat="45.08758" lon="6.4599">
        <ele>2380</ele>
        <time>2024-08-16T09:47:41.766Z</time>
      </trkpt>
      <trkpt lat="45.08752" lon="6.45978">
        <ele>2379</ele>
        <time>2024-08-16T09:47:49.669Z</time>
      </trkpt>
      <trkpt lat="45.08747" lon="6.45968">
        <ele>2378</ele>
        <time>2024-08-16T09:47:56.254Z</time>
      </trkpt>
      <trkpt lat="45.08743" lon="6.45955">
        <ele>2378</ele>
        <time>2024-08-16T09:48:04.964Z</time>
      </trkpt>
      <trkpt lat="45.08738" lon="6.45941">
        <ele>2375</ele>
        <time>2024-08-16T09:48:13.395Z</time>
      </trkpt>
      <trkpt lat="45.08733" lon="6.45931">
        <ele>2372</ele>
        <time>2024-08-16T09:48:19.981Z</time>
      </trkpt>
      <trkpt lat="45.08733" lon="6.45918">
        <ele>2372</ele>
        <time>2024-08-16T09:48:27.965Z</time>
      </trkpt>
      <trkpt lat="45.0873" lon="6.45906">
        <ele>2364</ele>
        <time>2024-08-16T09:48:34.807Z</time>
      </trkpt>
      <trkpt lat="45.08737" lon="6.45896">
        <ele>2355</ele>
        <time>2024-08-16T09:48:42.375Z</time>
      </trkpt>
      <trkpt lat="45.08738" lon="6.45883">
        <ele>2350</ele>
        <time>2024-08-16T09:48:49.402Z</time>
      </trkpt>
      <trkpt lat="45.08737" lon="6.45869">
        <ele>2347</ele>
        <time>2024-08-16T09:48:56.965Z</time>
      </trkpt>
      <trkpt lat="45.08736" lon="6.45856">
        <ele>2346</ele>
        <time>2024-08-16T09:49:03.993Z</time>
      </trkpt>
      <trkpt lat="45.08733" lon="6.45842">
        <ele>2346</ele>
        <time>2024-08-16T09:49:12.979Z</time>
      </trkpt>
      <trkpt lat="45.08731" lon="6.45829">
        <ele>2344</ele>
        <time>2024-08-16T09:49:20.129Z</time>
      </trkpt>
      <trkpt lat="45.0873" lon="6.45814">
        <ele>2341</ele>
        <time>2024-08-16T09:49:28.226Z</time>
      </trkpt>
      <trkpt lat="45.08729" lon="6.458">
        <ele>2341</ele>
        <time>2024-08-16T09:49:36.869Z</time>
      </trkpt>
      <trkpt lat="45.08727" lon="6.45787">
        <ele>2336</ele>
        <time>2024-08-16T09:49:44.019Z</time>
      </trkpt>
      <trkpt lat="45.08728" lon="6.45774">
        <ele>2331</ele>
        <time>2024-08-16T09:49:51.047Z</time>
      </trkpt>
      <trkpt lat="45.08725" lon="6.45761">
        <ele>2327</ele>
        <time>2024-08-16T09:49:58.397Z</time>
      </trkpt>
      <trkpt lat="45.08725" lon="6.45747">
        <ele>2324</ele>
        <time>2024-08-16T09:50:05.921Z</time>
      </trkpt>
      <trkpt lat="45.08723" lon="6.45734">
        <ele>2322</ele>
        <time>2024-08-16T09:50:13.072Z</time>
      </trkpt>
      <trkpt lat="45.08726" lon="6.45721">
        <ele>2317</ele>
        <time>2024-08-16T09:50:20.422Z</time>
      </trkpt>
      <trkpt lat="45.08725" lon="6.45708">
        <ele>2313</ele>
        <time>2024-08-16T09:50:27.450Z</time>
      </trkpt>
      <trkpt lat="45.08724" lon="6.45695">
        <ele>2313</ele>
        <time>2024-08-16T09:50:35.481Z</time>
      </trkpt>
      <trkpt lat="45.08719" lon="6.45683">
        <ele>2311</ele>
        <time>2024-08-16T09:50:42.970Z</time>
      </trkpt>
      <trkpt lat="45.08715" lon="6.4567">
        <ele>2311</ele>
        <time>2024-08-16T09:50:51.680Z</time>
      </trkpt>
      <trkpt lat="45.08712" lon="6.45657">
        <ele>2309</ele>
        <time>2024-08-16T09:50:59.030Z</time>
      </trkpt>
      <trkpt lat="45.08712" lon="6.45644">
        <ele>2308</ele>
        <time>2024-08-16T09:51:06.016Z</time>
      </trkpt>
      <trkpt lat="45.08712" lon="6.45631">
        <ele>2308</ele>
        <time>2024-08-16T09:51:14.001Z</time>
      </trkpt>
      <trkpt lat="45.0871" lon="6.45618">
        <ele>2309</ele>
        <time>2024-08-16T09:51:25.603Z</time>
      </trkpt>
      <trkpt lat="45.08704" lon="6.45608">
        <ele>2308</ele>
        <time>2024-08-16T09:51:32.656Z</time>
      </trkpt>
      <trkpt lat="45.08702" lon="6.45593">
        <ele>2308</ele>
        <time>2024-08-16T09:51:42.031Z</time>
      </trkpt>
      <trkpt lat="45.08698" lon="6.4558">
        <ele>2309</ele>
        <time>2024-08-16T09:51:54.116Z</time>
      </trkpt>
      <trkpt lat="45.08693" lon="6.45568">
        <ele>2309</ele>
        <time>2024-08-16T09:52:02.674Z</time>
      </trkpt>
      <trkpt lat="45.08684" lon="6.45559">
        <ele>2307</ele>
        <time>2024-08-16T09:52:11.060Z</time>
      </trkpt>
      <trkpt lat="45.08678" lon="6.4555">
        <ele>2307</ele>
        <time>2024-08-16T09:52:18.663Z</time>
      </trkpt>
      <trkpt lat="45.08671" lon="6.45541">
        <ele>2307</ele>
        <time>2024-08-16T09:52:26.887Z</time>
      </trkpt>
      <trkpt lat="45.08666" lon="6.45528">
        <ele>2305</ele>
        <time>2024-08-16T09:52:34.843Z</time>
      </trkpt>
      <trkpt lat="45.08662" lon="6.45517">
        <ele>2302</ele>
        <time>2024-08-16T09:52:41.493Z</time>
      </trkpt>
      <trkpt lat="45.08665" lon="6.45503">
        <ele>2302</ele>
        <time>2024-08-16T09:52:50.479Z</time>
      </trkpt>
      <trkpt lat="45.08659" lon="6.45492">
        <ele>2301</ele>
        <time>2024-08-16T09:52:57.949Z</time>
      </trkpt>
      <trkpt lat="45.08655" lon="6.4548">
        <ele>2300</ele>
        <time>2024-08-16T09:53:05.081Z</time>
      </trkpt>
      <trkpt lat="45.08651" lon="6.45467">
        <ele>2300</ele>
        <time>2024-08-16T09:53:13.791Z</time>
      </trkpt>
      <trkpt lat="45.08648" lon="6.45454">
        <ele>2293</ele>
        <time>2024-08-16T09:53:21.141Z</time>
      </trkpt>
      <trkpt lat="45.08647" lon="6.45441">
        <ele>2290</ele>
        <time>2024-08-16T09:53:28.169Z</time>
      </trkpt>
      <trkpt lat="45.08644" lon="6.45429">
        <ele>2288</ele>
        <time>2024-08-16T09:53:35.011Z</time>
      </trkpt>
      <trkpt lat="45.08645" lon="6.45416">
        <ele>2273</ele>
        <time>2024-08-16T09:53:42.039Z</time>
      </trkpt>
      <trkpt lat="45.08643" lon="6.454">
        <ele>2273</ele>
        <time>2024-08-16T09:53:52.019Z</time>
      </trkpt>
      <trkpt lat="45.08643" lon="6.45387">
        <ele>2271</ele>
        <time>2024-08-16T09:53:59.005Z</time>
      </trkpt>
      <trkpt lat="45.08644" lon="6.45373">
        <ele>2268</ele>
        <time>2024-08-16T09:54:06.568Z</time>
      </trkpt>
      <trkpt lat="45.08651" lon="6.45361">
        <ele>2267</ele>
        <time>2024-08-16T09:54:14.933Z</time>
      </trkpt>
      <trkpt lat="45.08651" lon="6.45348">
        <ele>2267</ele>
        <time>2024-08-16T09:54:22.918Z</time>
      </trkpt>
      <trkpt lat="45.08653" lon="6.45336">
        <ele>2267</ele>
        <time>2024-08-16T09:54:30.491Z</time>
      </trkpt>
      <trkpt lat="45.08651" lon="6.45322">
        <ele>2265</ele>
        <time>2024-08-16T09:54:38.167Z</time>
      </trkpt>
      <trkpt lat="45.08647" lon="6.45309">
        <ele>2264</ele>
        <time>2024-08-16T09:54:45.789Z</time>
      </trkpt>
      <trkpt lat="45.08646" lon="6.45295">
        <ele>2263</ele>
        <time>2024-08-16T09:54:53.351Z</time>
      </trkpt>
      <trkpt lat="45.08644" lon="6.45283">
        <ele>2261</ele>
        <time>2024-08-16T09:54:59.977Z</time>
      </trkpt>
      <trkpt lat="45.08645" lon="6.4527">
        <ele>2258</ele>
        <time>2024-08-16T09:55:07.005Z</time>
      </trkpt>
      <trkpt lat="45.08641" lon="6.45257">
        <ele>2257</ele>
        <time>2024-08-16T09:55:14.626Z</time>
      </trkpt>
      <trkpt lat="45.08641" lon="6.45244">
        <ele>2256</ele>
        <time>2024-08-16T09:55:21.613Z</time>
      </trkpt>
      <trkpt lat="45.08639" lon="6.45231">
        <ele>2240</ele>
        <time>2024-08-16T09:55:28.764Z</time>
      </trkpt>
      <trkpt lat="45.08639" lon="6.45217">
        <ele>2240</ele>
        <time>2024-08-16T09:55:37.362Z</time>
      </trkpt>
      <trkpt lat="45.08636" lon="6.45205">
        <ele>2239</ele>
        <time>2024-08-16T09:55:44.204Z</time>
      </trkpt>
      <trkpt lat="45.08629" lon="6.45194">
        <ele>2234</ele>
        <time>2024-08-16T09:55:52.162Z</time>
      </trkpt>
      <trkpt lat="45.08627" lon="6.4518">
        <ele>2234</ele>
        <time>2024-08-16T09:56:00.936Z</time>
      </trkpt>
      <trkpt lat="45.08626" lon="6.45166">
        <ele>2232</ele>
        <time>2024-08-16T09:56:08.498Z</time>
      </trkpt>
      <trkpt lat="45.08623" lon="6.45154">
        <ele>2231</ele>
        <time>2024-08-16T09:56:15.340Z</time>
      </trkpt>
      <trkpt lat="45.08622" lon="6.45141">
        <ele>2225</ele>
        <time>2024-08-16T09:56:22.368Z</time>
      </trkpt>
      <trkpt lat="45.08625" lon="6.45129">
        <ele>2209</ele>
        <time>2024-08-16T09:56:29.209Z</time>
      </trkpt>
      <trkpt lat="45.08623" lon="6.45115">
        <ele>2206</ele>
        <time>2024-08-16T09:56:36.886Z</time>
      </trkpt>
      <trkpt lat="45.08614" lon="6.45117">
        <ele>2202</ele>
        <time>2024-08-16T09:56:43.820Z</time>
      </trkpt>
      <trkpt lat="45.08613" lon="6.45104">
        <ele>2199</ele>
        <time>2024-08-16T09:56:50.848Z</time>
      </trkpt>
      <trkpt lat="45.08614" lon="6.45089">
        <ele>2196</ele>
        <time>2024-08-16T09:56:58.945Z</time>
      </trkpt>
      <trkpt lat="45.08607" lon="6.45082">
        <ele>2195</ele>
        <time>2024-08-16T09:57:05.468Z</time>
      </trkpt>
      <trkpt lat="45.08603" lon="6.45069">
        <ele>2190</ele>
        <time>2024-08-16T09:57:13.089Z</time>
      </trkpt>
      <trkpt lat="45.08607" lon="6.45056">
        <ele>2187</ele>
        <time>2024-08-16T09:57:20.710Z</time>
      </trkpt>
      <trkpt lat="45.08609" lon="6.45043">
        <ele>2186</ele>
        <time>2024-08-16T09:57:27.861Z</time>
      </trkpt>
      <trkpt lat="45.08617" lon="6.45036">
        <ele>2185</ele>
        <time>2024-08-16T09:57:35.019Z</time>
      </trkpt>
      <trkpt lat="45.08619" lon="6.45022">
        <ele>2184</ele>
        <time>2024-08-16T09:57:42.695Z</time>
      </trkpt>
      <trkpt lat="45.08619" lon="6.45009">
        <ele>2181</ele>
        <time>2024-08-16T09:57:49.682Z</time>
      </trkpt>
      <trkpt lat="45.08617" lon="6.44995">
        <ele>2181</ele>
        <time>2024-08-16T09:57:58.455Z</time>
      </trkpt>
      <trkpt lat="45.08618" lon="6.4498">
        <ele>2179</ele>
        <time>2024-08-16T09:58:06.552Z</time>
      </trkpt>
      <trkpt lat="45.08625" lon="6.44971">
        <ele>2179</ele>
        <time>2024-08-16T09:58:14.777Z</time>
      </trkpt>
      <trkpt lat="45.08634" lon="6.44966">
        <ele>2177</ele>
        <time>2024-08-16T09:58:22.135Z</time>
      </trkpt>
      <trkpt lat="45.08642" lon="6.44959">
        <ele>2175</ele>
        <time>2024-08-16T09:58:29.293Z</time>
      </trkpt>
      <trkpt lat="45.08651" lon="6.44953">
        <ele>2172</ele>
        <time>2024-08-16T09:58:36.865Z</time>
      </trkpt>
      <trkpt lat="45.08658" lon="6.44945">
        <ele>2168</ele>
        <time>2024-08-16T09:58:43.712Z</time>
      </trkpt>
      <trkpt lat="45.08659" lon="6.4493">
        <ele>2168</ele>
        <time>2024-08-16T09:58:52.966Z</time>
      </trkpt>
      <trkpt lat="45.08659" lon="6.44917">
        <ele>2167</ele>
        <time>2024-08-16T09:58:59.952Z</time>
      </trkpt>
      <trkpt lat="45.08659" lon="6.44903">
        <ele>2166</ele>
        <time>2024-08-16T09:59:07.476Z</time>
      </trkpt>
      <trkpt lat="45.08662" lon="6.4489">
        <ele>2166</ele>
        <time>2024-08-16T09:59:15.876Z</time>
      </trkpt>
      <trkpt lat="45.08664" lon="6.44877">
        <ele>2165</ele>
        <time>2024-08-16T09:59:23.027Z</time>
      </trkpt>
      <trkpt lat="45.08666" lon="6.44864">
        <ele>2163</ele>
        <time>2024-08-16T09:59:30.177Z</time>
      </trkpt>
      <trkpt lat="45.08663" lon="6.44851">
        <ele>2163</ele>
        <time>2024-08-16T09:59:38.578Z</time>
      </trkpt>
      <trkpt lat="45.08661" lon="6.44839">
        <ele>2162</ele>
        <time>2024-08-16T09:59:45.204Z</time>
      </trkpt>
      <trkpt lat="45.08663" lon="6.44826">
        <ele>2161</ele>
        <time>2024-08-16T09:59:52.355Z</time>
      </trkpt>
      <trkpt lat="45.08664" lon="6.44812">
        <ele>2161</ele>
        <time>2024-08-16T10:00:00.997Z</time>
      </trkpt>
      <trkpt lat="45.08662" lon="6.44799">
        <ele>2159</ele>
        <time>2024-08-16T10:00:08.148Z</time>
      </trkpt>
      <trkpt lat="45.0866" lon="6.44785">
        <ele>2157</ele>
        <time>2024-08-16T10:00:15.824Z</time>
      </trkpt>
      <trkpt lat="45.08661" lon="6.44772">
        <ele>2157</ele>
        <time>2024-08-16T10:00:23.856Z</time>
      </trkpt>
      <trkpt lat="45.08663" lon="6.44759">
        <ele>2154</ele>
        <time>2024-08-16T10:00:31.007Z</time>
      </trkpt>
      <trkpt lat="45.08662" lon="6.44744">
        <ele>2150</ele>
        <time>2024-08-16T10:00:39.104Z</time>
      </trkpt>
      <trkpt lat="45.08667" lon="6.44731">
        <ele>2148</ele>
        <time>2024-08-16T10:00:47.060Z</time>
      </trkpt>
      <trkpt lat="45.0867" lon="6.44717">
        <ele>2148</ele>
        <time>2024-08-16T10:00:56.046Z</time>
      </trkpt>
      <trkpt lat="45.08676" lon="6.44705">
        <ele>2146</ele>
        <time>2024-08-16T10:01:03.948Z</time>
      </trkpt>
      <trkpt lat="45.08678" lon="6.44692">
        <ele>2143</ele>
        <time>2024-08-16T10:01:11.099Z</time>
      </trkpt>
      <trkpt lat="45.08685" lon="6.44683">
        <ele>2142</ele>
        <time>2024-08-16T10:01:18.295Z</time>
      </trkpt>
      <trkpt lat="45.08691" lon="6.44672">
        <ele>2141</ele>
        <time>2024-08-16T10:01:25.766Z</time>
      </trkpt>
      <trkpt lat="45.08696" lon="6.4466">
        <ele>2139</ele>
        <time>2024-08-16T10:01:33.254Z</time>
      </trkpt>
      <trkpt lat="45.08698" lon="6.44646">
        <ele>2136</ele>
        <time>2024-08-16T10:01:40.930Z</time>
      </trkpt>
      <trkpt lat="45.08699" lon="6.44633">
        <ele>2133</ele>
        <time>2024-08-16T10:01:47.958Z</time>
      </trkpt>
      <trkpt lat="45.08699" lon="6.44621">
        <ele>2133</ele>
        <time>2024-08-16T10:01:55.329Z</time>
      </trkpt>
      <trkpt lat="45.08701" lon="6.44607">
        <ele>2132</ele>
        <time>2024-08-16T10:02:03.005Z</time>
      </trkpt>
      <trkpt lat="45.08705" lon="6.44596">
        <ele>2129</ele>
        <time>2024-08-16T10:02:09.655Z</time>
      </trkpt>
      <trkpt lat="45.08696" lon="6.44594">
        <ele>2127</ele>
        <time>2024-08-16T10:02:16.589Z</time>
      </trkpt>
      <trkpt lat="45.08687" lon="6.44589">
        <ele>2127</ele>
        <time>2024-08-16T10:02:24.999Z</time>
      </trkpt>
      <trkpt lat="45.08686" lon="6.44575">
        <ele>2126</ele>
        <time>2024-08-16T10:02:32.562Z</time>
      </trkpt>
      <trkpt lat="45.0869" lon="6.44562">
        <ele>2122</ele>
        <time>2024-08-16T10:02:40.183Z</time>
      </trkpt>
      <trkpt lat="45.08689" lon="6.44548">
        <ele>2122</ele>
        <time>2024-08-16T10:02:48.825Z</time>
      </trkpt>
      <trkpt lat="45.08695" lon="6.4454">
        <ele>2119</ele>
        <time>2024-08-16T10:02:55.098Z</time>
      </trkpt>
      <trkpt lat="45.08695" lon="6.44526">
        <ele>2117</ele>
        <time>2024-08-16T10:03:02.622Z</time>
      </trkpt>
      <trkpt lat="45.08695" lon="6.44514">
        <ele>2114</ele>
        <time>2024-08-16T10:03:09.071Z</time>
      </trkpt>
      <trkpt lat="45.08691" lon="6.44501">
        <ele>2110</ele>
        <time>2024-08-16T10:03:16.692Z</time>
      </trkpt>
      <trkpt lat="45.08684" lon="6.44492">
        <ele>2109</ele>
        <time>2024-08-16T10:03:23.888Z</time>
      </trkpt>
      <trkpt lat="45.08677" lon="6.44498">
        <ele>2105</ele>
        <time>2024-08-16T10:03:30.116Z</time>
      </trkpt>
      <trkpt lat="45.0867" lon="6.44488">
        <ele>2103</ele>
        <time>2024-08-16T10:03:37.684Z</time>
      </trkpt>
      <trkpt lat="45.08663" lon="6.4448">
        <ele>2101</ele>
        <time>2024-08-16T10:03:44.531Z</time>
      </trkpt>
      <trkpt lat="45.08656" lon="6.4447">
        <ele>2096</ele>
        <time>2024-08-16T10:03:52.099Z</time>
      </trkpt>
      <trkpt lat="45.08654" lon="6.44456">
        <ele>2093</ele>
        <time>2024-08-16T10:03:59.775Z</time>
      </trkpt>
      <trkpt lat="45.08655" lon="6.44441">
        <ele>2093</ele>
        <time>2024-08-16T10:04:09.029Z</time>
      </trkpt>
      <trkpt lat="45.08652" lon="6.44428">
        <ele>2091</ele>
        <time>2024-08-16T10:04:16.379Z</time>
      </trkpt>
      <trkpt lat="45.08652" lon="6.44413">
        <ele>2089</ele>
        <time>2024-08-16T10:04:24.441Z</time>
      </trkpt>
      <trkpt lat="45.08651" lon="6.44399">
        <ele>2087</ele>
        <time>2024-08-16T10:04:32.003Z</time>
      </trkpt>
      <trkpt lat="45.08654" lon="6.44386">
        <ele>2087</ele>
        <time>2024-08-16T10:04:40.404Z</time>
      </trkpt>
      <trkpt lat="45.08655" lon="6.44372">
        <ele>2085</ele>
        <time>2024-08-16T10:04:47.966Z</time>
      </trkpt>
      <trkpt lat="45.0866" lon="6.44361">
        <ele>2084</ele>
        <time>2024-08-16T10:04:54.997Z</time>
      </trkpt>
      <trkpt lat="45.08664" lon="6.44347">
        <ele>2084</ele>
        <time>2024-08-16T10:05:04.273Z</time>
      </trkpt>
      <trkpt lat="45.08666" lon="6.44334">
        <ele>2082</ele>
        <time>2024-08-16T10:05:11.424Z</time>
      </trkpt>
      <trkpt lat="45.08668" lon="6.44321">
        <ele>2082</ele>
        <time>2024-08-16T10:05:19.596Z</time>
      </trkpt>
      <trkpt lat="45.08671" lon="6.44307">
        <ele>2081</ele>
        <time>2024-08-16T10:05:27.458Z</time>
      </trkpt>
      <trkpt lat="45.08675" lon="6.44295">
        <ele>2081</ele>
        <time>2024-08-16T10:05:35.609Z</time>
      </trkpt>
      <trkpt lat="45.08674" lon="6.44282">
        <ele>2077</ele>
        <time>2024-08-16T10:05:42.637Z</time>
      </trkpt>
      <trkpt lat="45.08678" lon="6.44269">
        <ele>2077</ele>
        <time>2024-08-16T10:05:51.347Z</time>
      </trkpt>
      <trkpt lat="45.08676" lon="6.44256">
        <ele>2073</ele>
        <time>2024-08-16T10:05:58.497Z</time>
      </trkpt>
      <trkpt lat="45.08677" lon="6.44242">
        <ele>2073</ele>
        <time>2024-08-16T10:06:07.140Z</time>
      </trkpt>
      <trkpt lat="45.08678" lon="6.44229">
        <ele>2067</ele>
        <time>2024-08-16T10:06:14.168Z</time>
      </trkpt>
      <trkpt lat="45.08683" lon="6.44217">
        <ele>2067</ele>
        <time>2024-08-16T10:06:22.726Z</time>
      </trkpt>
      <trkpt lat="45.08688" lon="6.44205">
        <ele>2065</ele>
        <time>2024-08-16T10:06:30.214Z</time>
      </trkpt>
      <trkpt lat="45.08693" lon="6.44193">
        <ele>2064</ele>
        <time>2024-08-16T10:06:37.703Z</time>
      </trkpt>
      <trkpt lat="45.08699" lon="6.44183">
        <ele>2064</ele>
        <time>2024-08-16T10:06:45.763Z</time>
      </trkpt>
      <trkpt lat="45.08705" lon="6.44172">
        <ele>2064</ele>
        <time>2024-08-16T10:06:54.301Z</time>
      </trkpt>
      <trkpt lat="45.08708" lon="6.44159">
        <ele>2064</ele>
        <time>2024-08-16T10:07:02.701Z</time>
      </trkpt>
      <trkpt lat="45.08713" lon="6.44147">
        <ele>2062</ele>
        <time>2024-08-16T10:07:10.189Z</time>
      </trkpt>
      <trkpt lat="45.08719" lon="6.44137">
        <ele>2062</ele>
        <time>2024-08-16T10:07:18.249Z</time>
      </trkpt>
      <trkpt lat="45.08726" lon="6.44126">
        <ele>2062</ele>
        <time>2024-08-16T10:07:27.345Z</time>
      </trkpt>
      <trkpt lat="45.08733" lon="6.44115">
        <ele>2062</ele>
        <time>2024-08-16T10:07:36.440Z</time>
      </trkpt>
      <trkpt lat="45.08739" lon="6.44103">
        <ele>2060</ele>
        <time>2024-08-16T10:07:44.343Z</time>
      </trkpt>
      <trkpt lat="45.08746" lon="6.44091">
        <ele>2060</ele>
        <time>2024-08-16T10:07:53.903Z</time>
      </trkpt>
      <trkpt lat="45.08751" lon="6.4408">
        <ele>2060</ele>
        <time>2024-08-16T10:08:01.939Z</time>
      </trkpt>
      <trkpt lat="45.08758" lon="6.44071">
        <ele>2058</ele>
        <time>2024-08-16T10:08:09.135Z</time>
      </trkpt>
      <trkpt lat="45.08765" lon="6.44062">
        <ele>2058</ele>
        <time>2024-08-16T10:08:17.359Z</time>
      </trkpt>
      <trkpt lat="45.08767" lon="6.44049">
        <ele>2057</ele>
        <time>2024-08-16T10:08:24.509Z</time>
      </trkpt>
      <trkpt lat="45.08768" lon="6.44035">
        <ele>2055</ele>
        <time>2024-08-16T10:08:32.072Z</time>
      </trkpt>
      <trkpt lat="45.08774" lon="6.44023">
        <ele>2053</ele>
        <time>2024-08-16T10:08:39.974Z</time>
      </trkpt>
      <trkpt lat="45.08782" lon="6.44016">
        <ele>2053</ele>
        <time>2024-08-16T10:08:48.154Z</time>
      </trkpt>
      <trkpt lat="45.08786" lon="6.44004">
        <ele>2050</ele>
        <time>2024-08-16T10:08:55.286Z</time>
      </trkpt>
      <trkpt lat="45.08789" lon="6.43992">
        <ele>2048</ele>
        <time>2024-08-16T10:09:02.127Z</time>
      </trkpt>
      <trkpt lat="45.08797" lon="6.43982">
        <ele>2048</ele>
        <time>2024-08-16T10:09:11.409Z</time>
      </trkpt>
      <trkpt lat="45.08803" lon="6.4397">
        <ele>2046</ele>
        <time>2024-08-16T10:09:19.312Z</time>
      </trkpt>
      <trkpt lat="45.08807" lon="6.43955">
        <ele>2043</ele>
        <time>2024-08-16T10:09:27.929Z</time>
      </trkpt>
      <trkpt lat="45.08812" lon="6.43942">
        <ele>2043</ele>
        <time>2024-08-16T10:09:37.021Z</time>
      </trkpt>
      <trkpt lat="45.08817" lon="6.43931">
        <ele>2041</ele>
        <time>2024-08-16T10:09:44.052Z</time>
      </trkpt>
      <trkpt lat="45.08821" lon="6.43919">
        <ele>2036</ele>
        <time>2024-08-16T10:09:51.183Z</time>
      </trkpt>
      <trkpt lat="45.08827" lon="6.43909">
        <ele>2036</ele>
        <time>2024-08-16T10:09:59.244Z</time>
      </trkpt>
      <trkpt lat="45.08832" lon="6.43896">
        <ele>2034</ele>
        <time>2024-08-16T10:10:07.199Z</time>
      </trkpt>
      <trkpt lat="45.08839" lon="6.43888">
        <ele>2031</ele>
        <time>2024-08-16T10:10:14.046Z</time>
      </trkpt>
      <trkpt lat="45.08847" lon="6.43879">
        <ele>2031</ele>
        <time>2024-08-16T10:10:22.933Z</time>
      </trkpt>
      <trkpt lat="45.08853" lon="6.43868">
        <ele>2031</ele>
        <time>2024-08-16T10:10:31.471Z</time>
      </trkpt>
      <trkpt lat="45.08858" lon="6.43857">
        <ele>2029</ele>
        <time>2024-08-16T10:10:38.502Z</time>
      </trkpt>
      <trkpt lat="45.08863" lon="6.43846">
        <ele>2026</ele>
        <time>2024-08-16T10:10:45.532Z</time>
      </trkpt>
      <trkpt lat="45.08872" lon="6.43839">
        <ele>2023</ele>
        <time>2024-08-16T10:10:53.348Z</time>
      </trkpt>
      <trkpt lat="45.08881" lon="6.43831">
        <ele>2023</ele>
        <time>2024-08-16T10:11:02.591Z</time>
      </trkpt>
      <trkpt lat="45.08889" lon="6.43821">
        <ele>2023</ele>
        <time>2024-08-16T10:11:11.873Z</time>
      </trkpt>
      <trkpt lat="45.08899" lon="6.43814">
        <ele>2023</ele>
        <time>2024-08-16T10:11:21.577Z</time>
      </trkpt>
      <trkpt lat="45.08903" lon="6.43802">
        <ele>2021</ele>
        <time>2024-08-16T10:11:28.708Z</time>
      </trkpt>
      <trkpt lat="45.089" lon="6.4379">
        <ele>2021</ele>
        <time>2024-08-16T10:11:36.527Z</time>
      </trkpt>
      <trkpt lat="45.08899" lon="6.43776">
        <ele>2013</ele>
        <time>2024-08-16T10:11:44.089Z</time>
      </trkpt>
      <trkpt lat="45.08906" lon="6.43768">
        <ele>2013</ele>
        <time>2024-08-16T10:11:51.914Z</time>
      </trkpt>
      <trkpt lat="45.08914" lon="6.43761">
        <ele>2010</ele>
        <time>2024-08-16T10:11:59.071Z</time>
      </trkpt>
      <trkpt lat="45.0892" lon="6.4375">
        <ele>2010</ele>
        <time>2024-08-16T10:12:07.609Z</time>
      </trkpt>
      <trkpt lat="45.08925" lon="6.43739">
        <ele>2010</ele>
        <time>2024-08-16T10:12:15.644Z</time>
      </trkpt>
      <trkpt lat="45.08932" lon="6.43731">
        <ele>2009</ele>
        <time>2024-08-16T10:12:22.490Z</time>
      </trkpt>
      <trkpt lat="45.08936" lon="6.43718">
        <ele>2007</ele>
        <time>2024-08-16T10:12:30.111Z</time>
      </trkpt>
      <trkpt lat="45.08944" lon="6.43709">
        <ele>2004</ele>
        <time>2024-08-16T10:12:37.888Z</time>
      </trkpt>
      <trkpt lat="45.08952" lon="6.437">
        <ele>2004</ele>
        <time>2024-08-16T10:12:46.775Z</time>
      </trkpt>
      <trkpt lat="45.0896" lon="6.43691">
        <ele>2001</ele>
        <time>2024-08-16T10:12:54.552Z</time>
      </trkpt>
      <trkpt lat="45.08965" lon="6.43679">
        <ele>2001</ele>
        <time>2024-08-16T10:13:03.110Z</time>
      </trkpt>
      <trkpt lat="45.08971" lon="6.4367">
        <ele>1998</ele>
        <time>2024-08-16T10:13:09.762Z</time>
      </trkpt>
      <trkpt lat="45.08978" lon="6.43661">
        <ele>1994</ele>
        <time>2024-08-16T10:13:16.958Z</time>
      </trkpt>
      <trkpt lat="45.08976" lon="6.43647">
        <ele>1992</ele>
        <time>2024-08-16T10:13:24.634Z</time>
      </trkpt>
      <trkpt lat="45.08983" lon="6.43637">
        <ele>1992</ele>
        <time>2024-08-16T10:13:33.283Z</time>
      </trkpt>
      <trkpt lat="45.08981" lon="6.43625">
        <ele>1990</ele>
        <time>2024-08-16T10:13:39.909Z</time>
      </trkpt>
      <trkpt lat="45.08979" lon="6.43612">
        <ele>1989</ele>
        <time>2024-08-16T10:13:47.059Z</time>
      </trkpt>
      <trkpt lat="45.08983" lon="6.43598">
        <ele>1988</ele>
        <time>2024-08-16T10:13:55.175Z</time>
      </trkpt>
      <trkpt lat="45.08991" lon="6.4359">
        <ele>1985</ele>
        <time>2024-08-16T10:14:02.629Z</time>
      </trkpt>
      <trkpt lat="45.09003" lon="6.43584">
        <ele>1983</ele>
        <time>2024-08-16T10:14:12.316Z</time>
      </trkpt>
      <trkpt lat="45.09013" lon="6.43585">
        <ele>1984</ele>
        <time>2024-08-16T10:14:24.410Z</time>
      </trkpt>
      <trkpt lat="45.09005" lon="6.43577">
        <ele>1983</ele>
        <time>2024-08-16T10:14:31.865Z</time>
      </trkpt>
      <trkpt lat="45.09003" lon="6.43578">
        <ele>1981</ele>
        <time>2024-08-16T10:14:33.479Z</time>
      </trkpt>
    </trkseg>
  </trk>
</gpx>